Darstellungsparameter: Aktuell verwendete Einstellungen:
Skalierung der Graphiken ... ?
xyx+y,   Skalierungsfaktor:      Skalierung: Modus: x, Faktor: 1
Darstellungszeitraum ... ?
Vom - - bis: - -   Zeitraum: 09.10.2019 - 08.11.2019
Min/Max/Avg-Anzeige ... ?
Zeige MMA aktuell
Zeige MMA Monat
Zeige MMA alles
Zeige --A aktuell
Zeige --A Monat
Zeige --A alles
Keine MMA-Anzeige
MMA:
Average (ber die Originaldaten)
MMA-Basis: 09.10.2019 - 08.11.2019
Quicknavigation für Darstellung... ?
Tage:      1T, 2T, 3T, 5T -1T -2T -3T -5T +1T +2T +3T +5T
Wochen: 1W, 2W, 3W -1W -2W -3W +1W +2W +3W
Monate: 1M, 3M, 6M -1M -3M -6M +1M +3M +6M
Jahre:    1J, 3J, 5J, 10J -1J -3J -5J -10J +1J +3J +5J +10J
Nutze für die Darstellung ... ?
Originaldaten oder Mittelwerte auf ...
Stundenbasis Tagesbasis Wochenbasis
Monatsbasis Jahresbasis      Datenbasis: Original-Daten
Darstellen als:
Statistik (Auto) Statistik J:M      Darstellung:
Zur Graphik,    zurück zur Übersicht aller Sensoren.
 
Tabellarische Datenbersicht: ?
 
Sensor: Nr:Datum:Temp:Feuchte:
Aussen-T/F 1 09-10-2019 00:06:17 10.4 C 36 %
2 09-10-2019 00:16:17 10.1 C 36 %
3 09-10-2019 00:26:17 9.9 C 36 %
4 09-10-2019 00:36:17 9.8 C 36 %
5 09-10-2019 00:46:17 9.7 C 37 %
6 09-10-2019 00:56:17 9.6 C 37 %
7 09-10-2019 01:06:17 9.7 C 37 %
8 09-10-2019 01:16:17 9.7 C 37 %
9 09-10-2019 01:26:17 9.8 C 37 %
10 09-10-2019 01:36:17 9.8 C 37 %
11 09-10-2019 01:46:17 9.9 C 37 %
12 09-10-2019 01:56:17 9.9 C 36 %
13 09-10-2019 02:06:17 10.1 C 36 %
14 09-10-2019 02:16:17 10.2 C 35 %
15 09-10-2019 02:26:17 10 C 35 %
16 09-10-2019 02:36:17 9.8 C 36 %
17 09-10-2019 02:46:17 10.1 C 36 %
18 09-10-2019 02:56:17 10.5 C 36 %
19 09-10-2019 03:06:18 10.4 C 36 %
20 09-10-2019 03:16:17 10.2 C 36 %
21 09-10-2019 03:26:17 9.7 C 36 %
22 09-10-2019 03:36:18 9.6 C 36 %
23 09-10-2019 03:46:17 10.3 C 36 %
24 09-10-2019 03:56:17 11.1 C 35 %
25 09-10-2019 04:06:17 11.2 C 31 %
Sensor: Nr:Datum:Temp:Feuchte:
Aussen-T/F 26 09-10-2019 04:16:17 11 C 30 %
27 09-10-2019 04:26:17 11 C 31 %
28 09-10-2019 04:36:17 11 C 31 %
29 09-10-2019 04:46:17 11.1 C 31 %
30 09-10-2019 04:56:17 10.5 C 32 %
31 09-10-2019 05:06:18 10.3 C 35 %
32 09-10-2019 05:16:17 10.4 C 34 %
33 09-10-2019 05:26:17 10.6 C 33 %
34 09-10-2019 05:36:18 10.8 C 32 %
35 09-10-2019 05:46:17 11.1 C 30 %
36 09-10-2019 05:56:17 11.1 C 30 %
37 09-10-2019 06:06:17 11.2 C 30 %
38 09-10-2019 06:16:17 11.3 C 30 %
39 09-10-2019 06:26:17 11.1 C 30 %
40 09-10-2019 06:36:17 11.1 C 30 %
41 09-10-2019 06:46:18 11 C 30 %
42 09-10-2019 06:56:18 11 C 29 %
43 09-10-2019 07:06:17 10.9 C 30 %
44 09-10-2019 07:16:18 10.7 C 30 %
45 09-10-2019 07:26:18 10.1 C 31 %
46 09-10-2019 07:36:17 10.8 C 30 %
47 09-10-2019 07:46:17 11.1 C 29 %
48 09-10-2019 07:56:17 10.8 C 30 %
49 09-10-2019 08:06:17 10.6 C 30 %
50 09-10-2019 08:16:17 10.7 C 30 %
Sensor: Nr:Datum:Temp:Feuchte:
Aussen-T/F 51 09-10-2019 08:26:17 11 C 30 %
52 09-10-2019 08:36:17 10.9 C 30 %
53 09-10-2019 08:46:17 11.1 C 29 %
54 09-10-2019 08:56:17 11.2 C 28 %
55 09-10-2019 09:06:18 11.4 C 28 %
56 09-10-2019 09:16:17 10.7 C 30 %
57 09-10-2019 09:26:17 11 C 30 %
58 09-10-2019 09:36:17 11.2 C 29 %
59 09-10-2019 09:46:17 12.2 C 26 %
60 09-10-2019 09:56:17 12.3 C 25 %
61 09-10-2019 10:06:17 12.3 C 25 %
62 09-10-2019 10:16:18 12.5 C 26 %
63 09-10-2019 10:26:18 13.1 C 24 %
64 09-10-2019 10:36:17 13.3 C 23 %
65 09-10-2019 10:46:17 13.3 C 22 %
66 09-10-2019 10:56:17 13.6 C 22 %
67 09-10-2019 11:06:17 13.5 C 22 %
68 09-10-2019 11:16:17 13.6 C 23 %
69 09-10-2019 11:26:17 14.1 C 21 %
70 09-10-2019 11:36:17 14.1 C 22 %
71 09-10-2019 11:46:17 13.8 C 20 %
72 09-10-2019 11:56:17 13.8 C 21 %
73 09-10-2019 12:06:17 13.8 C 21 %
74 09-10-2019 12:16:17 13.6 C 21 %
75 09-10-2019 12:26:17 12.8 C 25 %
Sensor: Nr:Datum:Temp:Feuchte:
Aussen-T/F 76 09-10-2019 12:36:18 13.5 C 24 %
77 09-10-2019 12:46:17 12.6 C 26 %
78 09-10-2019 12:56:17 12.6 C 27 %
79 09-10-2019 13:06:17 12.5 C 28 %
80 09-10-2019 13:16:17 12.3 C 30 %
81 09-10-2019 13:26:17 13.1 C 28 %
82 09-10-2019 13:36:17 14 C 25 %
83 09-10-2019 13:46:18 13.7 C 26 %
84 09-10-2019 13:56:18 13.7 C 25 %
85 09-10-2019 14:06:17 12.7 C 26 %
86 09-10-2019 14:16:18 12 C 27 %
87 09-10-2019 14:26:18 11.6 C 31 %
88 09-10-2019 14:36:17 11.6 C 31 %
89 09-10-2019 14:46:18 11.6 C 29 %
90 09-10-2019 14:56:18 11.5 C 30 %
91 09-10-2019 15:06:17 11.5 C 28 %
92 09-10-2019 15:16:17 12 C 26 %
93 09-10-2019 15:26:17 12.2 C 26 %
94 09-10-2019 15:36:17 12.4 C 25 %
95 09-10-2019 15:46:17 12.7 C 25 %
96 09-10-2019 15:56:18 12.9 C 25 %
97 09-10-2019 16:06:17 13 C 22 %
98 09-10-2019 16:16:18 14.3 C 20 %
99 09-10-2019 16:26:18 13.4 C 20 %
100 09-10-2019 16:36:17 13.6 C 20 %
Sensor: Nr:Datum:Temp:Feuchte:
Aussen-T/F 101 09-10-2019 16:46:18 13.4 C 20 %
102 09-10-2019 16:56:18 13.6 C 20 %
103 09-10-2019 17:06:17 13.5 C 20 %
104 09-10-2019 17:16:18 13.2 C 20 %
105 09-10-2019 17:26:18 14.2 C 20 %
106 09-10-2019 17:36:17 14.5 C 20 %
107 09-10-2019 17:46:18 13.8 C 20 %
108 09-10-2019 17:56:18 13 C 20 %
109 09-10-2019 18:06:17 12.7 C 21 %
110 09-10-2019 18:16:18 12.4 C 20 %
111 09-10-2019 18:26:18 12.1 C 22 %
112 09-10-2019 18:36:17 11.9 C 24 %
113 09-10-2019 18:46:17 11.9 C 25 %
114 09-10-2019 18:56:17 11.7 C 25 %
115 09-10-2019 19:06:17 11.8 C 25 %
116 09-10-2019 19:16:17 11.5 C 25 %
117 09-10-2019 19:26:17 11.3 C 26 %
118 09-10-2019 19:36:18 11.2 C 26 %
119 09-10-2019 19:46:17 11.3 C 25 %
120 09-10-2019 19:56:17 11.4 C 25 %
121 09-10-2019 20:06:18 11.2 C 25 %
122 09-10-2019 20:16:17 10.8 C 26 %
123 09-10-2019 20:26:17 10.7 C 26 %
124 09-10-2019 20:36:17 10.7 C 26 %
125 09-10-2019 20:46:17 10.8 C 26 %
Sensor: Nr:Datum:Temp:Feuchte:
Aussen-T/F 126 09-10-2019 20:56:17 10.8 C 26 %
127 09-10-2019 21:06:17 11.1 C 25 %
128 09-10-2019 21:16:17 10.9 C 26 %
129 09-10-2019 21:26:17 10.8 C 26 %
130 09-10-2019 21:36:18 10.8 C 27 %
131 09-10-2019 21:46:17 11.2 C 25 %
132 09-10-2019 21:56:17 11.1 C 25 %
133 09-10-2019 22:06:17 11.3 C 25 %
134 09-10-2019 22:16:17 11.1 C 25 %
135 09-10-2019 22:26:17 11 C 25 %
136 09-10-2019 22:36:18 11 C 24 %
137 09-10-2019 22:46:17 11 C 24 %
138 09-10-2019 22:56:17 10.8 C 25 %
139 09-10-2019 23:06:18 10.7 C 25 %
140 09-10-2019 23:16:17 10.7 C 25 %
141 09-10-2019 23:26:17 11 C 24 %
142 09-10-2019 23:36:17 10.6 C 25 %
143 09-10-2019 23:46:17 10.5 C 25 %
144 09-10-2019 23:56:17 10.6 C 25 %
145 10-10-2019 00:06:18 10.2 C 25 %
146 10-10-2019 00:16:17 10.2 C 25 %
147 10-10-2019 00:26:17 10.1 C 25 %
148 10-10-2019 00:36:17 10.1 C 25 %
149 10-10-2019 00:46:17 10 C 25 %
150 10-10-2019 00:56:17 10 C 25 %
Sensor: Nr:Datum:Temp:Feuchte:
Aussen-T/F 151 10-10-2019 01:06:18 10.1 C 25 %
152 10-10-2019 01:16:17 10.2 C 25 %
153 10-10-2019 01:26:17 9.9 C 27 %
154 10-10-2019 01:36:18 9.8 C 27 %
155 10-10-2019 01:46:17 9.7 C 28 %
156 10-10-2019 01:56:17 9.7 C 28 %
157 10-10-2019 02:06:18 10.1 C 26 %
158 10-10-2019 02:16:17 10.4 C 26 %
159 10-10-2019 02:26:17 10.3 C 26 %
160 10-10-2019 02:36:18 10.3 C 26 %
161 10-10-2019 02:46:17 10.4 C 26 %
162 10-10-2019 02:56:17 10.4 C 26 %
163 10-10-2019 03:06:17 10.4 C 26 %
164 10-10-2019 03:16:17 9.9 C 30 %
165 10-10-2019 03:26:17 9.8 C 30 %
166 10-10-2019 03:36:17 9.9 C 30 %
167 10-10-2019 03:46:18 9.8 C 31 %
168 10-10-2019 03:56:18 10.1 C 29 %
169 10-10-2019 04:06:17 9.7 C 30 %
170 10-10-2019 04:16:17 10.2 C 28 %
171 10-10-2019 04:26:17 10.2 C 28 %
172 10-10-2019 04:36:17 10 C 29 %
173 10-10-2019 04:46:18 9.8 C 31 %
174 10-10-2019 04:56:18 9.6 C 35 %
175 10-10-2019 05:06:17 9.5 C 34 %
Sensor: Nr:Datum:Temp:Feuchte:
Aussen-T/F 176 10-10-2019 05:16:18 9.6 C 33 %
177 10-10-2019 05:26:18 9.8 C 31 %
178 10-10-2019 05:36:17 9.9 C 31 %
179 10-10-2019 05:46:18 9.8 C 31 %
180 10-10-2019 05:56:18 10.1 C 30 %
181 10-10-2019 06:06:17 10.1 C 30 %
182 10-10-2019 06:16:18 10 C 30 %
183 10-10-2019 06:26:18 9.9 C 31 %
184 10-10-2019 06:36:17 9.8 C 31 %
185 10-10-2019 06:46:17 9.7 C 32 %
186 10-10-2019 06:56:17 9.7 C 31 %
187 10-10-2019 07:06:17 9.7 C 30 %
188 10-10-2019 07:16:17 9.7 C 30 %
189 10-10-2019 07:26:17 9.7 C 30 %
190 10-10-2019 07:36:17 9.8 C 29 %
191 10-10-2019 07:46:17 9.7 C 29 %
192 10-10-2019 07:56:17 9.5 C 30 %
193 10-10-2019 08:06:18 9.5 C 29 %
194 10-10-2019 08:16:17 9.7 C 28 %
195 10-10-2019 08:26:17 9.5 C 29 %
196 10-10-2019 08:36:17 9.8 C 28 %
197 10-10-2019 08:46:17 10 C 27 %
198 10-10-2019 08:56:17 10.4 C 26 %
199 10-10-2019 09:06:17 10.2 C 27 %
200 10-10-2019 09:16:17 10.5 C 27 %
Sensor: Nr:Datum:Temp:Feuchte:
Aussen-T/F 201 10-10-2019 09:26:17 10.8 C 26 %
202 10-10-2019 09:36:18 10.7 C 26 %
203 10-10-2019 09:46:17 10.9 C 26 %
204 10-10-2019 09:56:17 11 C 26 %
205 10-10-2019 10:06:17 10.8 C 26 %
206 10-10-2019 10:16:17 11.1 C 25 %
207 10-10-2019 10:26:17 11 C 25 %
208 10-10-2019 10:36:17 11.5 C 25 %
209 10-10-2019 10:46:17 11.5 C 25 %
210 10-10-2019 10:56:17 11.6 C 25 %
211 10-10-2019 11:06:17 11.7 C 25 %
212 10-10-2019 11:16:17 12.3 C 23 %
213 10-10-2019 11:26:17 12.6 C 20 %
214 10-10-2019 11:36:17 12.7 C 20 %
215 10-10-2019 11:46:17 12.6 C 21 %
216 10-10-2019 11:56:17 12.7 C 21 %
217 10-10-2019 12:06:17 13.4 C 20 %
218 10-10-2019 12:16:18 13.4 C 20 %
219 10-10-2019 12:26:18 13.5 C 20 %
220 10-10-2019 12:36:17 13.6 C 20 %
221 10-10-2019 12:46:17 14 C 20 %
222 10-10-2019 12:56:17 14.2 C 20 %
223 10-10-2019 13:06:17 14.6 C 20 %
224 10-10-2019 13:16:18 14.5 C 20 %
225 10-10-2019 13:26:18 14.7 C 20 %
Sensor: Nr:Datum:Temp:Feuchte:
Aussen-T/F 226 10-10-2019 13:36:17 15.2 C 20 %
227 10-10-2019 13:46:18 14.3 C 20 %
228 10-10-2019 13:56:18 14.8 C 20 %
229 10-10-2019 14:06:17 14.7 C 20 %
230 10-10-2019 14:16:17 15.5 C 20 %
231 10-10-2019 14:26:17 14.7 C 20 %
232 10-10-2019 14:36:17 13.7 C 20 %
233 10-10-2019 14:46:18 15 C 20 %
234 10-10-2019 14:56:18 15.2 C 20 %
235 10-10-2019 15:06:17 15 C 20 %
236 10-10-2019 15:16:18 15.3 C 20 %
237 10-10-2019 15:26:18 15.5 C 20 %
238 10-10-2019 15:36:17 15.4 C 20 %
239 10-10-2019 15:46:17 15.1 C 20 %
240 10-10-2019 15:56:17 15.3 C 20 %
241 10-10-2019 16:06:17 16.4 C 20 %
242 10-10-2019 16:16:18 16 C 20 %
243 10-10-2019 16:26:18 17.5 C 20 %
244 10-10-2019 16:36:17 15.5 C 20 %
245 10-10-2019 16:46:17 15.1 C 20 %
246 10-10-2019 16:56:17 12.9 C 22 %
247 10-10-2019 17:06:18 13 C 20 %
248 10-10-2019 17:16:18 15.7 C 20 %
249 10-10-2019 17:26:18 15.4 C 20 %
250 10-10-2019 17:36:18 13.7 C 20 %
Sensor: Nr:Datum:Temp:Feuchte:
Aussen-T/F 251 10-10-2019 17:46:18 13.6 C 20 %
252 10-10-2019 17:56:18 13.6 C 20 %
253 10-10-2019 18:06:17 13.2 C 20 %
254 10-10-2019 18:16:17 13.2 C 20 %
255 10-10-2019 18:26:17 13.1 C 20 %
256 10-10-2019 18:36:17 12.8 C 22 %
257 10-10-2019 18:46:18 12.2 C 22 %
258 10-10-2019 18:56:18 11.8 C 25 %
259 10-10-2019 19:06:17 11.5 C 26 %
260 10-10-2019 19:16:17 11.1 C 27 %
261 10-10-2019 19:26:17 11 C 27 %
262 10-10-2019 19:36:17 11.2 C 26 %
263 10-10-2019 19:46:17 11.5 C 26 %
264 10-10-2019 19:56:17 12 C 25 %
265 10-10-2019 20:06:17 12.1 C 24 %
266 10-10-2019 20:16:17 11.9 C 25 %
267 10-10-2019 20:26:17 12 C 25 %
268 10-10-2019 20:36:18 11.9 C 26 %
269 10-10-2019 20:46:17 11.4 C 26 %
270 10-10-2019 20:56:17 11.2 C 27 %
271 10-10-2019 21:06:17 10.8 C 28 %
272 10-10-2019 21:16:17 10 C 30 %
273 10-10-2019 21:26:17 10 C 31 %
274 10-10-2019 21:36:17 9.7 C 33 %
275 10-10-2019 21:46:17 9.4 C 35 %
Sensor: Nr:Datum:Temp:Feuchte:
Aussen-T/F 276 10-10-2019 21:56:17 9.4 C 35 %
277 10-10-2019 22:06:17 9.1 C 36 %
278 10-10-2019 22:16:17 9.5 C 37 %
279 10-10-2019 22:26:17 9.3 C 36 %
280 10-10-2019 22:36:17 9.2 C 36 %
281 10-10-2019 22:46:17 9.1 C 36 %
282 10-10-2019 22:56:17 9.2 C 37 %
283 10-10-2019 23:06:17 9.1 C 37 %
284 10-10-2019 23:16:18 9 C 37 %
285 10-10-2019 23:26:18 8.8 C 37 %
286 10-10-2019 23:36:17 8.7 C 37 %
287 10-10-2019 23:46:18 8.9 C 37 %
288 10-10-2019 23:56:18 9 C 37 %
289 11-10-2019 00:06:17 9 C 37 %
290 11-10-2019 00:16:17 8.8 C 37 %
291 11-10-2019 00:26:17 8.6 C 37 %
292 11-10-2019 00:36:17 8.8 C 37 %
293 11-10-2019 00:46:17 8.9 C 37 %
294 11-10-2019 00:56:17 8.8 C 37 %
295 11-10-2019 01:06:17 8.4 C 36 %
296 11-10-2019 01:16:17 8.2 C 36 %
297 11-10-2019 01:26:17 8.3 C 37 %
298 11-10-2019 01:36:18 8.5 C 37 %
299 11-10-2019 01:46:17 8 C 36 %
300 11-10-2019 01:56:17 8.1 C 37 %
Sensor: Nr:Datum:Temp:Feuchte:
Aussen-T/F 301 11-10-2019 02:06:18 7.8 C 37 %
302 11-10-2019 02:16:17 8 C 37 %
303 11-10-2019 02:26:17 8 C 37 %
304 11-10-2019 02:36:17 8.2 C 38 %
305 11-10-2019 02:46:17 8.1 C 37 %
306 11-10-2019 02:56:17 8 C 37 %
307 11-10-2019 03:06:17 7.9 C 37 %
308 11-10-2019 03:16:18 7.9 C 38 %
309 11-10-2019 03:26:18 8.3 C 37 %
310 11-10-2019 03:36:17 8.8 C 37 %
311 11-10-2019 03:46:17 9.2 C 36 %
312 11-10-2019 03:56:17 9.8 C 32 %
313 11-10-2019 04:06:17 9.9 C 30 %
314 11-10-2019 04:16:17 9.8 C 30 %
315 11-10-2019 04:26:17 9 C 31 %
316 11-10-2019 04:36:18 9.1 C 31 %
317 11-10-2019 04:46:17 9.1 C 31 %
318 11-10-2019 04:56:17 9.2 C 32 %
319 11-10-2019 05:06:17 9.4 C 31 %
320 11-10-2019 05:16:17 9 C 31 %
321 11-10-2019 05:26:17 9.2 C 31 %
322 11-10-2019 05:36:17 9.2 C 31 %
323 11-10-2019 05:46:17 8.8 C 32 %
324 11-10-2019 05:56:17 8.4 C 33 %
325 11-10-2019 06:06:18 8.4 C 35 %
Sensor: Nr:Datum:Temp:Feuchte:
Aussen-T/F 326 11-10-2019 06:16:17 8.7 C 36 %
327 11-10-2019 06:26:17 8.8 C 35 %
328 11-10-2019 06:36:18 8.9 C 35 %
329 11-10-2019 06:46:17 9 C 35 %
330 11-10-2019 06:56:17 9 C 35 %
331 11-10-2019 07:06:17 9.1 C 35 %
332 11-10-2019 07:16:17 9.3 C 34 %
333 11-10-2019 07:26:17 9.7 C 32 %
334 11-10-2019 07:36:17 9.7 C 32 %
335 11-10-2019 07:46:17 9.8 C 32 %
336 11-10-2019 07:56:17 10.1 C 33 %
337 11-10-2019 08:06:17 10.2 C 32 %
338 11-10-2019 08:16:17 10.3 C 33 %
339 11-10-2019 08:26:17 11 C 31 %
340 11-10-2019 08:36:17 11.2 C 31 %
341 11-10-2019 08:46:17 11.6 C 30 %
342 11-10-2019 08:56:17 11.9 C 30 %
343 11-10-2019 09:06:17 12.1 C 28 %
344 11-10-2019 09:16:17 12.4 C 28 %
345 11-10-2019 09:26:17 12.5 C 28 %
346 11-10-2019 09:36:18 12.6 C 29 %
347 11-10-2019 09:46:17 12.7 C 29 %
348 11-10-2019 09:56:17 12.8 C 28 %
349 11-10-2019 10:06:17 13 C 27 %
350 11-10-2019 10:16:17 13.1 C 27 %
Sensor: Nr:Datum:Temp:Feuchte:
Aussen-T/F 351 11-10-2019 10:26:17 13.2 C 27 %
352 11-10-2019 10:36:18 13.8 C 26 %
353 11-10-2019 10:46:17 13.9 C 26 %
354 11-10-2019 10:56:17 14 C 25 %
355 11-10-2019 11:06:17 14.8 C 25 %
356 11-10-2019 11:16:18 15.3 C 22 %
357 11-10-2019 11:26:18 15.8 C 21 %
358 11-10-2019 11:36:17 15.8 C 21 %
359 11-10-2019 11:46:17 15.8 C 20 %
360 11-10-2019 11:56:17 15.7 C 20 %
361 11-10-2019 12:06:17 15.6 C 20 %
362 11-10-2019 12:16:17 15.8 C 20 %
363 11-10-2019 12:26:17 16.4 C 20 %
364 11-10-2019 12:36:18 16.6 C 20 %
365 11-10-2019 12:46:17 16.1 C 20 %
366 11-10-2019 12:56:17 16 C 20 %
367 11-10-2019 13:06:18 16.7 C 20 %
368 11-10-2019 13:16:17 16.6 C 20 %
369 11-10-2019 13:26:17 16.6 C 20 %
370 11-10-2019 13:36:17 16.9 C 20 %
371 11-10-2019 13:46:17 17 C 20 %
372 11-10-2019 13:56:17 16.5 C 20 %
373 11-10-2019 14:06:17 16.4 C 20 %
374 11-10-2019 14:16:17 16.4 C 20 %
375 11-10-2019 14:26:17 16.3 C 20 %
Sensor: Nr:Datum:Temp:Feuchte:
Aussen-T/F 376 11-10-2019 14:36:17 16.2 C 20 %
377 11-10-2019 14:46:17 16.4 C 20 %
378 11-10-2019 14:56:17 16.8 C 20 %
379 11-10-2019 15:06:17 17 C 20 %
380 11-10-2019 15:16:17 16.8 C 20 %
381 11-10-2019 15:26:18 16.8 C 20 %
382 11-10-2019 15:36:17 16.7 C 20 %
383 11-10-2019 15:46:18 16.8 C 20 %
384 11-10-2019 15:56:18 16.6 C 20 %
385 11-10-2019 16:06:17 16.8 C 20 %
386 11-10-2019 16:16:17 16.7 C 20 %
387 11-10-2019 16:26:17 16.7 C 20 %
388 11-10-2019 16:36:18 16.7 C 20 %
389 11-10-2019 16:46:17 16.8 C 20 %
390 11-10-2019 16:56:17 16.8 C 20 %
391 11-10-2019 17:06:17 17.1 C 20 %
392 11-10-2019 17:16:17 16.9 C 20 %
393 11-10-2019 17:26:17 16.8 C 20 %
394 11-10-2019 17:36:18 16.8 C 20 %
395 11-10-2019 17:46:17 16.7 C 20 %
396 11-10-2019 17:56:17 16.8 C 20 %
397 11-10-2019 18:06:18 16.2 C 20 %
398 11-10-2019 18:16:17 15.9 C 20 %
399 11-10-2019 18:26:17 15.6 C 20 %
400 11-10-2019 18:36:18 14.9 C 23 %
Sensor: Nr:Datum:Temp:Feuchte:
Aussen-T/F 401 11-10-2019 18:46:17 14.4 C 25 %
402 11-10-2019 18:56:17 14 C 26 %
403 11-10-2019 19:06:17 14 C 26 %
404 11-10-2019 19:16:17 13.5 C 27 %
405 11-10-2019 19:26:17 13.3 C 29 %
406 11-10-2019 19:36:17 13.1 C 29 %
407 11-10-2019 19:46:17 13 C 30 %
408 11-10-2019 19:56:17 13.2 C 30 %
409 11-10-2019 20:06:17 13.2 C 30 %
410 11-10-2019 20:16:18 13.1 C 30 %
411 11-10-2019 20:26:18 13 C 30 %
412 11-10-2019 20:36:17 12.9 C 30 %
413 11-10-2019 20:46:17 12.5 C 31 %
414 11-10-2019 20:56:17 12.6 C 31 %
415 11-10-2019 21:06:17 12.5 C 32 %
416 11-10-2019 21:16:18 12.1 C 32 %
417 11-10-2019 21:26:18 12 C 32 %
418 11-10-2019 21:36:17 11.7 C 35 %
419 11-10-2019 21:46:17 11.5 C 35 %
420 11-10-2019 21:56:17 11.3 C 35 %
421 11-10-2019 22:06:17 11.2 C 35 %
422 11-10-2019 22:16:17 11.2 C 36 %
423 11-10-2019 22:26:17 11.2 C 36 %
424 11-10-2019 22:36:18 11.1 C 36 %
425 11-10-2019 22:46:17 11.2 C 37 %
Sensor: Nr:Datum:Temp:Feuchte:
Aussen-T/F 426 11-10-2019 22:56:17 11.2 C 36 %
427 11-10-2019 23:06:17 11 C 36 %
428 11-10-2019 23:16:17 11.1 C 36 %
429 11-10-2019 23:26:17 11 C 36 %
430 11-10-2019 23:36:18 10.8 C 37 %
431 11-10-2019 23:46:17 10.6 C 36 %
432 11-10-2019 23:56:17 10.5 C 37 %
433 12-10-2019 00:06:17 10.4 C 37 %
434 12-10-2019 00:16:18 10.5 C 37 %
435 12-10-2019 00:26:18 10.4 C 37 %
436 12-10-2019 00:36:17 10.2 C 36 %
437 12-10-2019 00:46:17 9.9 C 37 %
438 12-10-2019 00:56:17 9.8 C 37 %
439 12-10-2019 01:06:17 9.8 C 37 %
440 12-10-2019 01:16:17 9.7 C 37 %
441 12-10-2019 01:26:17 9.6 C 37 %
442 12-10-2019 01:36:17 9.8 C 37 %
443 12-10-2019 01:46:17 9.8 C 37 %
444 12-10-2019 01:56:17 9.7 C 37 %
445 12-10-2019 02:06:17 9.7 C 37 %
446 12-10-2019 02:16:17 9.6 C 37 %
447 12-10-2019 02:26:17 9.6 C 37 %
448 12-10-2019 02:36:17 9.4 C 37 %
449 12-10-2019 02:46:17 9.4 C 37 %
450 12-10-2019 02:56:17 9.2 C 37 %
Sensor: Nr:Datum:Temp:Feuchte:
Aussen-T/F 451 12-10-2019 03:06:17 9.3 C 37 %
452 12-10-2019 03:16:17 9.2 C 37 %
453 12-10-2019 03:26:17 9.1 C 37 %
454 12-10-2019 03:36:17 9 C 37 %
455 12-10-2019 03:46:17 9 C 37 %
456 12-10-2019 03:56:17 9 C 37 %
457 12-10-2019 04:06:17 9.1 C 37 %
458 12-10-2019 04:16:17 9.7 C 37 %
459 12-10-2019 04:26:17 9.3 C 37 %
460 12-10-2019 04:36:17 9.2 C 36 %
461 12-10-2019 04:46:17 9 C 36 %
462 12-10-2019 04:56:18 9 C 37 %
463 12-10-2019 05:06:17 9.1 C 37 %
464 12-10-2019 05:16:17 8.8 C 37 %
465 12-10-2019 05:26:17 8.6 C 37 %
466 12-10-2019 05:36:17 8.3 C 37 %
467 12-10-2019 05:46:17 8.4 C 37 %
468 12-10-2019 05:56:17 8.2 C 37 %
469 12-10-2019 06:06:18 8.3 C 37 %
470 12-10-2019 06:16:17 8.1 C 37 %
471 12-10-2019 06:26:17 8.1 C 37 %
472 12-10-2019 06:36:18 7.9 C 37 %
473 12-10-2019 06:46:17 7.8 C 37 %
474 12-10-2019 06:56:17 8.1 C 37 %
475 12-10-2019 07:06:18 8.2 C 37 %
Sensor: Nr:Datum:Temp:Feuchte:
Aussen-T/F 476 12-10-2019 07:16:17 8 C 37 %
477 12-10-2019 07:26:17 7.8 C 37 %
478 12-10-2019 07:36:17 7.8 C 37 %
479 12-10-2019 07:46:17 7.9 C 37 %
480 12-10-2019 07:56:17 8.2 C 37 %
481 12-10-2019 08:06:17 8.5 C 37 %
482 12-10-2019 08:16:17 8.1 C 37 %
483 12-10-2019 08:26:17 7.9 C 37 %
484 12-10-2019 08:36:17 7.9 C 37 %
485 12-10-2019 08:46:17 7.9 C 37 %
486 12-10-2019 08:56:17 8.1 C 37 %
487 12-10-2019 09:06:17 8.2 C 37 %
488 12-10-2019 09:16:18 8.3 C 37 %
489 12-10-2019 09:26:18 8.5 C 37 %
490 12-10-2019 09:36:17 9 C 37 %
491 12-10-2019 09:46:17 9.4 C 37 %
492 12-10-2019 09:56:17 10 C 36 %
493 12-10-2019 10:06:17 10.6 C 37 %
494 12-10-2019 10:16:17 10.8 C 36 %
495 12-10-2019 10:26:18 11.4 C 36 %
496 12-10-2019 10:36:17 11.6 C 36 %
497 12-10-2019 10:46:18 12.8 C 35 %
498 12-10-2019 10:56:18 13.8 C 27 %
499 12-10-2019 11:06:17 13.7 C 26 %
500 12-10-2019 11:16:17 14.2 C 25 %
Sensor: Nr:Datum:Temp:Feuchte:
Aussen-T/F 501 12-10-2019 11:26:17 14.5 C 22 %
502 12-10-2019 11:36:18 15.2 C 20 %
503 12-10-2019 11:46:17 15.4 C 20 %
504 12-10-2019 11:56:17 15.7 C 20 %
505 12-10-2019 12:06:17 15.6 C 20 %
506 12-10-2019 12:16:17 16.3 C 20 %
507 12-10-2019 12:26:17 15.9 C 20 %
508 12-10-2019 12:36:18 16 C 20 %
509 12-10-2019 12:46:17 16.2 C 20 %
510 12-10-2019 12:56:17 16.5 C 20 %
511 12-10-2019 13:06:17 17.5 C 20 %
512 12-10-2019 13:16:17 17.5 C 20 %
513 12-10-2019 13:26:17 18.9 C 20 %
514 12-10-2019 13:36:17 20.7 C 20 %
515 12-10-2019 13:46:17 20.1 C 20 %
516 12-10-2019 13:56:17 20 C 20 %
517 12-10-2019 14:06:17 20.4 C 20 %
518 12-10-2019 14:16:17 21.3 C 20 %
519 12-10-2019 14:26:17 21.1 C 20 %
520 12-10-2019 14:36:17 20.7 C 20 %
521 12-10-2019 14:46:17 20.3 C 20 %
522 12-10-2019 14:56:17 20.1 C 20 %
523 12-10-2019 15:06:17 20.2 C 20 %
524 12-10-2019 15:16:17 20.6 C 20 %
525 12-10-2019 15:26:17 20.6 C 20 %
Sensor: Nr:Datum:Temp:Feuchte:
Aussen-T/F 526 12-10-2019 15:36:17 20.6 C 20 %
527 12-10-2019 15:46:17 20.4 C 20 %
528 12-10-2019 15:56:17 20.2 C 20 %
529 12-10-2019 16:06:17 20.2 C 20 %
530 12-10-2019 16:16:17 19.5 C 20 %
531 12-10-2019 16:26:18 19.5 C 20 %
532 12-10-2019 16:36:18 19.6 C 20 %
533 12-10-2019 16:46:17 19.7 C 20 %
534 12-10-2019 16:56:17 19.9 C 20 %
535 12-10-2019 17:06:17 19.5 C 20 %
536 12-10-2019 17:16:17 19.2 C 20 %
537 12-10-2019 17:26:18 19 C 20 %
538 12-10-2019 17:36:17 18.7 C 20 %
539 12-10-2019 17:46:18 18.4 C 20 %
540 12-10-2019 17:56:18 17.9 C 20 %
541 12-10-2019 18:06:17 17.3 C 20 %
542 12-10-2019 18:16:17 17 C 20 %
543 12-10-2019 18:26:17 16.6 C 20 %
544 12-10-2019 18:36:18 15.9 C 21 %
545 12-10-2019 18:46:17 15.4 C 23 %
546 12-10-2019 18:56:17 15.2 C 24 %
547 12-10-2019 19:06:17 15.1 C 24 %
548 12-10-2019 19:16:17 14.7 C 26 %
549 12-10-2019 19:26:17 14.5 C 26 %
550 12-10-2019 19:36:17 14.5 C 26 %
Sensor: Nr:Datum:Temp:Feuchte:
Aussen-T/F 551 12-10-2019 19:46:17 14.5 C 26 %
552 12-10-2019 19:56:17 14.4 C 26 %
553 12-10-2019 20:06:17 14.4 C 26 %
554 12-10-2019 20:16:17 14 C 27 %
555 12-10-2019 20:26:17 14 C 27 %
556 12-10-2019 20:36:18 13.8 C 29 %
557 12-10-2019 20:46:17 13.7 C 30 %
558 12-10-2019 20:56:17 13.6 C 30 %
559 12-10-2019 21:06:17 13.5 C 31 %
560 12-10-2019 21:16:17 13.6 C 31 %
561 12-10-2019 21:26:17 14 C 31 %
562 12-10-2019 21:36:17 13.9 C 30 %
563 12-10-2019 21:46:18 14.7 C 27 %
564 12-10-2019 21:56:18 14.9 C 26 %
565 12-10-2019 22:06:17 14.7 C 26 %
566 12-10-2019 22:16:17 14.4 C 27 %
567 12-10-2019 22:26:17 14 C 28 %
568 12-10-2019 22:36:17 13.8 C 30 %
569 12-10-2019 22:46:17 14.1 C 31 %
570 12-10-2019 22:56:17 13.9 C 31 %
571 12-10-2019 23:06:17 13.7 C 32 %
572 12-10-2019 23:16:17 13.4 C 32 %
573 12-10-2019 23:26:17 13.4 C 33 %
574 12-10-2019 23:36:18 13.3 C 33 %
575 12-10-2019 23:46:17 13.1 C 34 %
Sensor: Nr:Datum:Temp:Feuchte:
Aussen-T/F 576 12-10-2019 23:56:17 13.1 C 35 %
577 13-10-2019 00:06:17 13.2 C 35 %
578 13-10-2019 00:16:18 12.9 C 35 %
579 13-10-2019 00:26:18 12.6 C 35 %
580 13-10-2019 00:36:17 12.7 C 35 %
581 13-10-2019 00:46:17 12.4 C 35 %
582 13-10-2019 00:56:17 12.5 C 36 %
583 13-10-2019 01:06:18 12.4 C 35 %
584 13-10-2019 01:16:17 12.3 C 35 %
585 13-10-2019 01:26:17 12.3 C 35 %
586 13-10-2019 01:36:17 12.2 C 35 %
587 13-10-2019 01:46:17 12.1 C 35 %
588 13-10-2019 01:56:17 12 C 35 %
589 13-10-2019 02:06:17 12.4 C 36 %
590 13-10-2019 02:16:18 12.7 C 36 %
591 13-10-2019 02:26:18 12.7 C 36 %
592 13-10-2019 02:36:17 13 C 35 %
593 13-10-2019 02:46:17 13.2 C 35 %
594 13-10-2019 02:56:17 13.1 C 35 %
595 13-10-2019 03:06:17 12.5 C 35 %
596 13-10-2019 03:16:17 12.6 C 35 %
597 13-10-2019 03:26:17 12.7 C 35 %
598 13-10-2019 03:36:18 12.3 C 35 %
599 13-10-2019 03:46:17 12.7 C 35 %
600 13-10-2019 03:56:17 12.8 C 35 %
Sensor: Nr:Datum:Temp:Feuchte:
Aussen-T/F 601 13-10-2019 04:06:17 12.4 C 35 %
602 13-10-2019 04:16:17 12.2 C 35 %
603 13-10-2019 04:26:17 11.9 C 35 %
604 13-10-2019 04:36:18 11.9 C 36 %
605 13-10-2019 04:46:17 12 C 35 %
606 13-10-2019 04:56:17 12.4 C 35 %
607 13-10-2019 05:06:18 13 C 35 %
608 13-10-2019 05:16:17 12.9 C 35 %
609 13-10-2019 05:26:17 13 C 35 %
610 13-10-2019 05:36:17 13 C 35 %
611 13-10-2019 05:46:17 12.9 C 35 %
612 13-10-2019 05:56:17 13.1 C 35 %
613 13-10-2019 06:06:17 12.9 C 35 %
614 13-10-2019 06:16:17 13.2 C 35 %
615 13-10-2019 06:26:17 13.2 C 35 %
616 13-10-2019 06:36:17 13.1 C 35 %
617 13-10-2019 06:46:17 13 C 35 %
618 13-10-2019 06:56:17 13.2 C 35 %
619 13-10-2019 07:06:17 13 C 35 %
620 13-10-2019 07:16:18 13 C 35 %
621 13-10-2019 07:26:18 13 C 35 %
622 13-10-2019 07:36:17 13.2 C 35 %
623 13-10-2019 07:46:17 13 C 35 %
624 13-10-2019 07:56:17 13 C 35 %
625 13-10-2019 08:06:17 12.7 C 35 %
Sensor: Nr:Datum:Temp:Feuchte:
Aussen-T/F 626 13-10-2019 08:16:18 12.2 C 35 %
627 13-10-2019 08:26:18 12 C 35 %
628 13-10-2019 08:36:17 11.8 C 35 %
629 13-10-2019 08:46:18 12.7 C 35 %
630 13-10-2019 08:56:18 12.5 C 35 %
631 13-10-2019 09:06:17 12.8 C 35 %
632 13-10-2019 09:16:18 13.1 C 35 %
633 13-10-2019 09:26:18 13.6 C 35 %
634 13-10-2019 09:36:17 13.2 C 34 %
635 13-10-2019 09:46:18 13 C 34 %
636 13-10-2019 09:56:18 13 C 34 %
637 13-10-2019 10:06:17 13.6 C 35 %
638 13-10-2019 10:16:17 14.1 C 35 %
639 13-10-2019 10:26:17 14 C 33 %
640 13-10-2019 10:36:17 14.3 C 33 %
641 13-10-2019 10:46:17 14.9 C 33 %
642 13-10-2019 10:56:17 15 C 32 %
643 13-10-2019 11:06:17 15.3 C 32 %
644 13-10-2019 11:16:17 15.5 C 31 %
645 13-10-2019 11:26:17 15.3 C 31 %
646 13-10-2019 11:36:18 16.1 C 30 %
647 13-10-2019 11:46:17 15.9 C 32 %
648 13-10-2019 11:56:17 16.3 C 32 %
649 13-10-2019 12:06:18 16.8 C 30 %
650 13-10-2019 12:16:17 17.1 C 28 %
Sensor: Nr:Datum:Temp:Feuchte:
Aussen-T/F 651 13-10-2019 12:26:17 17.8 C 27 %
652 13-10-2019 12:36:17 18.7 C 26 %
653 13-10-2019 12:46:17 19.3 C 23 %
654 13-10-2019 12:56:17 19.5 C 23 %
655 13-10-2019 13:06:17 19.7 C 24 %
656 13-10-2019 13:16:17 20 C 22 %
657 13-10-2019 13:26:17 20.9 C 20 %
658 13-10-2019 13:36:17 22.7 C 20 %
659 13-10-2019 13:46:17 23.2 C 20 %
660 13-10-2019 13:56:17 22.1 C 20 %
661 13-10-2019 14:06:18 22.5 C 20 %
662 13-10-2019 14:16:17 23.4 C 20 %
663 13-10-2019 14:26:17 24.8 C 20 %
664 13-10-2019 14:36:18 23.2 C 20 %
665 13-10-2019 14:46:17 22.5 C 20 %
666 13-10-2019 14:56:17 21.9 C 20 %
667 13-10-2019 15:06:17 21.3 C 20 %
668 13-10-2019 15:16:17 21.6 C 20 %
669 13-10-2019 15:26:17 22.1 C 20 %
670 13-10-2019 15:36:17 22.5 C 20 %
671 13-10-2019 15:46:17 22.1 C 20 %
672 13-10-2019 15:56:17 22 C 20 %
673 13-10-2019 16:06:17 22.3 C 20 %
674 13-10-2019 16:16:18 23.1 C 20 %
675 13-10-2019 16:26:18 23.6 C 20 %
Sensor: Nr:Datum:Temp:Feuchte:
Aussen-T/F 676 13-10-2019 16:36:17 25.1 C 20 %
677 13-10-2019 16:46:18 25.4 C 20 %
678 13-10-2019 16:56:18 24.8 C 20 %
679 13-10-2019 17:06:17 25.7 C 20 %
680 13-10-2019 17:16:17 25 C 20 %
681 13-10-2019 17:26:17 24 C 20 %
682 13-10-2019 17:36:18 23.6 C 20 %
683 13-10-2019 17:46:17 22.2 C 20 %
684 13-10-2019 17:56:17 21 C 20 %
685 13-10-2019 18:06:18 20 C 20 %
686 13-10-2019 18:16:17 19.4 C 20 %
687 13-10-2019 18:26:17 19.1 C 20 %
688 13-10-2019 18:36:17 18.7 C 21 %
689 13-10-2019 18:46:17 18.6 C 21 %
690 13-10-2019 18:56:17 18.2 C 22 %
691 13-10-2019 19:06:17 18.1 C 22 %
692 13-10-2019 19:16:18 18.1 C 22 %
693 13-10-2019 19:26:18 18.1 C 22 %
694 13-10-2019 19:36:17 18.1 C 22 %
695 13-10-2019 19:46:17 17.9 C 23 %
696 13-10-2019 19:56:17 17.8 C 23 %
697 13-10-2019 20:06:17 17.8 C 23 %
698 13-10-2019 20:16:17 17.9 C 23 %
699 13-10-2019 20:26:17 17.7 C 23 %
700 13-10-2019 20:36:18 17.5 C 24 %
Sensor: Nr:Datum:Temp:Feuchte:
Aussen-T/F 701 13-10-2019 20:46:17 17.2 C 24 %
702 13-10-2019 20:56:17 17.2 C 24 %
703 13-10-2019 21:06:18 16.9 C 25 %
704 13-10-2019 21:16:17 16.8 C 25 %
705 13-10-2019 21:26:17 16.9 C 25 %
706 13-10-2019 21:36:18 16.6 C 25 %
707 13-10-2019 21:46:17 16.3 C 25 %
708 13-10-2019 21:56:17 16.6 C 25 %
709 13-10-2019 22:06:17 16.4 C 25 %
710 13-10-2019 22:16:17 16.2 C 25 %
711 13-10-2019 22:26:17 16.2 C 25 %
712 13-10-2019 22:36:17 16 C 25 %
713 13-10-2019 22:46:17 16.4 C 24 %
714 13-10-2019 22:56:17 16.4 C 22 %
715 13-10-2019 23:06:17 16.1 C 23 %
716 13-10-2019 23:16:17 15.9 C 25 %
717 13-10-2019 23:26:17 15.5 C 25 %
718 13-10-2019 23:36:17 15.4 C 26 %
719 13-10-2019 23:46:18 15.4 C 26 %
720 13-10-2019 23:56:18 15.4 C 26 %
721 14-10-2019 00:06:17 15.4 C 25 %
722 14-10-2019 00:16:17 14.9 C 26 %
723 14-10-2019 00:26:17 14.7 C 27 %
724 14-10-2019 00:36:17 14.8 C 27 %
725 14-10-2019 00:46:17 14.9 C 27 %
Sensor: Nr:Datum:Temp:Feuchte:
Aussen-T/F 726 14-10-2019 00:56:17 15 C 26 %
727 14-10-2019 01:06:17 14.8 C 27 %
728 14-10-2019 01:16:17 14.8 C 27 %
729 14-10-2019 01:26:17 14.6 C 27 %
730 14-10-2019 01:36:18 14.4 C 28 %
731 14-10-2019 01:46:17 14.6 C 27 %
732 14-10-2019 01:56:17 14.6 C 27 %
733 14-10-2019 02:06:17 14.5 C 27 %
734 14-10-2019 02:16:17 14.3 C 27 %
735 14-10-2019 02:26:17 14.1 C 28 %
736 14-10-2019 02:36:18 14 C 29 %
737 14-10-2019 02:46:17 13.8 C 30 %
738 14-10-2019 02:56:17 13.6 C 30 %
739 14-10-2019 03:06:17 13.4 C 31 %
740 14-10-2019 03:16:17 13.2 C 31 %
741 14-10-2019 03:26:17 13.4 C 34 %
742 14-10-2019 03:36:17 13.3 C 32 %
743 14-10-2019 03:46:17 13 C 32 %
744 14-10-2019 03:56:17 12.8 C 34 %
745 14-10-2019 04:06:17 12.8 C 35 %
746 14-10-2019 04:16:17 12.6 C 35 %
747 14-10-2019 04:26:18 12.4 C 35 %
748 14-10-2019 04:36:17 12.3 C 35 %
749 14-10-2019 04:46:17 12.2 C 35 %
750 14-10-2019 04:56:17 12.3 C 35 %
Sensor: Nr:Datum:Temp:Feuchte:
Aussen-T/F 751 14-10-2019 05:06:17 12.4 C 36 %
752 14-10-2019 05:16:17 12.8 C 36 %
753 14-10-2019 05:26:17 12.8 C 36 %
754 14-10-2019 05:36:18 12.9 C 36 %
755 14-10-2019 05:46:17 12.8 C 35 %
756 14-10-2019 05:56:17 12.7 C 35 %
757 14-10-2019 06:06:17 12.3 C 34 %
758 14-10-2019 06:16:17 12 C 34 %
759 14-10-2019 06:26:17 12 C 35 %
760 14-10-2019 06:36:18 11.9 C 36 %
761 14-10-2019 06:46:17 11.7 C 35 %
762 14-10-2019 06:56:17 11.7 C 36 %
763 14-10-2019 07:06:17 11.6 C 36 %
764 14-10-2019 07:16:17 11.8 C 36 %
765 14-10-2019 07:26:17 11.9 C 36 %
766 14-10-2019 07:36:17 12.1 C 36 %
767 14-10-2019 07:46:17 12.5 C 36 %
768 14-10-2019 07:56:17 12.4 C 36 %
769 14-10-2019 08:06:17 12.4 C 35 %
770 14-10-2019 08:16:17 12.2 C 35 %
771 14-10-2019 08:26:17 12.3 C 35 %
772 14-10-2019 08:36:18 12.5 C 35 %
773 14-10-2019 08:46:17 12.5 C 35 %
774 14-10-2019 08:56:17 12.6 C 35 %
775 14-10-2019 09:06:17 12.8 C 34 %
Sensor: Nr:Datum:Temp:Feuchte:
Aussen-T/F 776 14-10-2019 09:16:17 12.9 C 34 %
777 14-10-2019 09:26:17 13 C 32 %
778 14-10-2019 09:36:18 13 C 32 %
779 14-10-2019 09:46:17 13 C 32 %
780 14-10-2019 09:56:17 13.1 C 33 %
781 14-10-2019 10:06:18 13.1 C 33 %
782 14-10-2019 10:16:17 13.1 C 33 %
783 14-10-2019 10:26:17 13.2 C 33 %
784 14-10-2019 10:36:17 13.3 C 34 %
785 14-10-2019 10:46:17 13.7 C 35 %
786 14-10-2019 10:56:17 13.9 C 35 %
787 14-10-2019 11:06:17 14.1 C 33 %
788 14-10-2019 11:16:17 14.5 C 32 %
789 14-10-2019 11:26:17 14.7 C 32 %
790 14-10-2019 11:36:17 15.4 C 29 %
791 14-10-2019 11:46:18 15.4 C 29 %
792 14-10-2019 11:56:18 16.1 C 27 %
793 14-10-2019 12:06:17 16.5 C 26 %
794 14-10-2019 12:16:17 17.1 C 25 %
795 14-10-2019 12:26:17 17.2 C 25 %
796 14-10-2019 12:36:17 17.3 C 25 %
797 14-10-2019 12:46:17 17.5 C 24 %
798 14-10-2019 12:56:17 18.1 C 23 %
799 14-10-2019 13:06:17 18.2 C 23 %
800 14-10-2019 13:16:17 19 C 21 %
Sensor: Nr:Datum:Temp:Feuchte:
Aussen-T/F 801 14-10-2019 13:26:17 19.9 C 20 %
802 14-10-2019 13:36:17 21.6 C 20 %
803 14-10-2019 13:46:17 23 C 20 %
804 14-10-2019 13:56:17 22.6 C 20 %
805 14-10-2019 14:06:17 22.9 C 20 %
806 14-10-2019 14:16:17 24.6 C 20 %
807 14-10-2019 14:26:17 22.5 C 20 %
808 14-10-2019 14:36:18 21.8 C 20 %
809 14-10-2019 14:46:17 21.4 C 20 %
810 14-10-2019 14:56:17 21 C 20 %
811 14-10-2019 15:06:17 20.1 C 20 %
812 14-10-2019 15:16:17 21.1 C 20 %
813 14-10-2019 15:26:17 20.9 C 20 %
814 14-10-2019 15:36:18 20.6 C 20 %
815 14-10-2019 15:46:17 20.5 C 20 %
816 14-10-2019 15:56:17 20.9 C 20 %
817 14-10-2019 16:06:17 21.3 C 20 %
818 14-10-2019 16:16:18 21.3 C 20 %
819 14-10-2019 16:26:18 22.4 C 20 %
820 14-10-2019 16:36:17 23.7 C 20 %
821 14-10-2019 16:46:17 23.6 C 20 %
822 14-10-2019 16:56:17 23.8 C 20 %
823 14-10-2019 17:06:17 22.8 C 20 %
824 14-10-2019 17:16:18 22.9 C 20 %
825 14-10-2019 17:26:18 22.4 C 20 %
Sensor: Nr:Datum:Temp:Feuchte:
Aussen-T/F 826 14-10-2019 17:36:17 21.6 C 20 %
827 14-10-2019 17:46:17 21.2 C 20 %
828 14-10-2019 17:56:17 20 C 20 %
829 14-10-2019 18:06:17 19.6 C 20 %
830 14-10-2019 18:16:17 18.6 C 20 %
831 14-10-2019 18:26:17 18.2 C 20 %
832 14-10-2019 18:36:18 17.9 C 20 %
833 14-10-2019 18:46:17 17.5 C 20 %
834 14-10-2019 18:56:17 17.2 C 21 %
835 14-10-2019 19:06:17 16.8 C 22 %
836 14-10-2019 19:16:17 16.9 C 22 %
837 14-10-2019 19:26:17 16.4 C 23 %
838 14-10-2019 19:36:17 16.4 C 24 %
839 14-10-2019 19:46:17 16.4 C 24 %
840 14-10-2019 19:56:17 16.3 C 24 %
841 14-10-2019 20:06:18 16.1 C 24 %
842 14-10-2019 20:16:17 15.8 C 25 %
843 14-10-2019 20:26:17 16.2 C 25 %
844 14-10-2019 20:36:17 15.7 C 25 %
845 14-10-2019 20:46:17 15.7 C 25 %
846 14-10-2019 20:56:18 15.7 C 25 %
847 14-10-2019 21:06:17 15.1 C 25 %
848 14-10-2019 21:16:17 15.2 C 25 %
849 14-10-2019 21:26:17 15 C 25 %
850 14-10-2019 21:36:17 14.8 C 26 %
Sensor: Nr:Datum:Temp:Feuchte:
Aussen-T/F 851 14-10-2019 21:46:17 14.7 C 27 %
852 14-10-2019 21:56:17 14.2 C 28 %
853 14-10-2019 22:06:17 14.1 C 28 %
854 14-10-2019 22:16:17 14.2 C 30 %
855 14-10-2019 22:26:17 14.2 C 30 %
856 14-10-2019 22:36:17 14.2 C 30 %
857 14-10-2019 22:46:17 14.2 C 29 %
858 14-10-2019 22:56:17 14.7 C 28 %
859 14-10-2019 23:06:17 14.5 C 27 %
860 14-10-2019 23:16:17 14.7 C 27 %
861 14-10-2019 23:26:17 14.6 C 27 %
862 14-10-2019 23:36:17 14.4 C 27 %
863 14-10-2019 23:46:17 14.5 C 27 %
864 14-10-2019 23:56:17 14.4 C 27 %
865 15-10-2019 00:06:17 14.5 C 27 %
866 15-10-2019 00:16:17 14.3 C 27 %
867 15-10-2019 00:26:18 14.4 C 27 %
868 15-10-2019 00:36:17 14.4 C 27 %
869 15-10-2019 00:47:17 14.1 C 27 %
870 15-10-2019 00:57:17 14.1 C 28 %
871 15-10-2019 01:06:18 14 C 29 %
872 15-10-2019 01:16:17 13.5 C 30 %
873 15-10-2019 01:26:17 13.4 C 31 %
874 15-10-2019 01:36:17 13.4 C 32 %
875 15-10-2019 01:46:17 13.4 C 32 %
Sensor: Nr:Datum:Temp:Feuchte:
Aussen-T/F 876 15-10-2019 01:56:17 13.2 C 31 %
877 15-10-2019 02:07:17 12.9 C 32 %
878 15-10-2019 02:16:17 12.7 C 33 %
879 15-10-2019 02:26:17 12.7 C 35 %
880 15-10-2019 02:36:17 12.5 C 34 %
881 15-10-2019 02:46:17 12.2 C 34 %
882 15-10-2019 02:56:18 12.3 C 35 %
883 15-10-2019 03:06:17 11.9 C 36 %
884 15-10-2019 03:16:18 12.1 C 36 %
885 15-10-2019 03:26:18 12.1 C 36 %
886 15-10-2019 03:36:17 11.7 C 36 %
887 15-10-2019 03:46:17 11.8 C 36 %
888 15-10-2019 03:56:18 11.7 C 36 %
889 15-10-2019 04:06:17 11.8 C 36 %
890 15-10-2019 04:17:17 11.6 C 36 %
891 15-10-2019 04:27:17 11.7 C 36 %
892 15-10-2019 04:36:18 11.7 C 37 %
893 15-10-2019 04:47:17 11.5 C 36 %
894 15-10-2019 04:57:17 11.4 C 36 %
895 15-10-2019 05:06:17 11.2 C 36 %
896 15-10-2019 05:16:17 11.3 C 36 %
897 15-10-2019 05:26:17 11.4 C 36 %
898 15-10-2019 05:36:18 11.2 C 36 %
899 15-10-2019 05:46:17 11.1 C 36 %
900 15-10-2019 05:56:17 11.3 C 36 %
Sensor: Nr:Datum:Temp:Feuchte:
Aussen-T/F 901 15-10-2019 06:07:17 11.2 C 36 %
902 15-10-2019 06:16:17 11.2 C 36 %
903 15-10-2019 06:26:17 11.5 C 36 %
904 15-10-2019 06:37:17 11.7 C 36 %
905 15-10-2019 06:47:17 11.6 C 36 %
906 15-10-2019 06:56:17 11.4 C 36 %
907 15-10-2019 07:06:18 11.5 C 36 %
908 15-10-2019 07:17:17 11.3 C 36 %
909 15-10-2019 07:26:17 11.3 C 36 %
910 15-10-2019 07:36:18 11.2 C 36 %
911 15-10-2019 07:47:17 11.2 C 36 %
912 15-10-2019 07:57:17 11 C 36 %
913 15-10-2019 08:06:18 11.2 C 36 %
914 15-10-2019 08:17:17 11.2 C 36 %
915 15-10-2019 08:27:17 11.2 C 36 %
916 15-10-2019 08:37:17 11.3 C 36 %
917 15-10-2019 08:46:18 11.4 C 36 %
918 15-10-2019 08:56:18 11.6 C 36 %
919 15-10-2019 09:07:17 11.8 C 36 %
920 15-10-2019 09:17:17 11.9 C 36 %
921 15-10-2019 09:27:17 12.2 C 35 %
922 15-10-2019 09:37:17 12.4 C 35 %
923 15-10-2019 09:47:17 12.6 C 35 %
924 15-10-2019 09:57:17 12.9 C 35 %
925 15-10-2019 10:07:17 12.9 C 32 %
Sensor: Nr:Datum:Temp:Feuchte:
Aussen-T/F 926 15-10-2019 10:17:17 13.5 C 32 %
927 15-10-2019 10:27:17 13.4 C 30 %
928 15-10-2019 10:36:17 13.3 C 30 %
929 15-10-2019 10:47:17 13.9 C 30 %
930 15-10-2019 10:57:17 14.6 C 28 %
931 15-10-2019 11:07:17 15.2 C 27 %
932 15-10-2019 11:17:17 15.2 C 27 %
933 15-10-2019 11:27:17 16.5 C 23 %
934 15-10-2019 11:36:18 17 C 21 %
935 15-10-2019 11:47:17 17.1 C 21 %
936 15-10-2019 11:57:17 17.4 C 21 %
937 15-10-2019 12:07:17 17.8 C 20 %
938 15-10-2019 12:17:17 18.3 C 20 %
939 15-10-2019 12:27:17 18.4 C 20 %
940 15-10-2019 12:37:17 18.6 C 20 %
941 15-10-2019 12:47:17 18.4 C 20 %
942 15-10-2019 12:57:17 18.5 C 20 %
943 15-10-2019 13:06:18 18.6 C 20 %
944 15-10-2019 13:17:17 18.5 C 20 %
945 15-10-2019 13:27:17 18.4 C 20 %
946 15-10-2019 13:37:17 18.2 C 20 %
947 15-10-2019 13:47:17 18.2 C 20 %
948 15-10-2019 13:57:17 18 C 20 %
949 15-10-2019 14:07:17 18 C 20 %
950 15-10-2019 14:17:17 18 C 20 %
Sensor: Nr:Datum:Temp:Feuchte:
Aussen-T/F 951 15-10-2019 14:27:17 17.9 C 20 %
952 15-10-2019 14:37:17 17.7 C 20 %
953 15-10-2019 14:47:17 17.7 C 20 %
954 15-10-2019 14:57:17 17.7 C 20 %
955 15-10-2019 15:07:17 17.8 C 20 %
956 15-10-2019 15:17:17 17.6 C 20 %
957 15-10-2019 15:27:17 17 C 20 %
958 15-10-2019 15:37:18 16.4 C 20 %
959 15-10-2019 15:47:17 16.5 C 20 %
960 15-10-2019 15:57:17 16.6 C 20 %
961 15-10-2019 16:07:18 16.6 C 20 %
962 15-10-2019 16:17:17 16.8 C 20 %
963 15-10-2019 16:27:17 16.8 C 20 %
964 15-10-2019 16:37:17 17 C 20 %
965 15-10-2019 16:47:17 16.8 C 20 %
966 15-10-2019 16:57:17 16.6 C 20 %
967 15-10-2019 17:07:17 16.2 C 20 %
968 15-10-2019 17:17:18 16 C 21 %
969 15-10-2019 17:27:18 15.4 C 25 %
970 15-10-2019 17:37:17 15 C 27 %
971 15-10-2019 17:47:17 14.9 C 28 %
972 15-10-2019 17:57:18 14.7 C 30 %
973 15-10-2019 18:07:17 14.6 C 29 %
974 15-10-2019 18:17:18 14.4 C 28 %
975 15-10-2019 18:27:18 14.1 C 29 %
Sensor: Nr:Datum:Temp:Feuchte:
Aussen-T/F 976 15-10-2019 18:37:17 14 C 31 %
977 15-10-2019 18:47:17 14 C 31 %
978 15-10-2019 18:57:17 13.9 C 31 %
979 15-10-2019 19:07:17 13.8 C 31 %
980 15-10-2019 19:17:17 13.7 C 32 %
981 15-10-2019 19:27:17 13.7 C 33 %
982 15-10-2019 19:37:17 13.6 C 33 %
983 15-10-2019 19:47:17 13.6 C 33 %
984 15-10-2019 19:57:17 13.5 C 33 %
985 15-10-2019 20:07:18 13.5 C 35 %
986 15-10-2019 20:17:17 13.3 C 35 %
987 15-10-2019 20:27:17 13.3 C 35 %
988 15-10-2019 20:37:17 13.2 C 35 %
989 15-10-2019 20:47:17 13.2 C 35 %
990 15-10-2019 20:57:17 13.1 C 35 %
991 15-10-2019 21:07:18 13.1 C 35 %
992 15-10-2019 21:17:17 13.1 C 35 %
993 15-10-2019 21:27:17 13 C 35 %
994 15-10-2019 21:37:17 13 C 35 %
995 15-10-2019 21:47:17 13 C 35 %
996 15-10-2019 21:57:17 12.9 C 35 %
997 15-10-2019 22:07:17 12.9 C 35 %
998 15-10-2019 22:17:17 13 C 34 %
999 15-10-2019 22:27:17 13 C 34 %
1000 15-10-2019 22:37:17 13.1 C 32 %
Sensor: Nr:Datum:Temp:Feuchte:
Aussen-T/F 1001 15-10-2019 22:47:17 12.9 C 34 %
1002 15-10-2019 22:57:17 12.9 C 34 %
1003 15-10-2019 23:07:17 13 C 34 %
1004 15-10-2019 23:17:18 13 C 27 %
1005 15-10-2019 23:27:18 12.7 C 27 %
1006 15-10-2019 23:37:17 12.2 C 27 %
1007 15-10-2019 23:47:17 12.3 C 26 %
1008 15-10-2019 23:57:17 11.9 C 29 %
1009 16-10-2019 00:07:17 11.8 C 29 %
1010 16-10-2019 00:17:17 11.8 C 29 %
1011 16-10-2019 00:27:17 11.9 C 29 %
1012 16-10-2019 00:37:18 11.5 C 31 %
1013 16-10-2019 00:47:17 11.4 C 33 %
1014 16-10-2019 00:57:17 11.4 C 35 %
1015 16-10-2019 01:07:18 11.4 C 35 %
1016 16-10-2019 01:17:17 11.3 C 35 %
1017 16-10-2019 01:27:17 11.4 C 35 %
1018 16-10-2019 01:37:17 11.3 C 35 %
1019 16-10-2019 01:47:17 11.4 C 35 %
1020 16-10-2019 01:57:17 11.3 C 35 %
1021 16-10-2019 02:07:17 11.3 C 36 %
1022 16-10-2019 02:17:17 11.2 C 36 %
1023 16-10-2019 02:27:17 11.3 C 36 %
1024 16-10-2019 02:37:17 11.4 C 35 %
1025 16-10-2019 02:47:18 11.3 C 35 %
Sensor: Nr:Datum:Temp:Feuchte:
Aussen-T/F 1026 16-10-2019 02:57:18 11.3 C 35 %
1027 16-10-2019 03:07:17 11.4 C 35 %
1028 16-10-2019 03:17:17 11.3 C 33 %
1029 16-10-2019 03:27:17 11.3 C 33 %
1030 16-10-2019 03:37:18 11.5 C 31 %
1031 16-10-2019 03:47:17 11.4 C 30 %
1032 16-10-2019 03:57:17 11.4 C 30 %
1033 16-10-2019 04:07:18 11.5 C 29 %
1034 16-10-2019 04:17:17 11.4 C 30 %
1035 16-10-2019 04:27:17 11.4 C 29 %
1036 16-10-2019 04:37:17 11.3 C 30 %
1037 16-10-2019 04:47:17 11.2 C 31 %
1038 16-10-2019 04:57:17 11.2 C 31 %
1039 16-10-2019 05:07:18 11.2 C 29 %
1040 16-10-2019 05:17:17 11.1 C 31 %
1041 16-10-2019 05:27:17 11.2 C 30 %
1042 16-10-2019 05:37:18 11.1 C 30 %
1043 16-10-2019 05:47:17 10.9 C 31 %
1044 16-10-2019 05:57:17 11 C 30 %
1045 16-10-2019 06:07:17 11 C 28 %
1046 16-10-2019 06:17:17 11.1 C 27 %
1047 16-10-2019 06:27:17 10.9 C 26 %
1048 16-10-2019 06:37:17 11.1 C 26 %
1049 16-10-2019 06:47:17 11.6 C 25 %
1050 16-10-2019 06:57:17 11.6 C 25 %
Sensor: Nr:Datum:Temp:Feuchte:
Aussen-T/F 1051 16-10-2019 07:07:17 11 C 26 %
1052 16-10-2019 07:17:17 10.6 C 29 %
1053 16-10-2019 07:27:17 10.4 C 30 %
1054 16-10-2019 07:37:18 10.5 C 28 %
1055 16-10-2019 07:47:17 10.5 C 28 %
1056 16-10-2019 07:57:17 10.5 C 27 %
1057 16-10-2019 08:07:18 10.5 C 27 %
1058 16-10-2019 08:17:17 10.4 C 27 %
1059 16-10-2019 08:27:17 10.7 C 26 %
1060 16-10-2019 08:37:17 10.1 C 29 %
1061 16-10-2019 08:47:17 9.8 C 32 %
1062 16-10-2019 08:57:17 9.8 C 33 %
1063 16-10-2019 09:07:17 9.9 C 32 %
1064 16-10-2019 09:17:17 9.9 C 35 %
1065 16-10-2019 09:27:17 10.7 C 36 %
1066 16-10-2019 09:37:17 11.4 C 27 %
1067 16-10-2019 09:47:17 12 C 24 %
1068 16-10-2019 09:57:17 12.2 C 23 %
1069 16-10-2019 10:07:17 12.5 C 22 %
1070 16-10-2019 10:17:17 12.6 C 22 %
1071 16-10-2019 10:27:17 12.7 C 20 %
1072 16-10-2019 10:37:18 13.2 C 20 %
1073 16-10-2019 10:47:17 13.6 C 20 %
1074 16-10-2019 10:57:17 13.6 C 20 %
1075 16-10-2019 11:07:17 14.1 C 20 %
Sensor: Nr:Datum:Temp:Feuchte:
Aussen-T/F 1076 16-10-2019 11:17:17 14.4 C 20 %
1077 16-10-2019 11:27:17 14.3 C 20 %
1078 16-10-2019 11:37:17 14.3 C 20 %
1079 16-10-2019 11:47:17 14.7 C 20 %
1080 16-10-2019 11:57:17 14.9 C 20 %
1081 16-10-2019 12:07:17 14.9 C 20 %
1082 16-10-2019 12:17:17 15 C 20 %
1083 16-10-2019 12:27:17 14.6 C 20 %
1084 16-10-2019 12:37:17 14.2 C 20 %
1085 16-10-2019 12:47:17 13.6 C 20 %
1086 16-10-2019 12:57:17 13.3 C 25 %
1087 16-10-2019 13:07:17 13.4 C 27 %
1088 16-10-2019 13:17:17 13.5 C 27 %
1089 16-10-2019 13:27:17 13.5 C 27 %
1090 16-10-2019 13:37:18 13.4 C 27 %
1091 16-10-2019 13:47:17 13.3 C 29 %
1092 16-10-2019 13:57:17 13 C 28 %
1093 16-10-2019 14:07:17 13 C 30 %
1094 16-10-2019 14:17:17 13 C 30 %
1095 16-10-2019 14:27:17 13 C 30 %
1096 16-10-2019 14:37:17 13 C 30 %
1097 16-10-2019 14:47:17 13 C 30 %
1098 16-10-2019 14:57:17 13.1 C 29 %
1099 16-10-2019 15:07:17 13.6 C 27 %
1100 16-10-2019 15:17:17 13.8 C 26 %
Sensor: Nr:Datum:Temp:Feuchte:
Aussen-T/F 1101 16-10-2019 15:27:17 13.8 C 26 %
1102 16-10-2019 15:37:18 14.5 C 25 %
1103 16-10-2019 15:47:17 14.6 C 25 %
1104 16-10-2019 15:57:17 14.3 C 25 %
1105 16-10-2019 16:07:17 14.4 C 24 %
1106 16-10-2019 16:17:17 15.4 C 21 %
1107 16-10-2019 16:27:17 15.8 C 20 %
1108 16-10-2019 16:37:18 15.1 C 20 %
1109 16-10-2019 16:47:17 14.8 C 25 %
1110 16-10-2019 16:57:17 14.6 C 25 %
1111 16-10-2019 17:07:17 14.2 C 26 %
1112 16-10-2019 17:17:17 14.2 C 27 %
1113 16-10-2019 17:27:17 14.1 C 27 %
1114 16-10-2019 17:37:18 14.3 C 27 %
1115 16-10-2019 17:47:17 14.6 C 26 %
1116 16-10-2019 17:57:17 14 C 26 %
1117 16-10-2019 18:07:17 13.8 C 30 %
1118 16-10-2019 18:17:17 13.7 C 30 %
1119 16-10-2019 18:27:17 13.4 C 32 %
1120 16-10-2019 18:37:18 13.4 C 33 %
1121 16-10-2019 18:47:17 13.3 C 33 %
1122 16-10-2019 18:57:17 13.2 C 34 %
1123 16-10-2019 19:07:18 13.2 C 34 %
1124 16-10-2019 19:17:17 13.1 C 34 %
1125 16-10-2019 19:27:17 13.1 C 34 %
Sensor: Nr:Datum:Temp:Feuchte:
Aussen-T/F 1126 16-10-2019 19:37:17 13.1 C 34 %
1127 16-10-2019 19:47:17 13.1 C 35 %
1128 16-10-2019 19:57:17 13.1 C 34 %
1129 16-10-2019 20:07:17 13 C 34 %
1130 16-10-2019 20:17:18 12.9 C 35 %
1131 16-10-2019 20:27:18 12.7 C 35 %
1132 16-10-2019 20:37:17 12.7 C 35 %
1133 16-10-2019 20:47:17 12.5 C 35 %
1134 16-10-2019 20:57:17 12.4 C 35 %
1135 16-10-2019 21:07:17 12.3 C 35 %
1136 16-10-2019 21:17:17 12.1 C 35 %
1137 16-10-2019 21:27:17 12.1 C 35 %
1138 16-10-2019 21:37:17 12 C 35 %
1139 16-10-2019 21:47:17 12.1 C 35 %
1140 16-10-2019 21:57:17 12.1 C 35 %
1141 16-10-2019 22:07:17 12.1 C 35 %
1142 16-10-2019 22:17:17 12 C 35 %
1143 16-10-2019 22:27:17 12 C 35 %
1144 16-10-2019 22:37:18 12.1 C 35 %
1145 16-10-2019 22:47:17 12.1 C 35 %
1146 16-10-2019 22:57:17 12 C 34 %
1147 16-10-2019 23:07:18 12.1 C 34 %
1148 16-10-2019 23:17:17 12 C 33 %
1149 16-10-2019 23:27:17 12.1 C 33 %
1150 16-10-2019 23:37:17 11.9 C 34 %
Sensor: Nr:Datum:Temp:Feuchte:
Aussen-T/F 1151 16-10-2019 23:47:17 12.2 C 30 %
1152 16-10-2019 23:57:17 12.2 C 30 %
1153 17-10-2019 00:07:17 12.3 C 30 %
1154 17-10-2019 00:17:17 12.4 C 30 %
1155 17-10-2019 00:27:17 12.3 C 30 %
1156 17-10-2019 00:37:17 12.3 C 31 %
1157 17-10-2019 00:47:17 12.3 C 31 %
1158 17-10-2019 00:57:17 12.3 C 32 %
1159 17-10-2019 01:07:18 12.2 C 32 %
1160 17-10-2019 01:17:17 12.2 C 33 %
1161 17-10-2019 01:27:17 12 C 34 %
1162 17-10-2019 01:37:18 11.7 C 35 %
1163 17-10-2019 01:47:17 11.7 C 35 %
1164 17-10-2019 01:57:17 11.4 C 35 %
1165 17-10-2019 02:07:18 11.7 C 35 %
1166 17-10-2019 02:17:17 11.8 C 34 %
1167 17-10-2019 02:27:17 12 C 32 %
1168 17-10-2019 02:37:17 12 C 31 %
1169 17-10-2019 02:47:18 12.2 C 31 %
1170 17-10-2019 02:57:18 12.4 C 30 %
1171 17-10-2019 03:07:17 12.4 C 30 %
1172 17-10-2019 03:17:17 12.3 C 30 %
1173 17-10-2019 03:27:18 12.3 C 30 %
1174 17-10-2019 03:37:17 12.6 C 28 %
1175 17-10-2019 03:47:17 13 C 25 %
Sensor: Nr:Datum:Temp:Feuchte:
Aussen-T/F 1176 17-10-2019 03:57:17 13.1 C 25 %
1177 17-10-2019 04:07:17 13.4 C 25 %
1178 17-10-2019 04:17:17 13.1 C 25 %
1179 17-10-2019 04:27:17 13.4 C 25 %
1180 17-10-2019 04:37:17 13.3 C 25 %
1181 17-10-2019 04:47:17 13.4 C 25 %
1182 17-10-2019 04:57:17 13.6 C 23 %
1183 17-10-2019 05:07:18 13.6 C 25 %
1184 17-10-2019 05:17:17 13.7 C 23 %
1185 17-10-2019 05:27:17 14.1 C 21 %
1186 17-10-2019 05:37:17 14.1 C 21 %
1187 17-10-2019 05:47:17 13.8 C 23 %
1188 17-10-2019 05:57:17 13.8 C 22 %
1189 17-10-2019 06:07:17 13.8 C 23 %
1190 17-10-2019 06:17:17 13.7 C 23 %
1191 17-10-2019 06:27:17 14 C 22 %
1192 17-10-2019 06:37:18 13.7 C 23 %
1193 17-10-2019 06:47:17 14.1 C 21 %
1194 17-10-2019 06:57:17 13.8 C 23 %
1195 17-10-2019 07:07:17 13.7 C 23 %
1196 17-10-2019 07:17:18 13.5 C 25 %
1197 17-10-2019 07:27:18 13.5 C 25 %
1198 17-10-2019 07:37:17 13.8 C 24 %
1199 17-10-2019 07:47:18 14.1 C 22 %
1200 17-10-2019 07:57:18 14.2 C 22 %
Sensor: Nr:Datum:Temp:Feuchte:
Aussen-T/F 1201 17-10-2019 08:07:17 13.7 C 25 %
1202 17-10-2019 08:17:17 13.8 C 25 %
1203 17-10-2019 08:27:17 15.2 C 20 %
1204 17-10-2019 08:37:17 15.3 C 20 %
1205 17-10-2019 08:47:17 15.2 C 20 %
1206 17-10-2019 08:57:17 15.3 C 20 %
1207 17-10-2019 09:07:17 15.3 C 20 %
1208 17-10-2019 09:17:17 15.4 C 20 %
1209 17-10-2019 09:27:17 15.5 C 20 %
1210 17-10-2019 09:37:18 15.5 C 20 %
1211 17-10-2019 09:47:17 15.5 C 20 %
1212 17-10-2019 09:57:17 15.4 C 20 %
1213 17-10-2019 10:07:18 15.7 C 20 %
1214 17-10-2019 10:17:17 15.9 C 20 %
1215 17-10-2019 10:27:17 16.2 C 20 %
1216 17-10-2019 10:37:17 16.4 C 20 %
1217 17-10-2019 10:47:17 16.5 C 20 %
1218 17-10-2019 10:57:17 16.6 C 20 %
1219 17-10-2019 11:07:17 17 C 20 %
1220 17-10-2019 11:17:17 17.2 C 20 %
1221 17-10-2019 11:27:18 17.2 C 20 %
1222 17-10-2019 11:37:17 17.1 C 20 %
1223 17-10-2019 11:47:17 16.9 C 20 %
1224 17-10-2019 11:57:17 16.8 C 20 %
1225 17-10-2019 12:07:17 16.5 C 20 %
Sensor: Nr:Datum:Temp:Feuchte:
Aussen-T/F 1226 17-10-2019 12:17:17 16.4 C 20 %
1227 17-10-2019 12:27:18 16.3 C 20 %
1228 17-10-2019 12:37:17 16.6 C 20 %
1229 17-10-2019 12:47:17 16.8 C 20 %
1230 17-10-2019 12:57:17 17.2 C 20 %
1231 17-10-2019 13:07:18 17.1 C 20 %
1232 17-10-2019 13:17:17 17 C 20 %
1233 17-10-2019 13:27:17 16.8 C 20 %
1234 17-10-2019 13:37:17 17 C 20 %
1235 17-10-2019 13:47:17 17.2 C 20 %
1236 17-10-2019 13:57:17 17.3 C 20 %
1237 17-10-2019 14:07:17 17.3 C 20 %
1238 17-10-2019 14:17:17 16.7 C 20 %
1239 17-10-2019 14:27:17 16.4 C 20 %
1240 17-10-2019 14:37:17 16.2 C 20 %
1241 17-10-2019 14:47:18 16.6 C 20 %
1242 17-10-2019 14:57:18 16.7 C 20 %
1243 17-10-2019 15:07:17 16.7 C 20 %
1244 17-10-2019 15:17:17 16.8 C 20 %
1245 17-10-2019 15:27:17 16.7 C 20 %
1246 17-10-2019 15:37:17 16.2 C 20 %
1247 17-10-2019 15:47:17 16 C 20 %
1248 17-10-2019 15:57:17 15.1 C 25 %
1249 17-10-2019 16:07:18 14.9 C 30 %
1250 17-10-2019 16:17:17 14.9 C 30 %
Sensor: Nr:Datum:Temp:Feuchte:
Aussen-T/F 1251 17-10-2019 16:27:17 14.8 C 31 %
1252 17-10-2019 16:37:17 14.7 C 31 %
1253 17-10-2019 16:47:17 14.6 C 34 %
1254 17-10-2019 16:57:17 14.5 C 35 %
1255 17-10-2019 17:07:18 14.5 C 35 %
1256 17-10-2019 17:17:17 14.4 C 35 %
1257 17-10-2019 17:27:17 14.4 C 35 %
1258 17-10-2019 17:37:17 14.3 C 35 %
1259 17-10-2019 17:47:17 14.2 C 35 %
1260 17-10-2019 17:57:17 14.2 C 35 %
1261 17-10-2019 18:07:17 14.2 C 35 %
1262 17-10-2019 18:17:18 14 C 35 %
1263 17-10-2019 18:27:18 13.9 C 36 %
1264 17-10-2019 18:37:17 13.8 C 36 %
1265 17-10-2019 18:47:17 13.7 C 35 %
1266 17-10-2019 18:57:17 13.7 C 36 %
1267 17-10-2019 19:07:17 13.6 C 36 %
1268 17-10-2019 19:17:17 13.5 C 35 %
1269 17-10-2019 19:27:17 13.5 C 35 %
1270 17-10-2019 19:37:17 13.5 C 35 %
1271 17-10-2019 19:47:17 13.5 C 35 %
1272 17-10-2019 19:57:17 13.5 C 35 %
1273 17-10-2019 20:07:17 13.5 C 35 %
1274 17-10-2019 20:17:17 13.5 C 35 %
1275 17-10-2019 20:27:18 13.5 C 35 %
Sensor: Nr:Datum:Temp:Feuchte:
Aussen-T/F 1276 17-10-2019 20:37:17 13.5 C 35 %
1277 17-10-2019 20:47:17 13.4 C 35 %
1278 17-10-2019 20:57:17 13.4 C 35 %
1279 17-10-2019 21:07:17 13.4 C 35 %
1280 17-10-2019 21:17:17 13.4 C 35 %
1281 17-10-2019 21:27:17 13.4 C 35 %
1282 17-10-2019 21:37:17 13.4 C 35 %
1283 17-10-2019 21:47:17 13.5 C 35 %
1284 17-10-2019 21:57:17 13.4 C 35 %
1285 17-10-2019 22:07:17 13.4 C 35 %
1286 17-10-2019 22:17:17 13.3 C 35 %
1287 17-10-2019 22:27:18 13.3 C 35 %
1288 17-10-2019 22:37:17 13.3 C 35 %
1289 17-10-2019 22:47:17 13.4 C 35 %
1290 17-10-2019 22:57:17 13.4 C 35 %
1291 17-10-2019 23:07:17 13.4 C 35 %
1292 17-10-2019 23:17:17 13.4 C 35 %
1293 17-10-2019 23:27:17 13.4 C 35 %
1294 17-10-2019 23:37:17 13.5 C 35 %
1295 17-10-2019 23:47:18 13.5 C 35 %
1296 17-10-2019 23:57:18 13.4 C 35 %
1297 18-10-2019 00:07:17 13.4 C 35 %
1298 18-10-2019 00:17:17 13.4 C 35 %
1299 18-10-2019 00:27:17 13.4 C 34 %
1300 18-10-2019 00:37:17 13.4 C 34 %
Sensor: Nr:Datum:Temp:Feuchte:
Aussen-T/F 1301 18-10-2019 00:47:17 13.3 C 34 %
1302 18-10-2019 00:57:17 12.8 C 34 %
1303 18-10-2019 01:07:17 12.6 C 35 %
1304 18-10-2019 01:17:17 12.4 C 35 %
1305 18-10-2019 01:27:17 12.1 C 35 %
1306 18-10-2019 01:37:18 12.2 C 35 %
1307 18-10-2019 01:47:17 12.1 C 35 %
1308 18-10-2019 01:57:17 11.8 C 35 %
1309 18-10-2019 02:07:18 11.8 C 36 %
1310 18-10-2019 02:17:18 11.5 C 36 %
1311 18-10-2019 02:27:18 11.4 C 36 %
1312 18-10-2019 02:37:17 11.5 C 36 %
1313 18-10-2019 02:47:17 11.3 C 36 %
1314 18-10-2019 02:57:17 11.5 C 37 %
1315 18-10-2019 03:07:17 11.4 C 36 %
1316 18-10-2019 03:17:17 11.1 C 36 %
1317 18-10-2019 03:27:17 10.9 C 37 %
1318 18-10-2019 03:37:17 10.7 C 37 %
1319 18-10-2019 03:47:17 10.7 C 37 %
1320 18-10-2019 03:57:17 10.7 C 37 %
1321 18-10-2019 04:07:17 10.7 C 37 %
1322 18-10-2019 04:17:17 10.8 C 37 %
1323 18-10-2019 04:27:17 11.1 C 36 %
1324 18-10-2019 04:37:18 10.9 C 37 %
1325 18-10-2019 04:47:17 10.9 C 37 %
Sensor: Nr:Datum:Temp:Feuchte:
Aussen-T/F 1326 18-10-2019 04:57:17 10.9 C 37 %
1327 18-10-2019 05:07:18 10.9 C 37 %
1328 18-10-2019 05:17:17 10.8 C 37 %
1329 18-10-2019 05:27:17 11.1 C 36 %
1330 18-10-2019 05:37:17 11.5 C 36 %
1331 18-10-2019 05:47:17 11.8 C 36 %
1332 18-10-2019 05:57:17 11.9 C 36 %
1333 18-10-2019 06:07:18 12.2 C 36 %
1334 18-10-2019 06:17:17 11.9 C 36 %
1335 18-10-2019 06:27:17 12 C 35 %
1336 18-10-2019 06:37:18 12.1 C 35 %
1337 18-10-2019 06:47:17 12.1 C 35 %
1338 18-10-2019 06:57:17 12 C 35 %
1339 18-10-2019 07:07:18 12.1 C 35 %
1340 18-10-2019 07:17:17 12.1 C 35 %
1341 18-10-2019 07:27:17 11.9 C 36 %
1342 18-10-2019 07:37:17 11.7 C 36 %
1343 18-10-2019 07:47:17 11.9 C 36 %
1344 18-10-2019 07:57:17 12 C 35 %
1345 18-10-2019 08:07:17 12.1 C 35 %
1346 18-10-2019 08:17:18 12.3 C 35 %
1347 18-10-2019 08:27:18 12.4 C 35 %
1348 18-10-2019 08:37:17 12.4 C 35 %
1349 18-10-2019 08:47:18 12.4 C 35 %
1350 18-10-2019 08:57:18 12.6 C 35 %
Sensor: Nr:Datum:Temp:Feuchte:
Aussen-T/F 1351 18-10-2019 09:07:17 12.7 C 35 %
1352 18-10-2019 09:17:17 12.8 C 35 %
1353 18-10-2019 09:27:17 12.9 C 35 %
1354 18-10-2019 09:37:18 13.3 C 35 %
1355 18-10-2019 09:47:17 13.4 C 35 %
1356 18-10-2019 09:57:17 13.4 C 35 %
1357 18-10-2019 10:07:18 13.7 C 34 %
1358 18-10-2019 10:17:17 13.9 C 33 %
1359 18-10-2019 10:27:17 14.3 C 33 %
1360 18-10-2019 10:37:17 14.4 C 32 %
1361 18-10-2019 10:47:17 14.7 C 32 %
1362 18-10-2019 10:57:17 15 C 30 %
1363 18-10-2019 11:07:17 15.1 C 27 %
1364 18-10-2019 11:17:17 15.2 C 27 %
1365 18-10-2019 11:27:17 15.7 C 20 %
1366 18-10-2019 11:37:17 16.1 C 20 %
1367 18-10-2019 11:47:18 15.7 C 20 %
1368 18-10-2019 11:57:18 15.7 C 20 %
1369 18-10-2019 12:07:17 15.6 C 20 %
1370 18-10-2019 12:17:17 16.4 C 20 %
1371 18-10-2019 12:27:17 16.8 C 20 %
1372 18-10-2019 12:37:17 16.9 C 20 %
1373 18-10-2019 12:47:18 16.8 C 20 %
1374 18-10-2019 12:57:18 17 C 20 %
1375 18-10-2019 13:07:17 17 C 20 %
Sensor: Nr:Datum:Temp:Feuchte:
Aussen-T/F 1376 18-10-2019 13:17:17 17 C 20 %
1377 18-10-2019 13:27:17 13.8 C 20 %
1378 18-10-2019 13:37:17 12.4 C 20 %
1379 18-10-2019 13:47:17 12.1 C 22 %
1380 18-10-2019 13:57:17 11.9 C 23 %
1381 18-10-2019 14:07:17 12.4 C 20 %
1382 18-10-2019 14:17:17 13.4 C 20 %
1383 18-10-2019 14:27:17 13.7 C 20 %
1384 18-10-2019 14:37:18 13.4 C 20 %
1385 18-10-2019 14:47:17 13.3 C 20 %
1386 18-10-2019 14:57:17 13.8 C 20 %
1387 18-10-2019 15:07:17 13.7 C 20 %
1388 18-10-2019 15:17:17 14.4 C 20 %
1389 18-10-2019 15:27:17 14.4 C 20 %
1390 18-10-2019 15:37:17 14.4 C 20 %
1391 18-10-2019 15:47:17 14.2 C 20 %
1392 18-10-2019 15:57:18 14.4 C 20 %
1393 18-10-2019 16:07:17 14.3 C 20 %
1394 18-10-2019 16:17:17 14.6 C 20 %
1395 18-10-2019 16:27:17 14.9 C 20 %
1396 18-10-2019 16:37:18 16.1 C 20 %
1397 18-10-2019 16:47:17 17.5 C 20 %
1398 18-10-2019 16:57:17 16.8 C 20 %
1399 18-10-2019 17:07:17 16.9 C 20 %
1400 18-10-2019 17:17:17 16.6 C 20 %
Sensor: Nr:Datum:Temp:Feuchte:
Aussen-T/F 1401 18-10-2019 17:27:17 16.5 C 20 %
1402 18-10-2019 17:37:18 16.6 C 20 %
1403 18-10-2019 17:47:17 15.2 C 20 %
1404 18-10-2019 17:57:17 14.5 C 20 %
1405 18-10-2019 18:07:17 12.8 C 20 %
1406 18-10-2019 18:17:17 12.3 C 20 %
1407 18-10-2019 18:27:17 11.5 C 20 %
1408 18-10-2019 18:37:18 11.2 C 20 %
1409 18-10-2019 18:47:17 10.8 C 21 %
1410 18-10-2019 18:57:17 10.6 C 22 %
1411 18-10-2019 19:07:17 10.4 C 25 %
1412 18-10-2019 19:17:17 10.4 C 23 %
1413 18-10-2019 19:27:17 10 C 25 %
1414 18-10-2019 19:37:18 9.7 C 26 %
1415 18-10-2019 19:47:17 9.5 C 28 %
1416 18-10-2019 19:57:17 9 C 30 %
1417 18-10-2019 20:07:18 9.1 C 30 %
1418 18-10-2019 20:17:17 9 C 30 %
1419 18-10-2019 20:27:17 9 C 31 %
1420 18-10-2019 20:37:17 9 C 31 %
1421 18-10-2019 20:47:17 9 C 31 %
1422 18-10-2019 20:57:17 8.7 C 32 %
1423 18-10-2019 21:07:17 8.5 C 32 %
1424 18-10-2019 21:17:17 8.5 C 33 %
1425 18-10-2019 21:27:17 8.3 C 33 %
Sensor: Nr:Datum:Temp:Feuchte:
Aussen-T/F 1426 18-10-2019 21:37:17 8.4 C 35 %
1427 18-10-2019 21:47:17 8.5 C 35 %
1428 18-10-2019 21:57:17 8.6 C 36 %
1429 18-10-2019 22:07:17 8.6 C 35 %
1430 18-10-2019 22:17:17 8.7 C 36 %
1431 18-10-2019 22:27:17 8.7 C 36 %
1432 18-10-2019 22:37:17 8.6 C 35 %
1433 18-10-2019 22:47:17 8.7 C 35 %
1434 18-10-2019 22:57:17 8.6 C 35 %
1435 18-10-2019 23:07:17 8.7 C 36 %
1436 18-10-2019 23:17:17 8.6 C 35 %
1437 18-10-2019 23:27:17 8.6 C 35 %
1438 18-10-2019 23:37:17 8.7 C 35 %
1439 18-10-2019 23:47:17 8.6 C 35 %
1440 18-10-2019 23:57:17 8.5 C 34 %
1441 19-10-2019 00:07:17 8.5 C 35 %
1442 19-10-2019 00:17:17 8.5 C 35 %
1443 19-10-2019 00:27:17 8.9 C 35 %
1444 19-10-2019 00:37:17 9.1 C 31 %
1445 19-10-2019 00:47:17 9.1 C 30 %
1446 19-10-2019 00:57:17 9 C 30 %
1447 19-10-2019 01:07:17 9.3 C 30 %
1448 19-10-2019 01:17:17 9.1 C 30 %
1449 19-10-2019 01:27:17 9.5 C 28 %
1450 19-10-2019 01:37:17 9.3 C 29 %
Sensor: Nr:Datum:Temp:Feuchte:
Aussen-T/F 1451 19-10-2019 01:47:17 9 C 30 %
1452 19-10-2019 01:57:17 8.8 C 31 %
1453 19-10-2019 02:07:17 9 C 32 %
1454 19-10-2019 02:17:17 9 C 32 %
1455 19-10-2019 02:27:17 9.1 C 32 %
1456 19-10-2019 02:37:17 9.2 C 32 %
1457 19-10-2019 02:47:17 9.2 C 32 %
1458 19-10-2019 02:57:18 9.3 C 32 %
1459 19-10-2019 03:07:17 9.3 C 32 %
1460 19-10-2019 03:17:18 9.3 C 32 %
1461 19-10-2019 03:27:18 9.3 C 32 %
1462 19-10-2019 03:37:17 9.3 C 31 %
1463 19-10-2019 03:47:17 9.4 C 31 %
1464 19-10-2019 03:57:17 9.4 C 31 %
1465 19-10-2019 04:07:17 9.4 C 31 %
1466 19-10-2019 04:17:18 9.4 C 31 %
1467 19-10-2019 04:27:18 9.5 C 32 %
1468 19-10-2019 04:37:17 9.7 C 31 %
1469 19-10-2019 04:47:18 9.8 C 31 %
1470 19-10-2019 04:57:18 10 C 30 %
1471 19-10-2019 05:07:17 10.2 C 30 %
1472 19-10-2019 05:17:18 10.2 C 30 %
1473 19-10-2019 05:27:18 10.5 C 28 %
1474 19-10-2019 05:37:17 10.5 C 28 %
1475 19-10-2019 05:47:17 10.2 C 28 %
Sensor: Nr:Datum:Temp:Feuchte:
Aussen-T/F 1476 19-10-2019 05:57:17 10.2 C 29 %
1477 19-10-2019 06:07:17 10.2 C 29 %
1478 19-10-2019 06:17:18 10.2 C 30 %
1479 19-10-2019 06:27:18 10 C 30 %
1480 19-10-2019 06:37:17 9.9 C 32 %
1481 19-10-2019 06:47:17 9.8 C 32 %
1482 19-10-2019 06:57:17 10 C 31 %
1483 19-10-2019 07:07:17 10 C 31 %
1484 19-10-2019 07:17:17 10.1 C 31 %
1485 19-10-2019 07:27:17 10.1 C 31 %
1486 19-10-2019 07:37:17 10.3 C 30 %
1487 19-10-2019 07:47:17 10.3 C 30 %
1488 19-10-2019 07:57:17 10.3 C 31 %
1489 19-10-2019 08:07:18 10.4 C 31 %
1490 19-10-2019 08:17:17 10.6 C 31 %
1491 19-10-2019 08:27:17 10.8 C 30 %
1492 19-10-2019 08:37:17 10.9 C 30 %
1493 19-10-2019 08:47:17 11 C 30 %
1494 19-10-2019 08:57:17 11.1 C 29 %
1495 19-10-2019 09:07:17 11.4 C 28 %
1496 19-10-2019 09:17:17 11.7 C 27 %
1497 19-10-2019 09:27:17 12 C 26 %
1498 19-10-2019 09:37:18 12.1 C 25 %
1499 19-10-2019 09:47:17 12.4 C 22 %
1500 19-10-2019 09:57:17 12.9 C 23 %
Sensor: Nr:Datum:Temp:Feuchte:
Aussen-T/F 1501 19-10-2019 10:07:18 13 C 20 %
1502 19-10-2019 10:17:17 13.3 C 20 %
1503 19-10-2019 10:27:17 13.3 C 20 %
1504 19-10-2019 10:37:18 13.2 C 20 %
1505 19-10-2019 10:47:17 12.9 C 23 %
1506 19-10-2019 10:57:17 13.1 C 25 %
1507 19-10-2019 11:07:18 13.2 C 24 %
1508 19-10-2019 11:17:17 13.3 C 25 %
1509 19-10-2019 11:27:17 13.4 C 25 %
1510 19-10-2019 11:37:17 13.8 C 24 %
1511 19-10-2019 11:47:17 14.5 C 20 %
1512 19-10-2019 11:57:17 14.9 C 20 %
1513 19-10-2019 12:07:17 15.7 C 20 %
1514 19-10-2019 12:17:17 15.6 C 20 %
1515 19-10-2019 12:27:17 15.8 C 20 %
1516 19-10-2019 12:37:17 16.1 C 20 %
1517 19-10-2019 12:47:18 16 C 20 %
1518 19-10-2019 12:57:18 16.4 C 20 %
1519 19-10-2019 13:07:17 16.7 C 20 %
1520 19-10-2019 13:17:17 17 C 20 %
1521 19-10-2019 13:27:17 16.4 C 20 %
1522 19-10-2019 13:37:18 17.1 C 20 %
1523 19-10-2019 13:47:17 17.3 C 20 %
1524 19-10-2019 13:57:17 17.7 C 20 %
1525 19-10-2019 14:07:17 17.7 C 20 %
Sensor: Nr:Datum:Temp:Feuchte:
Aussen-T/F 1526 19-10-2019 14:17:17 17.7 C 20 %
1527 19-10-2019 14:27:18 17.6 C 20 %
1528 19-10-2019 14:37:18 17.8 C 20 %
1529 19-10-2019 14:47:18 17.8 C 20 %
1530 19-10-2019 14:57:18 17.5 C 20 %
1531 19-10-2019 15:07:18 17.5 C 20 %
1532 19-10-2019 15:17:17 18.3 C 20 %
1533 19-10-2019 15:27:17 17.9 C 20 %
1534 19-10-2019 15:37:17 17.7 C 20 %
1535 19-10-2019 15:47:17 17.3 C 20 %
1536 19-10-2019 15:57:17 17.2 C 20 %
1537 19-10-2019 16:07:17 17.3 C 20 %
1538 19-10-2019 16:17:17 17.9 C 20 %
1539 19-10-2019 16:27:17 17.2 C 20 %
1540 19-10-2019 16:37:17 17.4 C 20 %
1541 19-10-2019 16:47:17 18.9 C 20 %
1542 19-10-2019 16:57:17 18.3 C 20 %
1543 19-10-2019 17:07:17 17.3 C 20 %
1544 19-10-2019 17:17:17 16.9 C 20 %
1545 19-10-2019 17:27:17 16.5 C 20 %
1546 19-10-2019 17:37:17 16 C 20 %
1547 19-10-2019 17:47:17 15.5 C 20 %
1548 19-10-2019 17:57:17 15.1 C 20 %
1549 19-10-2019 18:07:17 14.4 C 27 %
1550 19-10-2019 18:17:17 14.1 C 30 %
Sensor: Nr:Datum:Temp:Feuchte:
Aussen-T/F 1551 19-10-2019 18:27:17 14 C 30 %
1552 19-10-2019 18:37:17 13.5 C 32 %
1553 19-10-2019 18:47:17 13.4 C 35 %
1554 19-10-2019 18:57:17 13.4 C 36 %
1555 19-10-2019 19:07:17 13.3 C 36 %
1556 19-10-2019 19:17:17 13.3 C 36 %
1557 19-10-2019 19:27:17 13.2 C 36 %
1558 19-10-2019 19:37:18 13.2 C 36 %
1559 19-10-2019 19:47:17 13.2 C 36 %
1560 19-10-2019 19:57:17 13.1 C 36 %
1561 19-10-2019 20:07:17 13.1 C 36 %
1562 19-10-2019 20:17:17 13 C 36 %
1563 19-10-2019 20:27:17 12.9 C 36 %
1564 19-10-2019 20:37:18 12.9 C 36 %
1565 19-10-2019 20:47:17 12.9 C 36 %
1566 19-10-2019 20:57:17 13 C 35 %
1567 19-10-2019 21:07:18 13 C 35 %
1568 19-10-2019 21:17:18 13 C 35 %
1569 19-10-2019 21:27:18 13 C 35 %
1570 19-10-2019 21:37:18 13 C 34 %
1571 19-10-2019 21:47:17 12.9 C 35 %
1572 19-10-2019 21:57:17 12.8 C 35 %
1573 19-10-2019 22:07:17 12.8 C 36 %
1574 19-10-2019 22:17:17 12.7 C 36 %
1575 19-10-2019 22:27:17 12.6 C 36 %
Sensor: Nr:Datum:Temp:Feuchte:
Aussen-T/F 1576 19-10-2019 22:37:17 12.6 C 36 %
1577 19-10-2019 22:47:17 12.5 C 36 %
1578 19-10-2019 22:57:17 12.5 C 36 %
1579 19-10-2019 23:07:17 12.4 C 36 %
1580 19-10-2019 23:17:17 12.4 C 36 %
1581 19-10-2019 23:27:17 12.4 C 36 %
1582 19-10-2019 23:37:17 12.4 C 36 %
1583 19-10-2019 23:47:17 12.3 C 36 %
1584 19-10-2019 23:57:17 12.4 C 36 %
1585 20-10-2019 00:07:17 12.4 C 36 %
1586 20-10-2019 00:17:17 12.4 C 36 %
1587 20-10-2019 00:27:17 12.5 C 36 %
1588 20-10-2019 00:37:17 12.5 C 36 %
1589 20-10-2019 00:47:17 12.5 C 36 %
1590 20-10-2019 00:57:17 12.5 C 36 %
1591 20-10-2019 01:07:18 12.6 C 36 %
1592 20-10-2019 01:17:17 12.6 C 36 %
1593 20-10-2019 01:27:17 12.6 C 36 %
1594 20-10-2019 01:37:17 12.6 C 36 %
1595 20-10-2019 01:47:17 12.6 C 36 %
1596 20-10-2019 01:57:17 12.6 C 36 %
1597 20-10-2019 02:07:17 12.6 C 36 %
1598 20-10-2019 02:17:17 12.6 C 35 %
1599 20-10-2019 02:27:17 12.5 C 35 %
1600 20-10-2019 02:37:17 12.5 C 35 %
Sensor: Nr:Datum:Temp:Feuchte:
Aussen-T/F 1601 20-10-2019 02:47:17 12.5 C 35 %
1602 20-10-2019 02:57:17 12.5 C 35 %
1603 20-10-2019 03:07:18 12.5 C 35 %
1604 20-10-2019 03:17:18 12.5 C 35 %
1605 20-10-2019 03:27:18 12.5 C 35 %
1606 20-10-2019 03:37:18 12.6 C 35 %
1607 20-10-2019 03:47:17 12.6 C 35 %
1608 20-10-2019 03:57:17 12.6 C 35 %
1609 20-10-2019 04:07:17 12.6 C 35 %
1610 20-10-2019 04:17:17 12.6 C 35 %
1611 20-10-2019 04:27:17 12.6 C 35 %
1612 20-10-2019 04:37:17 12.6 C 35 %
1613 20-10-2019 04:47:17 12.5 C 35 %
1614 20-10-2019 04:57:17 12.5 C 35 %
1615 20-10-2019 05:07:18 12.5 C 35 %
1616 20-10-2019 05:17:17 12.4 C 35 %
1617 20-10-2019 05:27:17 12.3 C 35 %
1618 20-10-2019 05:37:17 12.3 C 35 %
1619 20-10-2019 05:47:17 12.3 C 35 %
1620 20-10-2019 05:57:17 12.2 C 35 %
1621 20-10-2019 06:07:17 12.2 C 35 %
1622 20-10-2019 06:17:17 12.1 C 35 %
1623 20-10-2019 06:27:17 12 C 35 %
1624 20-10-2019 06:37:18 12 C 35 %
1625 20-10-2019 06:47:17 12 C 35 %
Sensor: Nr:Datum:Temp:Feuchte:
Aussen-T/F 1626 20-10-2019 06:57:17 12 C 35 %
1627 20-10-2019 07:07:17 12 C 35 %
1628 20-10-2019 07:17:17 12 C 35 %
1629 20-10-2019 07:27:17 12.1 C 35 %
1630 20-10-2019 07:37:17 12.1 C 35 %
1631 20-10-2019 07:47:17 12.1 C 35 %
1632 20-10-2019 07:57:17 12 C 35 %
1633 20-10-2019 08:07:17 12 C 35 %
1634 20-10-2019 08:17:17 12 C 35 %
1635 20-10-2019 08:27:17 12.1 C 35 %
1636 20-10-2019 08:37:18 12.2 C 35 %
1637 20-10-2019 08:47:17 12.2 C 35 %
1638 20-10-2019 08:57:17 12.3 C 35 %
1639 20-10-2019 09:07:17 12.5 C 35 %
1640 20-10-2019 09:17:17 12.4 C 35 %
1641 20-10-2019 09:27:17 12.4 C 35 %
1642 20-10-2019 09:37:17 12.5 C 35 %
1643 20-10-2019 09:47:17 12.4 C 35 %
1644 20-10-2019 09:57:17 12.4 C 35 %
1645 20-10-2019 10:07:17 12.5 C 35 %
1646 20-10-2019 10:17:17 12.7 C 35 %
1647 20-10-2019 10:27:17 12.6 C 35 %
1648 20-10-2019 10:37:17 12.7 C 35 %
1649 20-10-2019 10:47:17 12.7 C 35 %
1650 20-10-2019 10:57:17 12.6 C 34 %
Sensor: Nr:Datum:Temp:Feuchte:
Aussen-T/F 1651 20-10-2019 11:07:18 12.8 C 35 %
1652 20-10-2019 11:17:17 12.8 C 35 %
1653 20-10-2019 11:27:17 12.8 C 34 %
1654 20-10-2019 11:37:17 12.9 C 34 %
1655 20-10-2019 11:47:17 13 C 33 %
1656 20-10-2019 11:57:17 13.1 C 33 %
1657 20-10-2019 12:07:18 13.2 C 33 %
1658 20-10-2019 12:17:17 13.2 C 33 %
1659 20-10-2019 12:27:17 13.4 C 34 %
1660 20-10-2019 12:37:17 13.4 C 34 %
1661 20-10-2019 12:47:17 13.6 C 33 %
1662 20-10-2019 12:57:17 13.5 C 33 %
1663 20-10-2019 13:07:17 13.5 C 33 %
1664 20-10-2019 13:17:17 13.5 C 33 %
1665 20-10-2019 13:27:17 13.5 C 33 %
1666 20-10-2019 13:37:17 13.5 C 34 %
1667 20-10-2019 13:47:17 13.6 C 35 %
1668 20-10-2019 13:57:17 13.9 C 33 %
1669 20-10-2019 14:07:17 13.8 C 33 %
1670 20-10-2019 14:17:17 13.7 C 33 %
1671 20-10-2019 14:27:17 13.7 C 33 %
1672 20-10-2019 14:37:17 13.9 C 34 %
1673 20-10-2019 14:47:17 14.1 C 34 %
1674 20-10-2019 14:57:17 14.1 C 33 %
1675 20-10-2019 15:07:17 14 C 33 %
Sensor: Nr:Datum:Temp:Feuchte:
Aussen-T/F 1676 20-10-2019 15:17:17 14 C 35 %
1677 20-10-2019 15:27:17 14 C 35 %
1678 20-10-2019 15:37:17 14.1 C 35 %
1679 20-10-2019 15:47:17 14.1 C 35 %
1680 20-10-2019 15:57:17 14.2 C 35 %
1681 20-10-2019 16:07:17 14.4 C 35 %
1682 20-10-2019 16:17:17 14.5 C 34 %
1683 20-10-2019 16:27:17 14.4 C 34 %
1684 20-10-2019 16:37:18 14.5 C 34 %
1685 20-10-2019 16:47:17 14.5 C 34 %
1686 20-10-2019 16:57:17 14.5 C 34 %
1687 20-10-2019 17:07:17 14.5 C 34 %
1688 20-10-2019 17:17:17 14.4 C 34 %
1689 20-10-2019 17:27:17 14.2 C 35 %
1690 20-10-2019 17:37:18 14.1 C 35 %
1691 20-10-2019 17:47:17 14.1 C 35 %
1692 20-10-2019 17:57:17 14 C 35 %
1693 20-10-2019 18:07:17 14 C 35 %
1694 20-10-2019 18:17:17 13.9 C 35 %
1695 20-10-2019 18:27:17 13.8 C 35 %
1696 20-10-2019 18:37:17 13.8 C 35 %
1697 20-10-2019 18:47:17 13.8 C 35 %
1698 20-10-2019 18:57:17 13.7 C 35 %
1699 20-10-2019 19:07:17 13.6 C 35 %
1700 20-10-2019 19:17:17 13.6 C 35 %
Sensor: Nr:Datum:Temp:Feuchte:
Aussen-T/F 1701 20-10-2019 19:27:17 13.6 C 35 %
1702 20-10-2019 19:37:17 13.5 C 35 %
1703 20-10-2019 19:47:17 13.6 C 35 %
1704 20-10-2019 19:57:17 13.7 C 35 %
1705 20-10-2019 20:07:18 13.6 C 35 %
1706 20-10-2019 20:17:17 13.6 C 35 %
1707 20-10-2019 20:27:17 13.4 C 35 %
1708 20-10-2019 20:37:17 13 C 35 %
1709 20-10-2019 20:47:17 13.4 C 35 %
1710 20-10-2019 20:57:17 13.4 C 35 %
1711 20-10-2019 21:07:18 13.5 C 35 %
1712 20-10-2019 21:17:17 13.6 C 35 %
1713 20-10-2019 21:27:17 13.5 C 35 %
1714 20-10-2019 21:37:17 13.5 C 35 %
1715 20-10-2019 21:47:17 13.5 C 35 %
1716 20-10-2019 21:57:17 13.5 C 35 %
1717 20-10-2019 22:07:17 13.5 C 35 %
1718 20-10-2019 22:17:17 13.5 C 35 %
1719 20-10-2019 22:27:17 13.4 C 35 %
1720 20-10-2019 22:37:17 13.4 C 35 %
1721 20-10-2019 22:47:17 13.4 C 35 %
1722 20-10-2019 22:57:17 13.3 C 35 %
1723 20-10-2019 23:07:17 13.4 C 35 %
1724 20-10-2019 23:17:17 13.4 C 35 %
1725 20-10-2019 23:27:17 13.4 C 35 %
Sensor: Nr:Datum:Temp:Feuchte:
Aussen-T/F 1726 20-10-2019 23:37:17 13.5 C 35 %
1727 20-10-2019 23:47:17 13.6 C 35 %
1728 20-10-2019 23:57:17 13.6 C 35 %
1729 21-10-2019 00:07:17 13.5 C 35 %
1730 21-10-2019 00:17:17 13.4 C 35 %
1731 21-10-2019 00:27:17 13.8 C 35 %
1732 21-10-2019 00:37:17 13.8 C 35 %
1733 21-10-2019 00:47:17 14 C 35 %
1734 21-10-2019 00:57:17 14 C 34 %
1735 21-10-2019 01:07:17 13.7 C 34 %
1736 21-10-2019 01:17:17 13.6 C 34 %
1737 21-10-2019 01:27:17 13.5 C 34 %
1738 21-10-2019 01:37:17 13.5 C 34 %
1739 21-10-2019 01:47:17 13.3 C 34 %
1740 21-10-2019 01:57:17 13.3 C 34 %
1741 21-10-2019 02:07:18 13.2 C 34 %
1742 21-10-2019 02:17:17 13 C 34 %
1743 21-10-2019 02:27:17 12.9 C 35 %
1744 21-10-2019 02:37:17 13.1 C 34 %
1745 21-10-2019 02:47:17 13.1 C 35 %
1746 21-10-2019 02:57:17 13 C 34 %
1747 21-10-2019 03:07:18 13.2 C 35 %
1748 21-10-2019 03:17:17 13.1 C 35 %
1749 21-10-2019 03:27:17 13 C 35 %
1750 21-10-2019 03:37:17 13 C 34 %
Sensor: Nr:Datum:Temp:Feuchte:
Aussen-T/F 1751 21-10-2019 03:47:17 13 C 34 %
1752 21-10-2019 03:57:17 12.8 C 35 %
1753 21-10-2019 04:07:17 12.8 C 35 %
1754 21-10-2019 04:17:17 12.6 C 35 %
1755 21-10-2019 04:27:17 12.2 C 34 %
1756 21-10-2019 04:37:17 12 C 34 %
1757 21-10-2019 04:47:17 12.2 C 35 %
1758 21-10-2019 04:57:17 12.3 C 35 %
1759 21-10-2019 05:07:18 12.4 C 35 %
1760 21-10-2019 05:17:18 12.8 C 35 %
1761 21-10-2019 05:27:18 13 C 35 %
1762 21-10-2019 05:37:17 13 C 35 %
1763 21-10-2019 05:47:17 13 C 35 %
1764 21-10-2019 05:57:17 12.8 C 35 %
1765 21-10-2019 06:07:17 12.9 C 35 %
1766 21-10-2019 06:17:17 12.9 C 35 %
1767 21-10-2019 06:27:17 13.1 C 35 %
1768 21-10-2019 06:37:17 13.2 C 35 %
1769 21-10-2019 06:47:17 13.1 C 35 %
1770 21-10-2019 06:57:17 13 C 35 %
1771 21-10-2019 07:07:17 12.7 C 35 %
1772 21-10-2019 07:17:17 12.5 C 35 %
1773 21-10-2019 07:27:17 12.4 C 34 %
1774 21-10-2019 07:37:18 12.3 C 35 %
1775 21-10-2019 07:47:17 12.2 C 35 %
Sensor: Nr:Datum:Temp:Feuchte:
Aussen-T/F 1776 21-10-2019 07:57:17 12.1 C 35 %
1777 21-10-2019 08:07:17 12 C 34 %
1778 21-10-2019 08:17:17 12 C 34 %
1779 21-10-2019 08:27:17 11.7 C 35 %
1780 21-10-2019 08:37:17 12 C 35 %
1781 21-10-2019 08:47:17 12.1 C 35 %
1782 21-10-2019 08:57:17 12.2 C 35 %
1783 21-10-2019 09:07:18 12.2 C 35 %
1784 21-10-2019 09:17:17 12.2 C 35 %
1785 21-10-2019 09:27:17 12.1 C 35 %
1786 21-10-2019 09:37:17 12.3 C 35 %
1787 21-10-2019 09:47:17 12.1 C 35 %
1788 21-10-2019 09:57:17 12.2 C 35 %
1789 21-10-2019 10:07:17 12.2 C 35 %
1790 21-10-2019 10:17:17 12.5 C 35 %
1791 21-10-2019 10:27:17 13.1 C 38 %
1792 21-10-2019 10:37:17 13.5 C 39 %
1793 21-10-2019 10:47:17 13.8 C 39 %
1794 21-10-2019 10:57:17 13.3 C 36 %
1795 21-10-2019 11:07:18 13.4 C 35 %
1796 21-10-2019 11:17:18 13.3 C 33 %
1797 21-10-2019 11:27:18 13.3 C 33 %
1798 21-10-2019 11:37:18 13.8 C 32 %
1799 21-10-2019 11:47:17 13.7 C 32 %
1800 21-10-2019 11:57:17 14.2 C 31 %
Sensor: Nr:Datum:Temp:Feuchte:
Aussen-T/F 1801 21-10-2019 12:07:17 14.1 C 30 %
1802 21-10-2019 12:17:17 14.6 C 30 %
1803 21-10-2019 12:27:17 14.9 C 27 %
1804 21-10-2019 12:37:17 15.4 C 24 %
1805 21-10-2019 12:47:17 15.9 C 20 %
1806 21-10-2019 12:57:17 16.1 C 20 %
1807 21-10-2019 13:07:18 16.5 C 20 %
1808 21-10-2019 13:17:18 17.2 C 20 %
1809 21-10-2019 13:27:18 17.5 C 20 %
1810 21-10-2019 13:37:18 18.2 C 20 %
1811 21-10-2019 13:47:17 18.1 C 20 %
1812 21-10-2019 13:57:17 17.5 C 20 %
1813 21-10-2019 14:07:17 17.1 C 20 %
1814 21-10-2019 14:17:17 16.8 C 20 %
1815 21-10-2019 14:27:17 17.1 C 20 %
1816 21-10-2019 14:37:17 17 C 20 %
1817 21-10-2019 14:47:17 16.6 C 20 %
1818 21-10-2019 14:57:17 16.6 C 20 %
1819 21-10-2019 15:07:18 16.6 C 20 %
1820 21-10-2019 15:17:17 16.2 C 20 %
1821 21-10-2019 15:27:17 16.5 C 20 %
1822 21-10-2019 15:37:17 16.6 C 20 %
1823 21-10-2019 15:47:17 17.1 C 20 %
1824 21-10-2019 15:57:17 17.1 C 20 %
1825 21-10-2019 16:07:17 16.4 C 20 %
Sensor: Nr:Datum:Temp:Feuchte:
Aussen-T/F 1826 21-10-2019 16:17:17 15.9 C 20 %
1827 21-10-2019 16:27:17 15.7 C 20 %
1828 21-10-2019 16:37:17 15.4 C 20 %
1829 21-10-2019 16:47:17 15.2 C 20 %
1830 21-10-2019 16:57:17 15.2 C 20 %
1831 21-10-2019 17:07:18 14.7 C 20 %
1832 21-10-2019 17:17:17 14.7 C 20 %
1833 21-10-2019 17:27:17 14.8 C 20 %
1834 21-10-2019 17:37:17 14.1 C 20 %
1835 21-10-2019 17:47:17 13.8 C 20 %
1836 21-10-2019 17:57:17 13.9 C 20 %
1837 21-10-2019 18:07:17 14 C 20 %
1838 21-10-2019 18:17:17 13.4 C 20 %
1839 21-10-2019 18:27:17 13.1 C 20 %
1840 21-10-2019 18:37:17 12.8 C 20 %
1841 21-10-2019 18:47:17 12.6 C 20 %
1842 21-10-2019 18:57:17 12.4 C 21 %
1843 21-10-2019 19:07:18 12.2 C 24 %
1844 21-10-2019 19:17:18 11.9 C 25 %
1845 21-10-2019 19:27:18 11.8 C 25 %
1846 21-10-2019 19:37:18 11.8 C 25 %
1847 21-10-2019 19:47:17 11.8 C 25 %
1848 21-10-2019 19:57:17 11.5 C 25 %
1849 21-10-2019 20:07:17 11.2 C 26 %
1850 21-10-2019 20:17:17 11.1 C 28 %
Sensor: Nr:Datum:Temp:Feuchte:
Aussen-T/F 1851 21-10-2019 20:27:17 11 C 29 %
1852 21-10-2019 20:37:17 10.9 C 29 %
1853 21-10-2019 20:47:17 10.9 C 30 %
1854 21-10-2019 20:57:17 11 C 28 %
1855 21-10-2019 21:07:18 11 C 28 %
1856 21-10-2019 21:17:17 10.9 C 29 %
1857 21-10-2019 21:27:17 11 C 28 %
1858 21-10-2019 21:37:17 11 C 27 %
1859 21-10-2019 21:47:17 10.7 C 30 %
1860 21-10-2019 21:57:17 10.8 C 30 %
1861 21-10-2019 22:07:17 10.9 C 31 %
1862 21-10-2019 22:17:17 10.9 C 30 %
1863 21-10-2019 22:27:17 11 C 28 %
1864 21-10-2019 22:37:17 11 C 28 %
1865 21-10-2019 22:47:17 11.1 C 26 %
1866 21-10-2019 22:57:17 11.1 C 28 %
1867 21-10-2019 23:07:18 11.1 C 27 %
1868 21-10-2019 23:17:18 11 C 27 %
1869 21-10-2019 23:27:18 10.6 C 28 %
1870 21-10-2019 23:37:18 10.2 C 30 %
1871 21-10-2019 23:47:17 10.4 C 29 %
1872 21-10-2019 23:57:18 10.2 C 30 %
1873 22-10-2019 00:07:17 10.2 C 30 %
1874 22-10-2019 00:17:17 10.2 C 31 %
1875 22-10-2019 00:27:17 10.4 C 31 %
Sensor: Nr:Datum:Temp:Feuchte:
Aussen-T/F 1876 22-10-2019 00:37:17 10.3 C 31 %
1877 22-10-2019 00:47:17 10.4 C 30 %
1878 22-10-2019 00:57:17 10.4 C 31 %
1879 22-10-2019 01:07:17 10.5 C 31 %
1880 22-10-2019 01:17:17 10.6 C 31 %
1881 22-10-2019 01:27:17 10.6 C 30 %
1882 22-10-2019 01:37:17 10.5 C 31 %
1883 22-10-2019 01:47:17 10.5 C 31 %
1884 22-10-2019 01:57:17 10.7 C 30 %
1885 22-10-2019 02:07:18 10.5 C 30 %
1886 22-10-2019 02:17:17 10.4 C 30 %
1887 22-10-2019 02:27:18 10.5 C 29 %
1888 22-10-2019 02:37:18 10.5 C 29 %
1889 22-10-2019 02:47:17 10.4 C 29 %
1890 22-10-2019 02:57:17 10.4 C 29 %
1891 22-10-2019 03:07:17 10.5 C 30 %
1892 22-10-2019 03:17:17 10.4 C 31 %
1893 22-10-2019 03:27:17 10.4 C 30 %
1894 22-10-2019 03:37:17 10.5 C 29 %
1895 22-10-2019 03:47:17 10.4 C 30 %
1896 22-10-2019 03:57:17 10.3 C 31 %
1897 22-10-2019 04:07:18 10.3 C 31 %
1898 22-10-2019 04:17:17 10.2 C 31 %
1899 22-10-2019 04:27:17 9.8 C 31 %
1900 22-10-2019 04:37:18 9.7 C 32 %
Sensor: Nr:Datum:Temp:Feuchte:
Aussen-T/F 1901 22-10-2019 04:47:17 9.7 C 32 %
1902 22-10-2019 04:57:18 9.6 C 32 %
1903 22-10-2019 05:07:17 9.3 C 32 %
1904 22-10-2019 05:17:17 9.1 C 33 %
1905 22-10-2019 05:27:17 9 C 35 %
1906 22-10-2019 05:37:17 9.2 C 36 %
1907 22-10-2019 05:47:17 9.5 C 36 %
1908 22-10-2019 05:57:17 9.6 C 35 %
1909 22-10-2019 06:07:18 9.6 C 35 %
1910 22-10-2019 06:17:17 9.5 C 34 %
1911 22-10-2019 06:27:17 9.5 C 35 %
1912 22-10-2019 06:37:17 9.6 C 33 %
1913 22-10-2019 06:47:17 9.6 C 32 %
1914 22-10-2019 06:57:17 9.6 C 33 %
1915 22-10-2019 07:07:17 9.6 C 34 %
1916 22-10-2019 07:17:17 9.6 C 34 %
1917 22-10-2019 07:27:17 9.2 C 33 %
1918 22-10-2019 07:37:17 9 C 34 %
1919 22-10-2019 07:47:17 9 C 35 %
1920 22-10-2019 07:57:17 9.3 C 34 %
1921 22-10-2019 08:07:17 9.4 C 32 %
1922 22-10-2019 08:17:17 9.5 C 32 %
1923 22-10-2019 08:27:17 9.6 C 33 %
1924 22-10-2019 08:37:17 9.6 C 35 %
1925 22-10-2019 08:47:17 9.7 C 35 %
Sensor: Nr:Datum:Temp:Feuchte:
Aussen-T/F 1926 22-10-2019 08:57:17 9.8 C 34 %
1927 22-10-2019 09:07:18 9.9 C 34 %
1928 22-10-2019 09:17:17 10.1 C 30 %
1929 22-10-2019 09:27:17 10.5 C 25 %
1930 22-10-2019 09:37:17 10.6 C 22 %
1931 22-10-2019 09:47:17 10.8 C 22 %
1932 22-10-2019 09:57:17 11 C 21 %
1933 22-10-2019 10:07:17 11.1 C 20 %
1934 22-10-2019 10:17:17 11.7 C 20 %
1935 22-10-2019 10:27:17 11.9 C 20 %
1936 22-10-2019 10:37:18 12 C 20 %
1937 22-10-2019 10:47:17 12.5 C 20 %
1938 22-10-2019 10:57:17 12.4 C 20 %
1939 22-10-2019 11:07:17 13.1 C 20 %
1940 22-10-2019 11:17:17 12.9 C 20 %
1941 22-10-2019 11:27:17 13.3 C 20 %
1942 22-10-2019 11:37:17 13.5 C 20 %
1943 22-10-2019 11:47:17 13.4 C 20 %
1944 22-10-2019 11:57:17 13.8 C 20 %
1945 22-10-2019 12:07:17 13.4 C 20 %
1946 22-10-2019 12:17:17 13.6 C 20 %
1947 22-10-2019 12:27:17 13.8 C 20 %
1948 22-10-2019 12:37:17 14 C 20 %
1949 22-10-2019 12:47:17 14.5 C 20 %
1950 22-10-2019 12:57:17 14.6 C 20 %
Sensor: Nr:Datum:Temp:Feuchte:
Aussen-T/F 1951 22-10-2019 13:07:17 14.5 C 20 %
1952 22-10-2019 13:17:17 14.3 C 20 %
1953 22-10-2019 13:27:18 15.1 C 20 %
1954 22-10-2019 13:37:18 18.5 C 20 %
1955 22-10-2019 13:47:18 18.3 C 20 %
1956 22-10-2019 13:57:18 20.2 C 20 %
1957 22-10-2019 14:07:18 19 C 20 %
1958 22-10-2019 14:17:18 18.3 C 20 %
1959 22-10-2019 14:27:18 15.6 C 20 %
1960 22-10-2019 14:37:17 15.1 C 20 %
1961 22-10-2019 14:47:17 14.8 C 20 %
1962 22-10-2019 14:57:17 14.5 C 20 %
1963 22-10-2019 15:07:17 14.2 C 20 %
1964 22-10-2019 15:17:17 14.3 C 20 %
1965 22-10-2019 15:27:17 14.7 C 20 %
1966 22-10-2019 15:37:17 14 C 20 %
1967 22-10-2019 15:47:17 14.1 C 20 %
1968 22-10-2019 15:57:17 13.7 C 20 %
1969 22-10-2019 16:07:18 14.7 C 20 %
1970 22-10-2019 16:17:17 14.1 C 20 %
1971 22-10-2019 16:27:17 13.7 C 20 %
1972 22-10-2019 16:37:18 15 C 20 %
1973 22-10-2019 16:47:17 13.9 C 20 %
1974 22-10-2019 16:57:17 13.7 C 20 %
1975 22-10-2019 17:07:17 16.4 C 20 %
Sensor: Nr:Datum:Temp:Feuchte:
Aussen-T/F 1976 22-10-2019 17:17:17 16.8 C 20 %
1977 22-10-2019 17:27:17 16.1 C 20 %
1978 22-10-2019 17:37:18 14.4 C 20 %
1979 22-10-2019 17:47:17 13.3 C 20 %
1980 22-10-2019 17:57:17 12.5 C 20 %
1981 22-10-2019 18:07:17 12.1 C 20 %
1982 22-10-2019 18:17:17 11.8 C 20 %
1983 22-10-2019 18:27:17 11.4 C 20 %
1984 22-10-2019 18:37:17 11.4 C 23 %
1985 22-10-2019 18:47:17 11.1 C 25 %
1986 22-10-2019 18:57:17 11.2 C 26 %
1987 22-10-2019 19:07:18 11 C 26 %
1988 22-10-2019 19:17:17 10.8 C 28 %
1989 22-10-2019 19:27:17 10.6 C 30 %
1990 22-10-2019 19:37:18 10.3 C 32 %
1991 22-10-2019 19:47:17 10.3 C 33 %
1992 22-10-2019 19:57:17 10.4 C 33 %
1993 22-10-2019 20:07:17 10 C 32 %
1994 22-10-2019 20:17:17 10 C 32 %
1995 22-10-2019 20:27:17 9.5 C 35 %
1996 22-10-2019 20:37:18 9.6 C 35 %
1997 22-10-2019 20:47:17 9.5 C 35 %
1998 22-10-2019 20:57:17 9.5 C 36 %
1999 22-10-2019 21:07:18 9.4 C 36 %
2000 22-10-2019 21:17:17 9 C 35 %
Sensor: Nr:Datum:Temp:Feuchte:
Aussen-T/F 2001 22-10-2019 21:27:17 9.1 C 36 %
2002 22-10-2019 21:37:18 9.1 C 36 %
2003 22-10-2019 21:47:17 9.1 C 36 %
2004 22-10-2019 21:57:17 9.4 C 37 %
2005 22-10-2019 22:07:17 9.6 C 38 %
2006 22-10-2019 22:17:17 9.6 C 38 %
2007 22-10-2019 22:27:17 9.5 C 36 %
2008 22-10-2019 22:37:17 9.4 C 36 %
2009 22-10-2019 22:47:17 9.6 C 37 %
2010 22-10-2019 22:57:17 9.4 C 36 %
2011 22-10-2019 23:07:17 9.4 C 36 %
2012 22-10-2019 23:17:18 9.4 C 36 %
2013 22-10-2019 23:27:18 9.1 C 35 %
2014 22-10-2019 23:37:17 8.7 C 36 %
2015 22-10-2019 23:47:17 8.7 C 36 %
2016 22-10-2019 23:57:18 8.4 C 36 %
2017 23-10-2019 00:07:17 8.2 C 36 %
2018 23-10-2019 00:17:18 8.1 C 36 %
2019 23-10-2019 00:27:18 8 C 36 %
2020 23-10-2019 00:37:17 7.9 C 37 %
2021 23-10-2019 00:47:17 7.8 C 37 %
2022 23-10-2019 00:57:17 7.8 C 37 %
2023 23-10-2019 01:07:17 7.9 C 37 %
2024 23-10-2019 01:17:17 7.8 C 38 %
2025 23-10-2019 01:27:17 7.6 C 37 %
Sensor: Nr:Datum:Temp:Feuchte:
Aussen-T/F 2026 23-10-2019 01:37:17 7.6 C 37 %
2027 23-10-2019 01:47:17 7.6 C 37 %
2028 23-10-2019 01:57:18 7.5 C 37 %
2029 23-10-2019 02:07:17 7.4 C 37 %
2030 23-10-2019 02:17:18 7.3 C 37 %
2031 23-10-2019 02:27:18 7.4 C 38 %
2032 23-10-2019 02:37:17 7.3 C 37 %
2033 23-10-2019 02:47:17 7.1 C 37 %
2034 23-10-2019 02:57:17 7.4 C 38 %
2035 23-10-2019 03:07:17 7.3 C 37 %
2036 23-10-2019 03:17:17 7.1 C 37 %
2037 23-10-2019 03:27:17 7.1 C 37 %
2038 23-10-2019 03:37:17 7.1 C 37 %
2039 23-10-2019 03:47:17 7.3 C 37 %
2040 23-10-2019 03:57:17 7.4 C 38 %
2041 23-10-2019 04:07:17 7.3 C 37 %
2042 23-10-2019 04:17:17 6.9 C 37 %
2043 23-10-2019 04:27:17 6.9 C 38 %
2044 23-10-2019 04:37:17 6.8 C 38 %
2045 23-10-2019 04:47:17 6.7 C 37 %
2046 23-10-2019 04:57:17 7.2 C 38 %
2047 23-10-2019 05:07:17 7.8 C 38 %
2048 23-10-2019 05:17:17 8 C 37 %
2049 23-10-2019 05:27:17 7.9 C 37 %
2050 23-10-2019 05:37:18 7.9 C 37 %
Sensor: Nr:Datum:Temp:Feuchte:
Aussen-T/F 2051 23-10-2019 05:47:17 7.4 C 37 %
2052 23-10-2019 05:57:17 7.8 C 37 %
2053 23-10-2019 06:07:18 7.7 C 37 %
2054 23-10-2019 06:17:17 7.4 C 37 %
2055 23-10-2019 06:27:18 7.3 C 37 %
2056 23-10-2019 06:37:17 7.3 C 37 %
2057 23-10-2019 06:47:17 7.8 C 37 %
2058 23-10-2019 06:57:18 7.7 C 37 %
2059 23-10-2019 07:07:17 7.5 C 37 %
2060 23-10-2019 07:17:17 7.3 C 37 %
2061 23-10-2019 07:27:18 7.3 C 37 %
2062 23-10-2019 07:37:17 7 C 36 %
2063 23-10-2019 07:47:17 7 C 37 %
2064 23-10-2019 07:57:17 6.7 C 37 %
2065 23-10-2019 08:07:17 6.8 C 37 %
2066 23-10-2019 08:17:17 7 C 37 %
2067 23-10-2019 08:27:17 7.5 C 37 %
2068 23-10-2019 08:37:17 7.6 C 37 %
2069 23-10-2019 08:47:17 7.7 C 37 %
2070 23-10-2019 08:57:17 7.7 C 37 %
2071 23-10-2019 09:07:18 7.7 C 37 %
2072 23-10-2019 09:17:17 8.3 C 37 %
2073 23-10-2019 09:27:17 8.3 C 37 %
2074 23-10-2019 09:37:17 8.6 C 37 %
2075 23-10-2019 09:47:17 8.5 C 37 %
Sensor: Nr:Datum:Temp:Feuchte:
Aussen-T/F 2076 23-10-2019 09:57:17 8.8 C 37 %
2077 23-10-2019 10:07:17 8.9 C 37 %
2078 23-10-2019 10:17:17 9.1 C 36 %
2079 23-10-2019 10:27:17 9.2 C 36 %
2080 23-10-2019 10:37:17 9.5 C 36 %
2081 23-10-2019 10:47:17 10.1 C 36 %
2082 23-10-2019 10:57:17 10.1 C 36 %
2083 23-10-2019 11:07:17 10.5 C 34 %
2084 23-10-2019 11:17:17 10.8 C 34 %
2085 23-10-2019 11:27:17 11.2 C 32 %
2086 23-10-2019 11:37:17 11.4 C 28 %
2087 23-10-2019 11:47:17 11.6 C 27 %
2088 23-10-2019 11:57:17 11.9 C 26 %
2089 23-10-2019 12:07:17 12 C 25 %
2090 23-10-2019 12:17:17 12.2 C 25 %
2091 23-10-2019 12:27:17 12.2 C 25 %
2092 23-10-2019 12:37:17 12.3 C 25 %
2093 23-10-2019 12:47:18 12.6 C 24 %
2094 23-10-2019 12:57:18 12.7 C 23 %
2095 23-10-2019 13:07:17 13 C 21 %
2096 23-10-2019 13:17:17 13.1 C 20 %
2097 23-10-2019 13:27:17 13.3 C 21 %
2098 23-10-2019 13:37:17 13.6 C 20 %
2099 23-10-2019 13:47:17 13.9 C 20 %
2100 23-10-2019 13:57:18 13.9 C 20 %
Sensor: Nr:Datum:Temp:Feuchte:
Aussen-T/F 2101 23-10-2019 14:07:17 14.2 C 20 %
2102 23-10-2019 14:17:17 14.3 C 20 %
2103 23-10-2019 14:27:17 14.2 C 20 %
2104 23-10-2019 14:37:17 14.5 C 20 %
2105 23-10-2019 14:47:18 14.2 C 20 %
2106 23-10-2019 14:57:18 14.4 C 20 %
2107 23-10-2019 15:07:17 14.5 C 20 %
2108 23-10-2019 15:17:17 14.4 C 20 %
2109 23-10-2019 15:27:17 14.6 C 20 %
2110 23-10-2019 15:37:17 14.7 C 20 %
2111 23-10-2019 15:47:17 14.7 C 20 %
2112 23-10-2019 15:57:17 14.7 C 20 %
2113 23-10-2019 16:07:17 14.9 C 20 %
2114 23-10-2019 16:17:17 14.9 C 20 %
2115 23-10-2019 16:27:17 15.1 C 20 %
2116 23-10-2019 16:37:17 15.1 C 20 %
2117 23-10-2019 16:47:17 15 C 20 %
2118 23-10-2019 16:57:17 15 C 20 %
2119 23-10-2019 17:07:18 14.7 C 22 %
2120 23-10-2019 17:17:17 14.4 C 23 %
2121 23-10-2019 17:27:17 14.4 C 23 %
2122 23-10-2019 17:37:17 14.4 C 23 %
2123 23-10-2019 17:47:17 14.1 C 24 %
2124 23-10-2019 17:57:17 13.9 C 25 %
2125 23-10-2019 18:07:17 13.7 C 26 %
Sensor: Nr:Datum:Temp:Feuchte:
Aussen-T/F 2126 23-10-2019 18:17:17 13.5 C 27 %
2127 23-10-2019 18:27:17 13.3 C 27 %
2128 23-10-2019 18:37:18 13.3 C 28 %
2129 23-10-2019 18:47:17 13.3 C 28 %
2130 23-10-2019 18:57:17 12.8 C 30 %
2131 23-10-2019 19:07:17 12.8 C 30 %
2132 23-10-2019 19:17:17 12.8 C 30 %
2133 23-10-2019 19:27:17 12.8 C 30 %
2134 23-10-2019 19:37:17 12.8 C 30 %
2135 23-10-2019 19:47:17 12.8 C 30 %
2136 23-10-2019 19:57:17 12.8 C 30 %
2137 23-10-2019 20:07:17 12.8 C 30 %
2138 23-10-2019 20:17:17 12.8 C 30 %
2139 23-10-2019 20:27:17 12.8 C 30 %
2140 23-10-2019 20:37:17 12.8 C 30 %
2141 23-10-2019 20:47:17 12.8 C 30 %
2142 23-10-2019 20:57:17 12.8 C 30 %
2143 23-10-2019 21:07:17 12.7 C 30 %
2144 23-10-2019 21:17:17 12.8 C 30 %
2145 23-10-2019 21:27:17 12.8 C 30 %
2146 23-10-2019 21:37:17 12.8 C 30 %
2147 23-10-2019 21:47:17 12.7 C 30 %
2148 23-10-2019 21:57:18 12.7 C 30 %
2149 23-10-2019 22:07:17 12.5 C 30 %
2150 23-10-2019 22:17:17 12.4 C 32 %
Sensor: Nr:Datum:Temp:Feuchte:
Aussen-T/F 2151 23-10-2019 22:27:17 12.5 C 32 %
2152 23-10-2019 22:37:17 12.5 C 31 %
2153 23-10-2019 22:47:18 12.4 C 32 %
2154 23-10-2019 22:57:18 12.4 C 32 %
2155 23-10-2019 23:07:17 12.4 C 33 %
2156 23-10-2019 23:17:17 12.4 C 32 %
2157 23-10-2019 23:27:17 12.3 C 32 %
2158 23-10-2019 23:37:17 12.2 C 32 %
2159 23-10-2019 23:47:17 12 C 33 %
2160 23-10-2019 23:57:17 12 C 33 %
2161 24-10-2019 00:07:18 11.9 C 34 %
2162 24-10-2019 00:17:17 11.8 C 35 %
2163 24-10-2019 00:27:17 11.7 C 35 %
2164 24-10-2019 00:37:17 11.7 C 35 %
2165 24-10-2019 00:47:17 11.5 C 36 %
2166 24-10-2019 00:57:17 11.4 C 36 %
2167 24-10-2019 01:07:18 11.4 C 36 %
2168 24-10-2019 01:17:17 11.4 C 36 %
2169 24-10-2019 01:27:17 11.4 C 36 %
2170 24-10-2019 01:37:17 11.7 C 37 %
2171 24-10-2019 01:47:17 11.9 C 37 %
2172 24-10-2019 01:57:17 11.9 C 37 %
2173 24-10-2019 02:07:17 12 C 35 %
2174 24-10-2019 02:17:17 12 C 35 %
2175 24-10-2019 02:27:17 11.4 C 35 %
Sensor: Nr:Datum:Temp:Feuchte:
Aussen-T/F 2176 24-10-2019 02:37:17 11.4 C 36 %
2177 24-10-2019 02:47:17 11.4 C 36 %
2178 24-10-2019 02:57:17 11.4 C 36 %
2179 24-10-2019 03:07:17 11.3 C 36 %
2180 24-10-2019 03:17:17 11.1 C 36 %
2181 24-10-2019 03:27:17 11 C 36 %
2182 24-10-2019 03:37:17 11 C 36 %
2183 24-10-2019 03:47:18 10.8 C 37 %
2184 24-10-2019 03:57:18 10.8 C 37 %
2185 24-10-2019 04:07:17 10.6 C 37 %
2186 24-10-2019 04:17:17 10.4 C 37 %
2187 24-10-2019 04:27:17 10.8 C 37 %
2188 24-10-2019 04:37:17 10.9 C 37 %
2189 24-10-2019 04:47:18 11 C 37 %
2190 24-10-2019 04:57:18 11 C 37 %
2191 24-10-2019 05:07:17 11.2 C 36 %
2192 24-10-2019 05:17:17 11.3 C 36 %
2193 24-10-2019 05:27:17 11.3 C 36 %
2194 24-10-2019 05:37:18 11.4 C 36 %
2195 24-10-2019 05:47:17 11.4 C 36 %
2196 24-10-2019 05:57:17 11.3 C 36 %
2197 24-10-2019 06:07:18 11.3 C 36 %
2198 24-10-2019 06:17:17 11 C 36 %
2199 24-10-2019 06:27:17 11.2 C 36 %
2200 24-10-2019 06:37:17 11.5 C 36 %
Sensor: Nr:Datum:Temp:Feuchte:
Aussen-T/F 2201 24-10-2019 06:47:17 11.8 C 36 %
2202 24-10-2019 06:57:17 11.8 C 36 %
2203 24-10-2019 07:07:17 11.7 C 36 %
2204 24-10-2019 07:17:17 11.7 C 35 %
2205 24-10-2019 07:27:17 11.9 C 35 %
2206 24-10-2019 07:37:17 12 C 34 %
2207 24-10-2019 07:47:18 11.8 C 35 %
2208 24-10-2019 07:57:18 11.8 C 35 %
2209 24-10-2019 08:07:17 12 C 34 %
2210 24-10-2019 08:17:17 12.1 C 33 %
2211 24-10-2019 08:27:17 12.2 C 33 %
2212 24-10-2019 08:37:17 12.2 C 32 %
2213 24-10-2019 08:47:18 12.2 C 32 %
2214 24-10-2019 08:57:18 12.4 C 33 %
2215 24-10-2019 09:07:17 12.5 C 32 %
2216 24-10-2019 09:17:17 12.7 C 31 %
2217 24-10-2019 09:27:17 12.7 C 30 %
2218 24-10-2019 09:37:17 12.7 C 30 %
2219 24-10-2019 09:47:17 12.9 C 31 %
2220 24-10-2019 09:57:18 13.2 C 28 %
2221 24-10-2019 10:07:17 13.4 C 26 %
2222 24-10-2019 10:17:17 13.5 C 27 %
2223 24-10-2019 10:27:17 13.9 C 27 %
2224 24-10-2019 10:37:17 14.1 C 25 %
2225 24-10-2019 10:47:17 14.3 C 23 %
Sensor: Nr:Datum:Temp:Feuchte:
Aussen-T/F 2226 24-10-2019 10:57:17 14.8 C 24 %
2227 24-10-2019 11:07:18 15 C 20 %
2228 24-10-2019 11:17:17 15.2 C 20 %
2229 24-10-2019 11:27:18 15.2 C 20 %
2230 24-10-2019 11:37:17 15.4 C 20 %
2231 24-10-2019 11:47:17 15 C 20 %
2232 24-10-2019 11:57:17 15.1 C 20 %
2233 24-10-2019 12:07:17 14.6 C 23 %
2234 24-10-2019 12:17:17 14.4 C 25 %
2235 24-10-2019 12:27:17 14.8 C 24 %
2236 24-10-2019 12:37:17 14.8 C 24 %
2237 24-10-2019 12:47:18 15.8 C 21 %
2238 24-10-2019 12:57:18 16.2 C 20 %
2239 24-10-2019 13:07:17 16.4 C 20 %
2240 24-10-2019 13:17:17 16.1 C 21 %
2241 24-10-2019 13:27:17 16.1 C 20 %
2242 24-10-2019 13:37:17 18.5 C 20 %
2243 24-10-2019 13:47:17 19.8 C 20 %
2244 24-10-2019 13:57:17 19.3 C 20 %
2245 24-10-2019 14:07:18 17.2 C 20 %
2246 24-10-2019 14:17:17 17.3 C 20 %
2247 24-10-2019 14:27:18 17.9 C 20 %
2248 24-10-2019 14:37:17 18.3 C 20 %
2249 24-10-2019 14:47:17 18.3 C 20 %
2250 24-10-2019 14:57:17 18.7 C 20 %
Sensor: Nr:Datum:Temp:Feuchte:
Aussen-T/F 2251 24-10-2019 15:07:17 18.9 C 20 %
2252 24-10-2019 15:17:17 19.6 C 20 %
2253 24-10-2019 15:27:17 19.6 C 20 %
2254 24-10-2019 15:37:17 18.9 C 20 %
2255 24-10-2019 15:47:18 18.5 C 20 %
2256 24-10-2019 15:57:18 18.3 C 20 %
2257 24-10-2019 16:07:17 18.2 C 20 %
2258 24-10-2019 16:17:17 18.6 C 20 %
2259 24-10-2019 16:27:17 19.1 C 20 %
2260 24-10-2019 16:37:17 20.1 C 20 %
2261 24-10-2019 16:47:17 20.9 C 20 %
2262 24-10-2019 16:57:17 19.5 C 20 %
2263 24-10-2019 17:07:17 19.5 C 20 %
2264 24-10-2019 17:17:17 19.8 C 20 %
2265 24-10-2019 17:27:17 19.1 C 20 %
2266 24-10-2019 17:37:17 17 C 20 %
2267 24-10-2019 17:47:17 16.6 C 20 %
2268 24-10-2019 17:57:17 16.6 C 20 %
2269 24-10-2019 18:07:17 15.7 C 20 %
2270 24-10-2019 18:17:17 15 C 20 %
2271 24-10-2019 18:27:17 14.9 C 20 %
2272 24-10-2019 18:37:17 14.8 C 20 %
2273 24-10-2019 18:47:18 14.9 C 20 %
2274 24-10-2019 18:57:18 14.6 C 20 %
2275 24-10-2019 19:07:18 14.3 C 21 %
Sensor: Nr:Datum:Temp:Feuchte:
Aussen-T/F 2276 24-10-2019 19:17:17 14.1 C 21 %
2277 24-10-2019 19:27:17 14 C 22 %
2278 24-10-2019 19:37:17 14 C 22 %
2279 24-10-2019 19:47:17 13.6 C 23 %
2280 24-10-2019 19:57:17 13.4 C 24 %
2281 24-10-2019 20:07:18 13.4 C 25 %
2282 24-10-2019 20:17:17 13.4 C 25 %
2283 24-10-2019 20:27:17 13.2 C 25 %
2284 24-10-2019 20:37:17 13.2 C 25 %
2285 24-10-2019 20:47:17 13.1 C 25 %
2286 24-10-2019 20:57:17 13.1 C 24 %
2287 24-10-2019 21:07:17 13.2 C 24 %
2288 24-10-2019 21:17:17 13 C 25 %
2289 24-10-2019 21:27:17 12.9 C 26 %
2290 24-10-2019 21:37:17 12.7 C 26 %
2291 24-10-2019 21:47:17 12.6 C 27 %
2292 24-10-2019 21:57:17 12.5 C 27 %
2293 24-10-2019 22:07:18 12.4 C 28 %
2294 24-10-2019 22:17:17 12.4 C 29 %
2295 24-10-2019 22:27:17 12.3 C 29 %
2296 24-10-2019 22:37:17 12.2 C 30 %
2297 24-10-2019 22:47:17 12.5 C 31 %
2298 24-10-2019 22:57:17 12.7 C 30 %
2299 24-10-2019 23:07:18 12.8 C 30 %
2300 24-10-2019 23:17:17 13 C 27 %
Sensor: Nr:Datum:Temp:Feuchte:
Aussen-T/F 2301 24-10-2019 23:27:18 13 C 27 %
2302 24-10-2019 23:37:17 12.7 C 28 %
2303 24-10-2019 23:47:17 12.1 C 30 %
2304 24-10-2019 23:57:17 11.6 C 31 %
2305 25-10-2019 00:07:17 11.6 C 32 %
2306 25-10-2019 00:17:17 11.5 C 35 %
2307 25-10-2019 00:27:17 11.3 C 35 %
2308 25-10-2019 00:37:17 11.3 C 35 %
2309 25-10-2019 00:47:18 11.3 C 35 %
2310 25-10-2019 00:57:18 11.5 C 36 %
2311 25-10-2019 01:07:17 11.3 C 35 %
2312 25-10-2019 01:17:17 11.1 C 35 %
2313 25-10-2019 01:27:17 11.2 C 36 %
2314 25-10-2019 01:37:17 11.1 C 35 %
2315 25-10-2019 01:47:17 11 C 34 %
2316 25-10-2019 01:57:17 10.8 C 35 %
2317 25-10-2019 02:07:17 10.8 C 35 %
2318 25-10-2019 02:17:17 10.8 C 36 %
2319 25-10-2019 02:27:17 10.9 C 35 %
2320 25-10-2019 02:37:18 10.6 C 35 %
2321 25-10-2019 02:47:17 11.8 C 35 %
2322 25-10-2019 02:57:17 11.4 C 30 %
2323 25-10-2019 03:07:17 11.3 C 30 %
2324 25-10-2019 03:17:17 11.9 C 27 %
2325 25-10-2019 03:27:17 12.4 C 25 %
Sensor: Nr:Datum:Temp:Feuchte:
Aussen-T/F 2326 25-10-2019 03:37:17 12 C 26 %
2327 25-10-2019 03:47:17 12.5 C 26 %
2328 25-10-2019 03:57:18 12.7 C 26 %
2329 25-10-2019 04:07:17 12.1 C 26 %
2330 25-10-2019 04:17:17 12.4 C 26 %
2331 25-10-2019 04:27:17 12.9 C 24 %
2332 25-10-2019 04:37:17 13.3 C 20 %
2333 25-10-2019 04:47:17 13.5 C 20 %
2334 25-10-2019 04:57:17 12.3 C 25 %
2335 25-10-2019 05:07:17 11.7 C 26 %
2336 25-10-2019 05:17:17 11.7 C 26 %
2337 25-10-2019 05:27:17 12.3 C 24 %
2338 25-10-2019 05:37:18 12.8 C 22 %
2339 25-10-2019 05:47:17 12.6 C 23 %
2340 25-10-2019 05:57:17 12.1 C 25 %
2341 25-10-2019 06:07:17 11.8 C 27 %
2342 25-10-2019 06:17:17 11.8 C 27 %
2343 25-10-2019 06:27:17 12.8 C 24 %
2344 25-10-2019 06:37:18 13.5 C 20 %
2345 25-10-2019 06:47:17 13.4 C 21 %
2346 25-10-2019 06:57:17 13.2 C 21 %
2347 25-10-2019 07:07:17 13.9 C 20 %
2348 25-10-2019 07:17:17 12.7 C 23 %
2349 25-10-2019 07:27:17 12.4 C 25 %
2350 25-10-2019 07:37:17 12.7 C 25 %
Sensor: Nr:Datum:Temp:Feuchte:
Aussen-T/F 2351 25-10-2019 07:47:18 12.7 C 25 %
2352 25-10-2019 07:57:18 12.8 C 23 %
2353 25-10-2019 08:07:17 12.5 C 25 %
2354 25-10-2019 08:17:17 12.2 C 25 %
2355 25-10-2019 08:27:17 11.9 C 28 %
2356 25-10-2019 08:37:17 11.9 C 28 %
2357 25-10-2019 08:47:18 11.8 C 29 %
2358 25-10-2019 08:57:18 12 C 28 %
2359 25-10-2019 09:07:17 12.1 C 28 %
2360 25-10-2019 09:17:17 12.6 C 27 %
2361 25-10-2019 09:27:17 13 C 24 %
2362 25-10-2019 09:37:17 13.1 C 21 %
2363 25-10-2019 09:47:17 13.5 C 20 %
2364 25-10-2019 09:57:17 13.4 C 21 %
2365 25-10-2019 10:07:18 13 C 23 %
2366 25-10-2019 10:17:17 13 C 23 %
2367 25-10-2019 10:27:17 13.9 C 20 %
2368 25-10-2019 10:37:17 14.2 C 20 %
2369 25-10-2019 10:47:17 14.4 C 20 %
2370 25-10-2019 10:57:17 14.8 C 20 %
2371 25-10-2019 11:07:17 14.8 C 20 %
2372 25-10-2019 11:17:17 14.9 C 20 %
2373 25-10-2019 11:27:17 15.1 C 20 %
2374 25-10-2019 11:37:18 15 C 20 %
2375 25-10-2019 11:47:17 15.1 C 20 %
Sensor: Nr:Datum:Temp:Feuchte:
Aussen-T/F 2376 25-10-2019 11:57:17 15.1 C 20 %
2377 25-10-2019 12:07:17 15.2 C 20 %
2378 25-10-2019 12:17:17 15.2 C 20 %
2379 25-10-2019 12:27:17 15.3 C 20 %
2380 25-10-2019 12:37:17 15.4 C 20 %
2381 25-10-2019 12:47:17 15.8 C 20 %
2382 25-10-2019 12:57:18 16 C 20 %
2383 25-10-2019 13:07:17 16.6 C 20 %
2384 25-10-2019 13:17:17 16.6 C 20 %
2385 25-10-2019 13:27:17 17.3 C 20 %
2386 25-10-2019 13:37:17 16.7 C 20 %
2387 25-10-2019 13:47:18 17.2 C 20 %
2388 25-10-2019 13:57:18 17.1 C 20 %
2389 25-10-2019 14:07:17 17.9 C 20 %
2390 25-10-2019 14:17:17 17.5 C 20 %
2391 25-10-2019 14:27:17 16.8 C 20 %
2392 25-10-2019 14:37:17 16.9 C 20 %
2393 25-10-2019 14:47:17 16.6 C 20 %
2394 25-10-2019 14:57:18 16.7 C 20 %
2395 25-10-2019 15:07:17 16.8 C 20 %
2396 25-10-2019 15:17:17 16.7 C 20 %
2397 25-10-2019 15:27:17 16.7 C 20 %
2398 25-10-2019 15:37:17 16.8 C 20 %
2399 25-10-2019 15:47:17 16.5 C 20 %
2400 25-10-2019 15:57:17 16.8 C 20 %
Sensor: Nr:Datum:Temp:Feuchte:
Aussen-T/F 2401 25-10-2019 16:07:18 16.9 C 20 %
2402 25-10-2019 16:17:17 16.6 C 20 %
2403 25-10-2019 16:27:17 17 C 20 %
2404 25-10-2019 16:37:17 16.7 C 20 %
2405 25-10-2019 16:47:18 16.6 C 20 %
2406 25-10-2019 16:57:18 17.2 C 20 %
2407 25-10-2019 17:07:17 17.1 C 20 %
2408 25-10-2019 17:17:17 16 C 20 %
2409 25-10-2019 17:27:17 15.7 C 20 %
2410 25-10-2019 17:37:17 14.2 C 20 %
2411 25-10-2019 17:47:17 13.6 C 20 %
2412 25-10-2019 17:57:17 13.4 C 20 %
2413 25-10-2019 18:07:17 12.8 C 20 %
2414 25-10-2019 18:17:17 12.3 C 20 %
2415 25-10-2019 18:27:17 12.3 C 20 %
2416 25-10-2019 18:37:17 12.2 C 20 %
2417 25-10-2019 18:47:18 11.8 C 22 %
2418 25-10-2019 18:57:18 11.7 C 24 %
2419 25-10-2019 19:07:17 11.7 C 25 %
2420 25-10-2019 19:17:17 11.2 C 26 %
2421 25-10-2019 19:27:17 11.1 C 27 %
2422 25-10-2019 19:37:17 11.1 C 27 %
2423 25-10-2019 19:47:18 11 C 28 %
2424 25-10-2019 19:57:18 10.9 C 28 %
2425 25-10-2019 20:07:17 11 C 28 %
Sensor: Nr:Datum:Temp:Feuchte:
Aussen-T/F 2426 25-10-2019 20:17:17 10.7 C 28 %
2427 25-10-2019 20:27:17 10.6 C 28 %
2428 25-10-2019 20:37:17 10.5 C 29 %
2429 25-10-2019 20:47:18 10.5 C 30 %
2430 25-10-2019 20:57:18 10.6 C 30 %
2431 25-10-2019 21:07:17 10.7 C 29 %
2432 25-10-2019 21:17:17 10.3 C 30 %
2433 25-10-2019 21:27:17 10.1 C 30 %
2434 25-10-2019 21:37:17 10.3 C 32 %
2435 25-10-2019 21:47:18 10 C 31 %
2436 25-10-2019 21:57:18 10 C 33 %
2437 25-10-2019 22:07:17 10.8 C 34 %
2438 25-10-2019 22:17:17 11 C 30 %
2439 25-10-2019 22:27:17 11 C 30 %
2440 25-10-2019 22:37:17 11 C 29 %
2441 25-10-2019 22:47:17 11.2 C 29 %
2442 25-10-2019 22:57:17 11.5 C 28 %
2443 25-10-2019 23:07:17 11.6 C 28 %
2444 25-10-2019 23:17:17 12.2 C 25 %
2445 25-10-2019 23:27:17 12.5 C 25 %
2446 25-10-2019 23:37:17 12.5 C 24 %
2447 25-10-2019 23:47:17 12.8 C 22 %
2448 25-10-2019 23:57:17 13 C 21 %
2449 26-10-2019 00:07:17 13.2 C 20 %
2450 26-10-2019 00:17:17 13.5 C 20 %
Sensor: Nr:Datum:Temp:Feuchte:
Aussen-T/F 2451 26-10-2019 00:27:17 13.4 C 20 %
2452 26-10-2019 00:37:18 13.2 C 20 %
2453 26-10-2019 00:47:17 13.6 C 20 %
2454 26-10-2019 00:57:17 13.3 C 20 %
2455 26-10-2019 01:07:17 13 C 20 %
2456 26-10-2019 01:17:17 13.1 C 20 %
2457 26-10-2019 01:27:17 13.1 C 20 %
2458 26-10-2019 01:37:17 13.7 C 20 %
2459 26-10-2019 01:47:18 13.8 C 20 %
2460 26-10-2019 01:57:18 14 C 20 %
2461 26-10-2019 02:07:17 13.6 C 20 %
2462 26-10-2019 02:17:17 12.7 C 21 %
2463 26-10-2019 02:27:17 12.7 C 21 %
2464 26-10-2019 02:37:17 12.1 C 25 %
2465 26-10-2019 02:47:18 11.8 C 27 %
2466 26-10-2019 02:57:18 11.7 C 28 %
2467 26-10-2019 03:07:17 11.4 C 30 %
2468 26-10-2019 03:17:17 11.2 C 30 %
2469 26-10-2019 03:27:17 11.2 C 31 %
2470 26-10-2019 03:37:17 11.1 C 32 %
2471 26-10-2019 03:47:17 10.8 C 33 %
2472 26-10-2019 03:57:17 10.7 C 33 %
2473 26-10-2019 04:07:17 10.5 C 35 %
2474 26-10-2019 04:17:17 11.1 C 35 %
2475 26-10-2019 04:27:17 10.7 C 37 %
Sensor: Nr:Datum:Temp:Feuchte:
Aussen-T/F 2476 26-10-2019 04:37:17 10.9 C 35 %
2477 26-10-2019 04:47:17 11.6 C 30 %
2478 26-10-2019 04:57:17 11.8 C 28 %
2479 26-10-2019 05:07:17 12 C 26 %
2480 26-10-2019 05:17:17 12 C 26 %
2481 26-10-2019 05:27:17 12 C 26 %
2482 26-10-2019 05:37:17 11.9 C 27 %
2483 26-10-2019 05:47:18 11.4 C 29 %
2484 26-10-2019 05:57:18 11.2 C 30 %
2485 26-10-2019 06:07:17 11.1 C 30 %
2486 26-10-2019 06:17:17 10.9 C 34 %
2487 26-10-2019 06:27:17 10.8 C 35 %
2488 26-10-2019 06:37:17 10.9 C 36 %
2489 26-10-2019 06:47:17 11 C 35 %
2490 26-10-2019 06:57:17 10.7 C 35 %
2491 26-10-2019 07:07:17 10.5 C 35 %
2492 26-10-2019 07:17:17 10.2 C 35 %
2493 26-10-2019 07:27:17 10.1 C 35 %
2494 26-10-2019 07:37:17 9.8 C 36 %
2495 26-10-2019 07:47:17 9.5 C 37 %
2496 26-10-2019 07:57:17 9.3 C 36 %
2497 26-10-2019 08:07:17 9.1 C 36 %
2498 26-10-2019 08:17:17 9 C 37 %
2499 26-10-2019 08:27:17 9 C 38 %
2500 26-10-2019 08:37:17 9.2 C 38 %
Sensor: Nr:Datum:Temp:Feuchte:
Aussen-T/F 2501 26-10-2019 08:47:17 9.2 C 38 %
2502 26-10-2019 08:57:17 9.2 C 37 %
2503 26-10-2019 09:07:17 9.3 C 37 %
2504 26-10-2019 09:17:17 9.5 C 37 %
2505 26-10-2019 09:27:17 9.7 C 37 %
2506 26-10-2019 09:37:17 9.9 C 37 %
2507 26-10-2019 09:47:18 10 C 36 %
2508 26-10-2019 09:57:18 10.3 C 36 %
2509 26-10-2019 10:07:17 10.5 C 35 %
2510 26-10-2019 10:17:17 10.7 C 35 %
2511 26-10-2019 10:27:17 10.7 C 35 %
2512 26-10-2019 10:37:17 11.3 C 33 %
2513 26-10-2019 10:47:18 11.5 C 33 %
2514 26-10-2019 10:57:18 11.7 C 32 %
2515 26-10-2019 11:07:17 12 C 31 %
2516 26-10-2019 11:17:17 12.4 C 31 %
2517 26-10-2019 11:27:17 12.7 C 30 %
2518 26-10-2019 11:37:17 13.2 C 28 %
2519 26-10-2019 11:47:18 13.4 C 26 %
2520 26-10-2019 11:57:18 13.6 C 26 %
2521 26-10-2019 12:07:17 13.8 C 25 %
2522 26-10-2019 12:17:17 14.2 C 23 %
2523 26-10-2019 12:27:17 14.4 C 25 %
2524 26-10-2019 12:37:17 14.7 C 23 %
2525 26-10-2019 12:47:17 14.8 C 23 %
Sensor: Nr:Datum:Temp:Feuchte:
Aussen-T/F 2526 26-10-2019 12:57:18 15 C 20 %
2527 26-10-2019 13:07:18 15 C 20 %
2528 26-10-2019 13:17:17 14.9 C 21 %
2529 26-10-2019 13:27:17 15 C 20 %
2530 26-10-2019 13:37:17 16.3 C 20 %
2531 26-10-2019 13:47:18 18.5 C 20 %
2532 26-10-2019 13:57:18 20.9 C 20 %
2533 26-10-2019 14:07:17 20.6 C 20 %
2534 26-10-2019 14:17:17 17.8 C 20 %
2535 26-10-2019 14:27:17 16.3 C 20 %
2536 26-10-2019 14:37:17 16.2 C 20 %
2537 26-10-2019 14:47:17 16.5 C 20 %
2538 26-10-2019 14:57:17 16.9 C 20 %
2539 26-10-2019 15:07:17 16.8 C 20 %
2540 26-10-2019 15:17:17 16.8 C 20 %
2541 26-10-2019 15:27:17 16.6 C 20 %
2542 26-10-2019 15:37:17 16.5 C 20 %
2543 26-10-2019 15:47:18 16.6 C 20 %
2544 26-10-2019 15:57:18 16.7 C 20 %
2545 26-10-2019 16:07:17 16.6 C 20 %
2546 26-10-2019 16:17:17 17 C 20 %
2547 26-10-2019 16:27:17 16.2 C 20 %
2548 26-10-2019 16:37:17 15.9 C 20 %
2549 26-10-2019 16:47:17 15.6 C 20 %
2550 26-10-2019 16:57:17 15.2 C 20 %
Sensor: Nr:Datum:Temp:Feuchte:
Aussen-T/F 2551 26-10-2019 17:07:17 14.9 C 21 %
2552 26-10-2019 17:17:17 14.8 C 22 %
2553 26-10-2019 17:27:17 14.4 C 21 %
2554 26-10-2019 17:37:17 14.2 C 22 %
2555 26-10-2019 17:47:17 13.7 C 24 %
2556 26-10-2019 17:57:17 13.7 C 24 %
2557 26-10-2019 18:07:18 13.1 C 25 %
2558 26-10-2019 18:17:17 13.1 C 25 %
2559 26-10-2019 18:27:17 12.8 C 26 %
2560 26-10-2019 18:37:17 12.4 C 26 %
2561 26-10-2019 18:47:17 12.2 C 27 %
2562 26-10-2019 18:57:17 12.3 C 27 %
2563 26-10-2019 19:07:18 11.9 C 28 %
2564 26-10-2019 19:17:17 11.9 C 30 %
2565 26-10-2019 19:27:17 11.8 C 30 %
2566 26-10-2019 19:37:17 11.8 C 31 %
2567 26-10-2019 19:47:17 11.9 C 30 %
2568 26-10-2019 19:57:17 12 C 29 %
2569 26-10-2019 20:07:17 12 C 29 %
2570 26-10-2019 20:17:17 12 C 28 %
2571 26-10-2019 20:27:17 12.3 C 28 %
2572 26-10-2019 20:37:17 12.4 C 28 %
2573 26-10-2019 20:47:17 12.3 C 27 %
2574 26-10-2019 20:57:18 12.3 C 27 %
2575 26-10-2019 21:07:17 12.4 C 28 %
Sensor: Nr:Datum:Temp:Feuchte:
Aussen-T/F 2576 26-10-2019 21:17:17 12.2 C 27 %
2577 26-10-2019 21:27:17 12 C 28 %
2578 26-10-2019 21:37:17 12 C 29 %
2579 26-10-2019 21:47:17 12.2 C 30 %
2580 26-10-2019 21:57:17 11.8 C 32 %
2581 26-10-2019 22:07:17 11.8 C 33 %
2582 26-10-2019 22:17:17 11.8 C 32 %
2583 26-10-2019 22:27:17 11.8 C 31 %
2584 26-10-2019 22:37:18 11.8 C 32 %
2585 26-10-2019 22:47:17 11.7 C 33 %
2586 26-10-2019 22:57:17 11.8 C 33 %
2587 26-10-2019 23:07:17 11.8 C 32 %
2588 26-10-2019 23:17:17 12.1 C 30 %
2589 26-10-2019 23:27:17 12.4 C 28 %
2590 26-10-2019 23:37:17 12.6 C 26 %
2591 26-10-2019 23:47:17 12.5 C 27 %
2592 26-10-2019 23:57:17 12.5 C 27 %
2593 27-10-2019 00:07:18 12.8 C 25 %
2594 27-10-2019 00:17:17 12.9 C 25 %
2595 27-10-2019 00:27:17 12.9 C 25 %
2596 27-10-2019 00:37:17 13.5 C 20 %
2597 27-10-2019 00:47:17 13.4 C 20 %
2598 27-10-2019 00:57:17 13.7 C 20 %
2599 27-10-2019 01:07:17 13 C 20 %
2600 27-10-2019 01:17:17 13.4 C 20 %
Sensor: Nr:Datum:Temp:Feuchte:
Aussen-T/F 2601 27-10-2019 01:27:17 12.8 C 22 %
2602 27-10-2019 01:37:17 12.8 C 24 %
2603 27-10-2019 01:47:17 12.4 C 25 %
2604 27-10-2019 01:57:17 12.4 C 25 %
2605 27-10-2019 02:07:18 12.5 C 25 %
2606 27-10-2019 02:17:17 12.3 C 25 %
2607 27-10-2019 02:27:17 12.3 C 25 %
2608 27-10-2019 02:37:17 11.9 C 27 %
2609 27-10-2019 02:47:17 11.7 C 27 %
2610 27-10-2019 02:57:17 11.8 C 27 %
2611 27-10-2019 03:07:17 12 C 25 %
2612 27-10-2019 03:17:17 12.1 C 25 %
2613 27-10-2019 03:27:17 12.1 C 25 %
2614 27-10-2019 03:37:18 12.2 C 25 %
2615 27-10-2019 03:47:17 11.9 C 26 %
2616 27-10-2019 03:57:17 11.9 C 27 %
2617 27-10-2019 04:07:17 11.6 C 27 %
2618 27-10-2019 04:07:17 11 C 32 %
2619 27-10-2019 04:17:17 11.7 C 28 %
2620 27-10-2019 04:17:17 11.2 C 31 %
2621 27-10-2019 04:27:17 11.4 C 29 %
2622 27-10-2019 04:27:17 11.2 C 30 %
2623 27-10-2019 04:37:17 11.2 C 30 %
2624 27-10-2019 04:37:17 11.5 C 30 %
2625 27-10-2019 04:47:17 10.9 C 31 %
Sensor: Nr:Datum:Temp:Feuchte:
Aussen-T/F 2626 27-10-2019 04:47:18 12.1 C 25 %
2627 27-10-2019 04:57:18 11 C 33 %
2628 27-10-2019 04:57:18 12.5 C 22 %
2629 27-10-2019 05:07:17 12.1 C 25 %
2630 27-10-2019 05:17:17 13.2 C 20 %
2631 27-10-2019 05:27:17 13.2 C 20 %
2632 27-10-2019 05:37:17 13.4 C 20 %
2633 27-10-2019 05:47:17 13.3 C 20 %
2634 27-10-2019 05:57:18 14 C 20 %
2635 27-10-2019 06:07:17 14.7 C 20 %
2636 27-10-2019 06:17:18 14.6 C 20 %
2637 27-10-2019 06:27:18 14.4 C 20 %
2638 27-10-2019 06:37:17 14.5 C 20 %
2639 27-10-2019 06:47:17 14.3 C 20 %
2640 27-10-2019 06:57:17 14.6 C 20 %
2641 27-10-2019 07:07:17 14.5 C 20 %
2642 27-10-2019 07:17:17 14.1 C 20 %
2643 27-10-2019 07:27:17 13.5 C 20 %
2644 27-10-2019 07:37:17 12.9 C 26 %
2645 27-10-2019 07:47:17 12.7 C 29 %
2646 27-10-2019 07:57:17 12.1 C 28 %
2647 27-10-2019 08:07:17 11.4 C 29 %
2648 27-10-2019 08:17:17 11.2 C 30 %
2649 27-10-2019 08:27:17 11.1 C 30 %
2650 27-10-2019 08:37:17 10.9 C 31 %
Sensor: Nr:Datum:Temp:Feuchte:
Aussen-T/F 2651 27-10-2019 08:47:17 10.8 C 31 %
2652 27-10-2019 08:57:17 10.6 C 31 %
2653 27-10-2019 09:07:17 10.4 C 30 %
2654 27-10-2019 09:17:17 9.8 C 30 %
2655 27-10-2019 09:27:17 9.4 C 31 %
2656 27-10-2019 09:37:17 9.3 C 33 %
2657 27-10-2019 09:47:18 9.2 C 32 %
2658 27-10-2019 09:57:18 8.8 C 28 %
2659 27-10-2019 10:07:17 8.9 C 31 %
2660 27-10-2019 10:17:17 9 C 35 %
2661 27-10-2019 10:27:17 9.1 C 34 %
2662 27-10-2019 10:37:17 9 C 30 %
2663 27-10-2019 10:47:17 9.2 C 33 %
2664 27-10-2019 10:57:17 9.3 C 34 %
2665 27-10-2019 11:07:17 9.6 C 28 %
2666 27-10-2019 11:17:17 9.7 C 27 %
2667 27-10-2019 11:27:17 9.4 C 30 %
2668 27-10-2019 11:37:17 9.5 C 29 %
2669 27-10-2019 11:47:17 9.5 C 30 %
2670 27-10-2019 11:57:17 9.6 C 28 %
2671 27-10-2019 12:07:17 9.6 C 30 %
2672 27-10-2019 12:17:17 9.3 C 28 %
2673 27-10-2019 12:27:17 9.3 C 31 %
2674 27-10-2019 12:37:17 9.2 C 29 %
2675 27-10-2019 12:47:17 9.1 C 28 %
Sensor: Nr:Datum:Temp:Feuchte:
Aussen-T/F 2676 27-10-2019 12:57:17 9.2 C 29 %
2677 27-10-2019 13:07:17 9.3 C 29 %
2678 27-10-2019 13:17:17 9.3 C 29 %
2679 27-10-2019 13:27:17 9.2 C 30 %
2680 27-10-2019 13:37:17 9.1 C 31 %
2681 27-10-2019 13:47:17 9.1 C 32 %
2682 27-10-2019 13:57:17 9.2 C 30 %
2683 27-10-2019 14:07:17 9 C 28 %
2684 27-10-2019 14:17:17 8.8 C 30 %
2685 27-10-2019 14:27:17 8.7 C 34 %
2686 27-10-2019 14:37:18 8.7 C 34 %
2687 27-10-2019 14:47:17 8.7 C 35 %
2688 27-10-2019 14:57:17 8.7 C 35 %
2689 27-10-2019 15:07:17 8.7 C 31 %
2690 27-10-2019 15:17:17 8.7 C 32 %
2691 27-10-2019 15:27:17 8.7 C 33 %
2692 27-10-2019 15:37:17 8.7 C 35 %
2693 27-10-2019 15:47:17 8.7 C 36 %
2694 27-10-2019 15:57:17 8.6 C 35 %
2695 27-10-2019 16:07:17 8.6 C 35 %
2696 27-10-2019 16:17:17 8.4 C 35 %
2697 27-10-2019 16:27:17 8.3 C 35 %
2698 27-10-2019 16:37:17 8.1 C 35 %
2699 27-10-2019 16:47:17 8.2 C 36 %
2700 27-10-2019 16:57:17 8.1 C 36 %
Sensor: Nr:Datum:Temp:Feuchte:
Aussen-T/F 2701 27-10-2019 17:07:18 7.9 C 37 %
2702 27-10-2019 17:17:17 7.9 C 38 %
2703 27-10-2019 17:27:17 7.8 C 38 %
2704 27-10-2019 17:37:17 7.9 C 38 %
2705 27-10-2019 17:47:17 7.8 C 38 %
2706 27-10-2019 17:57:17 7.9 C 38 %
2707 27-10-2019 18:07:17 7.8 C 38 %
2708 27-10-2019 18:17:17 7.9 C 38 %
2709 27-10-2019 18:27:17 7.8 C 38 %
2710 27-10-2019 18:37:17 7.8 C 38 %
2711 27-10-2019 18:47:18 7.8 C 38 %
2712 27-10-2019 18:57:18 7.8 C 38 %
2713 27-10-2019 19:07:17 7.8 C 38 %
2714 27-10-2019 19:17:17 7.8 C 38 %
2715 27-10-2019 19:27:17 7.7 C 38 %
2716 27-10-2019 19:37:17 7.6 C 38 %
2717 27-10-2019 19:47:18 7.6 C 38 %
2718 27-10-2019 19:57:18 7.6 C 38 %
2719 27-10-2019 20:07:17 7 C 38 %
2720 27-10-2019 20:17:17 6.7 C 38 %
2721 27-10-2019 20:27:17 6.6 C 38 %
2722 27-10-2019 20:37:17 6.5 C 39 %
2723 27-10-2019 20:48:17 6.3 C 38 %
2724 27-10-2019 20:58:17 6.1 C 38 %
2725 27-10-2019 21:07:18 6.3 C 39 %
Sensor: Nr:Datum:Temp:Feuchte:
Aussen-T/F 2726 27-10-2019 21:17:17 6.2 C 39 %
2727 27-10-2019 21:27:17 6 C 38 %
2728 27-10-2019 21:37:17 6 C 38 %
2729 27-10-2019 21:48:17 5.6 C 39 %
2730 27-10-2019 21:58:17 5.3 C 38 %
2731 27-10-2019 22:07:18 5.2 C 38 %
2732 27-10-2019 22:18:17 4.7 C 39 %
2733 27-10-2019 22:28:17 4.7 C 39 %
2734 27-10-2019 22:38:17 4.6 C 39 %
2735 27-10-2019 22:47:17 4.5 C 39 %
2736 27-10-2019 22:57:18 4.2 C 39 %
2737 27-10-2019 23:07:17 4.3 C 39 %
2738 27-10-2019 23:17:17 4.1 C 39 %
2739 27-10-2019 23:27:17 3.9 C 40 %
2740 27-10-2019 23:37:17 4.5 C 40 %
2741 27-10-2019 23:48:17 4.5 C 40 %
2742 27-10-2019 23:58:17 4.6 C 40 %
2743 28-10-2019 00:08:17 4.6 C 39 %
2744 28-10-2019 00:18:17 4.5 C 39 %
2745 28-10-2019 00:27:17 4.7 C 40 %
2746 28-10-2019 00:38:17 4.7 C 39 %
2747 28-10-2019 00:47:18 4.8 C 39 %
2748 28-10-2019 00:57:18 5 C 39 %
2749 28-10-2019 01:07:17 5 C 38 %
2750 28-10-2019 01:18:17 5.2 C 39 %
Sensor: Nr:Datum:Temp:Feuchte:
Aussen-T/F 2751 28-10-2019 01:28:17 5.2 C 38 %
2752 28-10-2019 01:38:17 5.2 C 38 %
2753 28-10-2019 01:47:17 5.2 C 38 %
2754 28-10-2019 01:57:17 5.2 C 38 %
2755 28-10-2019 02:08:17 5.1 C 38 %
2756 28-10-2019 02:18:17 4.9 C 38 %
2757 28-10-2019 02:28:17 4.4 C 38 %
2758 28-10-2019 02:38:17 4.5 C 38 %
2759 28-10-2019 02:48:17 4.5 C 39 %
2760 28-10-2019 02:58:17 4.6 C 39 %
2761 28-10-2019 03:08:17 4.8 C 39 %
2762 28-10-2019 03:18:18 4.7 C 39 %
2763 28-10-2019 03:28:18 4.7 C 39 %
2764 28-10-2019 03:38:17 4.7 C 39 %
2765 28-10-2019 03:48:17 4.8 C 39 %
2766 28-10-2019 03:58:17 4.5 C 39 %
2767 28-10-2019 04:08:17 4.5 C 39 %
2768 28-10-2019 04:18:18 4.5 C 39 %
2769 28-10-2019 04:28:18 4.5 C 39 %
2770 28-10-2019 04:38:17 4.5 C 39 %
2771 28-10-2019 04:48:17 4.5 C 39 %
2772 28-10-2019 04:58:17 4.5 C 39 %
2773 28-10-2019 05:08:17 4.4 C 39 %
2774 28-10-2019 05:18:17 4.4 C 39 %
2775 28-10-2019 05:28:17 4.5 C 39 %
Sensor: Nr:Datum:Temp:Feuchte:
Aussen-T/F 2776 28-10-2019 05:38:17 4.4 C 39 %
2777 28-10-2019 05:48:17 4.5 C 39 %
2778 28-10-2019 05:58:17 4.6 C 39 %
2779 28-10-2019 06:08:17 4.5 C 39 %
2780 28-10-2019 06:18:17 4.3 C 38 %
2781 28-10-2019 06:28:17 4.3 C 38 %
2782 28-10-2019 06:38:17 4.3 C 38 %
2783 28-10-2019 06:48:17 4.5 C 38 %
2784 28-10-2019 06:58:17 4.4 C 38 %
2785 28-10-2019 07:08:17 4.6 C 39 %
2786 28-10-2019 07:18:17 4.7 C 39 %
2787 28-10-2019 07:28:17 4.6 C 39 %
2788 28-10-2019 07:38:17 4.6 C 39 %
2789 28-10-2019 07:48:17 4.6 C 39 %
2790 28-10-2019 07:58:17 5 C 38 %
2791 28-10-2019 08:08:17 5 C 38 %
2792 28-10-2019 08:18:17 5 C 38 %
2793 28-10-2019 08:28:18 5.1 C 38 %
2794 28-10-2019 08:38:17 5.1 C 38 %
2795 28-10-2019 08:48:17 5.2 C 38 %
2796 28-10-2019 08:58:17 5.1 C 38 %
2797 28-10-2019 09:08:17 5.2 C 38 %
2798 28-10-2019 09:18:17 5.4 C 38 %
2799 28-10-2019 09:28:17 5.2 C 38 %
2800 28-10-2019 09:38:17 5.6 C 38 %
Sensor: Nr:Datum:Temp:Feuchte:
Aussen-T/F 2801 28-10-2019 09:48:16 5.5 C 38 %
2802 28-10-2019 09:58:16 5.7 C 38 %
2803 28-10-2019 10:08:17 5.8 C 38 %
2804 28-10-2019 10:18:17 5.6 C 37 %
2805 28-10-2019 10:28:17 5.7 C 36 %
2806 28-10-2019 10:38:17 6 C 36 %
2807 28-10-2019 10:48:17 6 C 36 %
2808 28-10-2019 10:58:17 5.9 C 35 %
2809 28-10-2019 11:08:17 6.2 C 35 %
2810 28-10-2019 11:18:16 6.6 C 36 %
2811 28-10-2019 11:28:16 6.3 C 33 %
2812 28-10-2019 11:38:17 6.4 C 34 %
2813 28-10-2019 11:48:16 6.5 C 34 %
2814 28-10-2019 11:58:16 6.6 C 33 %
2815 28-10-2019 12:08:16 6.7 C 32 %
2816 28-10-2019 12:18:16 6.8 C 31 %
2817 28-10-2019 12:28:16 6.7 C 30 %
2818 28-10-2019 12:38:16 6.8 C 30 %
2819 28-10-2019 12:48:17 6.5 C 30 %
2820 28-10-2019 12:58:17 6.7 C 30 %
2821 28-10-2019 13:08:17 6.9 C 30 %
2822 28-10-2019 13:18:16 7.1 C 30 %
2823 28-10-2019 13:28:16 7.3 C 28 %
2824 28-10-2019 13:38:17 7.5 C 27 %
2825 28-10-2019 13:48:16 7.8 C 26 %
Sensor: Nr:Datum:Temp:Feuchte:
Aussen-T/F 2826 28-10-2019 13:58:16 8 C 28 %
2827 28-10-2019 14:08:17 7.8 C 26 %
2828 28-10-2019 14:18:17 7.6 C 25 %
2829 28-10-2019 14:28:18 7.5 C 25 %
2830 28-10-2019 14:38:17 8.1 C 21 %
2831 28-10-2019 14:48:16 8.1 C 20 %
2832 28-10-2019 14:58:16 8.1 C 20 %
2833 28-10-2019 15:08:16 8.2 C 20 %
2834 28-10-2019 15:18:16 8.1 C 20 %
2835 28-10-2019 15:28:16 8.2 C 20 %
2836 28-10-2019 15:38:17 7.8 C 25 %
2837 28-10-2019 15:48:16 7.8 C 26 %
2838 28-10-2019 15:58:16 7.8 C 25 %
2839 28-10-2019 16:08:16 7.3 C 28 %
2840 28-10-2019 16:18:16 7.1 C 30 %
2841 28-10-2019 16:28:16 6.9 C 32 %
2842 28-10-2019 16:38:16 6.8 C 33 %
2843 28-10-2019 16:48:16 6.8 C 33 %
2844 28-10-2019 16:58:16 6.2 C 35 %
2845 28-10-2019 17:08:16 6.3 C 36 %
2846 28-10-2019 17:18:16 6.3 C 37 %
2847 28-10-2019 17:28:16 6.5 C 37 %
2848 28-10-2019 17:38:17 6.5 C 37 %
2849 28-10-2019 17:48:16 6.6 C 35 %
2850 28-10-2019 17:58:16 6.6 C 36 %
Sensor: Nr:Datum:Temp:Feuchte:
Aussen-T/F 2851 28-10-2019 18:08:16 6.6 C 36 %
2852 28-10-2019 18:18:16 6.7 C 37 %
2853 28-10-2019 18:28:16 6.7 C 36 %
2854 28-10-2019 18:38:16 6.7 C 36 %
2855 28-10-2019 18:48:17 6.7 C 36 %
2856 28-10-2019 18:58:17 6.6 C 36 %
2857 28-10-2019 19:08:16 6.6 C 36 %
2858 28-10-2019 19:18:16 6.6 C 37 %
2859 28-10-2019 19:28:16 6.7 C 37 %
2860 28-10-2019 19:38:16 6.7 C 37 %
2861 28-10-2019 19:48:16 6.4 C 37 %
2862 28-10-2019 19:58:16 6.2 C 37 %
2863 28-10-2019 20:08:16 6.3 C 38 %
2864 28-10-2019 20:18:16 6.5 C 38 %
2865 28-10-2019 20:28:16 6.5 C 38 %
2866 28-10-2019 20:38:16 6.5 C 38 %
2867 28-10-2019 20:48:16 6.5 C 38 %
2868 28-10-2019 20:58:17 6.5 C 37 %
2869 28-10-2019 21:08:16 6.3 C 37 %
2870 28-10-2019 21:18:16 6.3 C 37 %
2871 28-10-2019 21:28:16 6.3 C 37 %
2872 28-10-2019 21:38:16 6.3 C 37 %
2873 28-10-2019 21:48:16 6.3 C 37 %
2874 28-10-2019 21:58:16 6.3 C 37 %
2875 28-10-2019 22:08:16 6.4 C 37 %
Sensor: Nr:Datum:Temp:Feuchte:
Aussen-T/F 2876 28-10-2019 22:18:16 6.3 C 37 %
2877 28-10-2019 22:28:16 6.4 C 36 %
2878 28-10-2019 22:38:16 6.4 C 35 %
2879 28-10-2019 22:48:16 6.4 C 35 %
2880 28-10-2019 22:58:17 6.3 C 34 %
2881 28-10-2019 23:08:16 6.3 C 33 %
2882 28-10-2019 23:18:16 6.3 C 33 %
2883 28-10-2019 23:28:16 6.3 C 33 %
2884 28-10-2019 23:38:16 6.2 C 32 %
2885 28-10-2019 23:48:15 6.3 C 33 %
2886 28-10-2019 23:58:15 6.3 C 33 %
2887 29-10-2019 00:08:16 6.3 C 33 %
2888 29-10-2019 00:18:16 6.3 C 33 %
2889 29-10-2019 00:28:16 6.2 C 32 %
2890 29-10-2019 00:38:16 6.2 C 33 %
2891 29-10-2019 00:48:15 6.2 C 32 %
2892 29-10-2019 00:58:15 6.1 C 32 %
2893 29-10-2019 01:08:16 6 C 32 %
2894 29-10-2019 01:18:16 6 C 32 %
2895 29-10-2019 01:28:16 5.9 C 33 %
2896 29-10-2019 01:38:16 5.9 C 33 %
2897 29-10-2019 01:48:15 5.9 C 34 %
2898 29-10-2019 01:58:15 5.8 C 33 %
2899 29-10-2019 02:08:16 5.9 C 33 %
2900 29-10-2019 02:18:16 5.8 C 32 %
Sensor: Nr:Datum:Temp:Feuchte:
Aussen-T/F 2901 29-10-2019 02:28:16 5.8 C 33 %
2902 29-10-2019 02:38:16 5.8 C 33 %
2903 29-10-2019 02:48:17 5.8 C 33 %
2904 29-10-2019 02:58:17 5.8 C 33 %
2905 29-10-2019 03:08:17 5.8 C 33 %
2906 29-10-2019 03:18:17 5.8 C 33 %
2907 29-10-2019 03:28:17 5.8 C 33 %
2908 29-10-2019 03:38:17 5.8 C 33 %
2909 29-10-2019 03:48:18 5.7 C 32 %
2910 29-10-2019 03:58:18 5.7 C 33 %
2911 29-10-2019 04:08:17 5.7 C 34 %
2912 29-10-2019 04:18:17 5.7 C 33 %
2913 29-10-2019 04:28:17 5.7 C 33 %
2914 29-10-2019 04:38:17 5.7 C 33 %
2915 29-10-2019 04:48:17 5.7 C 33 %
2916 29-10-2019 04:58:18 5.7 C 33 %
2917 29-10-2019 05:08:17 5.7 C 34 %
2918 29-10-2019 05:18:17 5.8 C 33 %
2919 29-10-2019 05:28:17 5.7 C 32 %
2920 29-10-2019 05:38:17 5.7 C 32 %
2921 29-10-2019 05:48:18 5.7 C 32 %
2922 29-10-2019 05:58:18 5.7 C 32 %
2923 29-10-2019 06:08:17 5.7 C 32 %
2924 29-10-2019 06:18:17 5.7 C 32 %
2925 29-10-2019 06:28:18 5.6 C 32 %
Sensor: Nr:Datum:Temp:Feuchte:
Aussen-T/F 2926 29-10-2019 06:38:17 5.5 C 32 %
2927 29-10-2019 06:48:17 5.5 C 32 %
2928 29-10-2019 06:58:17 5.5 C 32 %
2929 29-10-2019 07:08:18 5.5 C 32 %
2930 29-10-2019 07:18:17 5.5 C 32 %
2931 29-10-2019 07:28:17 5.4 C 32 %
2932 29-10-2019 07:38:17 5.4 C 33 %
2933 29-10-2019 07:48:17 5.4 C 33 %
2934 29-10-2019 07:58:17 5.5 C 33 %
2935 29-10-2019 08:08:18 5.7 C 33 %
2936 29-10-2019 08:18:17 6 C 31 %
2937 29-10-2019 08:28:17 6 C 28 %
2938 29-10-2019 08:38:17 6 C 28 %
2939 29-10-2019 08:48:17 6.2 C 27 %
2940 29-10-2019 08:58:17 6.3 C 26 %
2941 29-10-2019 09:08:18 6.3 C 26 %
2942 29-10-2019 09:18:17 6.3 C 26 %
2943 29-10-2019 09:28:17 6.6 C 26 %
2944 29-10-2019 09:38:17 7.3 C 20 %
2945 29-10-2019 09:48:17 7.2 C 20 %
2946 29-10-2019 09:58:17 6.9 C 21 %
2947 29-10-2019 10:08:17 7.6 C 20 %
2948 29-10-2019 10:18:17 7.8 C 20 %
2949 29-10-2019 10:28:17 8.2 C 20 %
2950 29-10-2019 10:38:17 8.1 C 20 %
Sensor: Nr:Datum:Temp:Feuchte:
Aussen-T/F 2951 29-10-2019 10:48:18 8.4 C 20 %
2952 29-10-2019 10:58:18 8.7 C 20 %
2953 29-10-2019 11:08:17 8.7 C 20 %
2954 29-10-2019 11:18:17 8.6 C 20 %
2955 29-10-2019 11:28:17 8.7 C 20 %
2956 29-10-2019 11:38:17 9 C 20 %
2957 29-10-2019 11:48:18 9.4 C 20 %
2958 29-10-2019 11:58:18 9.6 C 20 %
2959 29-10-2019 12:08:17 9.6 C 20 %
2960 29-10-2019 12:18:17 9.2 C 20 %
2961 29-10-2019 12:28:17 9.6 C 20 %
2962 29-10-2019 12:38:17 10 C 20 %
2963 29-10-2019 12:48:18 9.9 C 20 %
2964 29-10-2019 12:58:18 10.4 C 20 %
2965 29-10-2019 13:08:17 10.5 C 20 %
2966 29-10-2019 13:18:17 10.4 C 20 %
2967 29-10-2019 13:28:17 10.4 C 20 %
2968 29-10-2019 13:38:17 10.4 C 20 %
2969 29-10-2019 13:48:18 10.7 C 20 %
2970 29-10-2019 13:58:18 10.3 C 20 %
2971 29-10-2019 14:08:17 10.1 C 20 %
2972 29-10-2019 14:18:17 10.5 C 20 %
2973 29-10-2019 14:28:17 10.8 C 20 %
2974 29-10-2019 14:38:17 11.6 C 20 %
2975 29-10-2019 14:48:17 11.1 C 20 %
Sensor: Nr:Datum:Temp:Feuchte:
Aussen-T/F 2976 29-10-2019 14:58:18 10.5 C 20 %
2977 29-10-2019 15:08:17 9.4 C 20 %
2978 29-10-2019 15:18:17 9.1 C 20 %
2979 29-10-2019 15:28:17 8.5 C 20 %
2980 29-10-2019 15:38:17 8.2 C 20 %
2981 29-10-2019 15:48:17 9.2 C 20 %
2982 29-10-2019 15:58:18 11.7 C 20 %
2983 29-10-2019 16:08:17 11.3 C 20 %
2984 29-10-2019 16:18:17 9.5 C 20 %
2985 29-10-2019 16:28:17 10 C 20 %
2986 29-10-2019 16:38:17 9.8 C 20 %
2987 29-10-2019 16:48:17 8.9 C 20 %
2988 29-10-2019 16:58:17 7.6 C 20 %
2989 29-10-2019 17:08:18 7 C 20 %
2990 29-10-2019 17:18:17 6.3 C 25 %
2991 29-10-2019 17:28:17 6 C 26 %
2992 29-10-2019 17:38:17 5.9 C 25 %
2993 29-10-2019 17:48:17 5.5 C 26 %
2994 29-10-2019 17:58:17 5.3 C 28 %
2995 29-10-2019 18:08:18 5.5 C 27 %
2996 29-10-2019 18:18:17 5.2 C 26 %
2997 29-10-2019 18:28:17 5.1 C 28 %
2998 29-10-2019 18:38:17 4.6 C 31 %
2999 29-10-2019 18:48:17 4.5 C 31 %
3000 29-10-2019 18:58:17 4.2 C 33 %
Sensor: Nr:Datum:Temp:Feuchte:
Aussen-T/F 3001 29-10-2019 19:08:18 3.9 C 35 %
3002 29-10-2019 19:18:17 3.8 C 35 %
3003 29-10-2019 19:28:17 3.6 C 35 %
3004 29-10-2019 19:38:17 3.3 C 37 %
3005 29-10-2019 19:48:17 3.2 C 38 %
3006 29-10-2019 19:58:17 3.4 C 38 %
3007 29-10-2019 20:08:17 3.3 C 38 %
3008 29-10-2019 20:18:17 3.3 C 39 %
3009 29-10-2019 20:28:17 3.2 C 38 %
3010 29-10-2019 20:38:17 3.3 C 38 %
3011 29-10-2019 20:48:17 3 C 38 %
3012 29-10-2019 20:58:17 2.8 C 39 %
3013 29-10-2019 21:08:18 2.7 C 40 %
3014 29-10-2019 21:18:17 2.3 C 39 %
3015 29-10-2019 21:28:17 2.3 C 40 %
3016 29-10-2019 21:38:17 2.2 C 40 %
3017 29-10-2019 21:48:17 2.1 C 40 %
3018 29-10-2019 21:58:17 2 C 40 %
3019 29-10-2019 22:08:18 2 C 40 %
3020 29-10-2019 22:18:17 1.8 C 41 %
3021 29-10-2019 22:28:18 1.7 C 41 %
3022 29-10-2019 22:38:17 1.7 C 41 %
3023 29-10-2019 22:48:17 1.7 C 41 %
3024 29-10-2019 22:58:17 1.7 C 41 %
3025 29-10-2019 23:08:17 1.7 C 41 %
Sensor: Nr:Datum:Temp:Feuchte:
Aussen-T/F 3026 29-10-2019 23:18:17 1.8 C 41 %
3027 29-10-2019 23:28:17 1.6 C 41 %
3028 29-10-2019 23:38:17 1.5 C 41 %
3029 29-10-2019 23:48:17 1.4 C 41 %
3030 29-10-2019 23:58:17 1.3 C 41 %
3031 30-10-2019 00:08:17 1 C 41 %
3032 30-10-2019 00:18:17 1.4 C 42 %
3033 30-10-2019 00:28:17 1.3 C 42 %
3034 30-10-2019 00:38:17 1.1 C 41 %
3035 30-10-2019 00:48:18 1.5 C 42 %
3036 30-10-2019 00:58:18 1.5 C 42 %
3037 30-10-2019 01:08:17 1.4 C 42 %
3038 30-10-2019 01:18:17 1.3 C 41 %
3039 30-10-2019 01:28:17 1.3 C 41 %
3040 30-10-2019 01:38:17 1 C 41 %
3041 30-10-2019 01:48:17 0.5 C 41 %
3042 30-10-2019 01:58:17 1.2 C 42 %
3043 30-10-2019 02:08:17 1.4 C 42 %
3044 30-10-2019 02:18:18 1.7 C 42 %
3045 30-10-2019 02:28:18 1.6 C 42 %
3046 30-10-2019 02:38:18 1.5 C 41 %
3047 30-10-2019 02:48:17 1.4 C 41 %
3048 30-10-2019 02:58:17 1.2 C 41 %
3049 30-10-2019 03:08:17 0.9 C 42 %
3050 30-10-2019 03:18:17 0.8 C 42 %
Sensor: Nr:Datum:Temp:Feuchte:
Aussen-T/F 3051 30-10-2019 03:28:17 0.5 C 41 %
3052 30-10-2019 03:38:18 0.4 C 41 %
3053 30-10-2019 03:48:17 0.1 C 41 %
3054 30-10-2019 03:58:17 0.1 C 41 %
3055 30-10-2019 04:08:17 0.5 C 42 %
3056 30-10-2019 04:18:17 0.7 C 42 %
3057 30-10-2019 04:28:17 0.7 C 42 %
3058 30-10-2019 04:38:17 0.5 C 41 %
3059 30-10-2019 04:48:18 0.2 C 41 %
3060 30-10-2019 04:58:18 0.4 C 42 %
3061 30-10-2019 05:08:17 0.7 C 42 %
3062 30-10-2019 05:18:17 0.9 C 42 %
3063 30-10-2019 05:28:17 0.9 C 42 %
3064 30-10-2019 05:38:17 1 C 41 %
3065 30-10-2019 05:48:17 0.9 C 42 %
3066 30-10-2019 05:58:17 0.8 C 42 %
3067 30-10-2019 06:08:17 0.8 C 42 %
3068 30-10-2019 06:18:17 0.5 C 42 %
3069 30-10-2019 06:28:17 0.4 C 42 %
3070 30-10-2019 06:38:17 0.5 C 42 %
3071 30-10-2019 06:48:17 0.5 C 42 %
3072 30-10-2019 06:58:18 0.6 C 42 %
3073 30-10-2019 07:08:17 0.6 C 42 %
3074 30-10-2019 07:18:17 0.6 C 42 %
3075 30-10-2019 07:28:17 0.7 C 42 %
Sensor: Nr:Datum:Temp:Feuchte:
Aussen-T/F 3076 30-10-2019 07:38:17 1.2 C 41 %
3077 30-10-2019 07:48:17 1.2 C 41 %
3078 30-10-2019 07:58:17 1.2 C 41 %
3079 30-10-2019 08:08:18 1.2 C 41 %
3080 30-10-2019 08:18:17 1.1 C 41 %
3081 30-10-2019 08:28:17 1.1 C 41 %
3082 30-10-2019 08:38:17 1.5 C 41 %
3083 30-10-2019 08:48:17 1.3 C 41 %
3084 30-10-2019 08:58:17 1.7 C 41 %
3085 30-10-2019 09:08:18 2 C 40 %
3086 30-10-2019 09:18:17 2 C 40 %
3087 30-10-2019 09:28:17 1.6 C 41 %
3088 30-10-2019 09:38:17 2.1 C 40 %
3089 30-10-2019 09:48:17 2.3 C 40 %
3090 30-10-2019 09:58:17 2.7 C 40 %
3091 30-10-2019 10:08:18 3.3 C 39 %
3092 30-10-2019 10:18:17 4 C 37 %
3093 30-10-2019 10:28:17 4 C 36 %
3094 30-10-2019 10:38:17 4.3 C 36 %
3095 30-10-2019 10:48:17 4.6 C 33 %
3096 30-10-2019 10:58:17 4.8 C 31 %
3097 30-10-2019 11:08:17 5.1 C 31 %
3098 30-10-2019 11:18:17 5.4 C 30 %
3099 30-10-2019 11:28:17 5.2 C 29 %
3100 30-10-2019 11:38:18 5.5 C 28 %
Sensor: Nr:Datum:Temp:Feuchte:
Aussen-T/F 3101 30-10-2019 11:48:17 5.8 C 28 %
3102 30-10-2019 11:58:17 5.8 C 28 %
3103 30-10-2019 12:08:17 5.8 C 25 %
3104 30-10-2019 12:18:17 6.3 C 27 %
3105 30-10-2019 12:28:17 6.7 C 27 %
3106 30-10-2019 12:38:17 6.9 C 25 %
3107 30-10-2019 12:48:17 7 C 25 %
3108 30-10-2019 12:58:17 6.8 C 23 %
3109 30-10-2019 13:08:17 6.9 C 21 %
3110 30-10-2019 13:18:17 7.1 C 21 %
3111 30-10-2019 13:28:17 7.2 C 20 %
3112 30-10-2019 13:38:18 7.3 C 20 %
3113 30-10-2019 13:48:17 7.4 C 20 %
3114 30-10-2019 13:58:17 7.4 C 20 %
3115 30-10-2019 14:08:17 7.3 C 20 %
3116 30-10-2019 14:18:17 7.4 C 20 %
3117 30-10-2019 14:28:17 7.4 C 20 %
3118 30-10-2019 14:38:17 7.6 C 20 %
3119 30-10-2019 14:48:17 7.5 C 20 %
3120 30-10-2019 14:58:17 7.5 C 20 %
3121 30-10-2019 15:08:18 7.6 C 20 %
3122 30-10-2019 15:18:17 7.6 C 20 %
3123 30-10-2019 15:28:17 7.4 C 20 %
3124 30-10-2019 15:38:17 7 C 20 %
3125 30-10-2019 15:48:17 6.8 C 20 %
Sensor: Nr:Datum:Temp:Feuchte:
Aussen-T/F 3126 30-10-2019 15:58:17 6.7 C 21 %
3127 30-10-2019 16:08:17 6.5 C 20 %
3128 30-10-2019 16:18:17 6.4 C 21 %
3129 30-10-2019 16:28:17 6.2 C 21 %
3130 30-10-2019 16:38:17 6 C 23 %
3131 30-10-2019 16:48:17 5.8 C 23 %
3132 30-10-2019 16:58:17 5.6 C 23 %
3133 30-10-2019 17:08:18 5.4 C 21 %
3134 30-10-2019 17:18:17 5.1 C 25 %
3135 30-10-2019 17:28:17 4.9 C 25 %
3136 30-10-2019 17:38:17 4.7 C 25 %
3137 30-10-2019 17:48:17 4.3 C 25 %
3138 30-10-2019 17:58:17 4.2 C 25 %
3139 30-10-2019 18:08:17 4 C 26 %
3140 30-10-2019 18:18:17 3.8 C 26 %
3141 30-10-2019 18:28:17 3.7 C 28 %
3142 30-10-2019 18:38:17 3.3 C 28 %
3143 30-10-2019 18:48:17 3.3 C 28 %
3144 30-10-2019 18:58:17 3.1 C 30 %
3145 30-10-2019 19:08:17 2.9 C 31 %
3146 30-10-2019 19:18:17 2.9 C 31 %
3147 30-10-2019 19:28:17 2.6 C 31 %
3148 30-10-2019 19:38:18 2.4 C 32 %
3149 30-10-2019 19:48:17 2.3 C 36 %
3150 30-10-2019 19:58:17 2.2 C 36 %
Sensor: Nr:Datum:Temp:Feuchte:
Aussen-T/F 3151 30-10-2019 20:08:17 2.5 C 36 %
3152 30-10-2019 20:18:17 2.3 C 35 %
3153 30-10-2019 20:28:17 2.4 C 36 %
3154 30-10-2019 20:38:17 2 C 35 %
3155 30-10-2019 20:48:18 1.6 C 37 %
3156 30-10-2019 20:58:18 1.6 C 39 %
3157 30-10-2019 21:08:17 1.6 C 39 %
3158 30-10-2019 21:18:17 1.4 C 39 %
3159 30-10-2019 21:28:17 1.3 C 40 %
3160 30-10-2019 21:38:17 1.8 C 41 %
3161 30-10-2019 21:48:17 1.5 C 39 %
3162 30-10-2019 21:58:17 1.2 C 39 %
3163 30-10-2019 22:08:18 1 C 40 %
3164 30-10-2019 22:18:17 0.8 C 40 %
3165 30-10-2019 22:28:18 1 C 41 %
3166 30-10-2019 22:38:17 0.8 C 41 %
3167 30-10-2019 22:48:17 0.7 C 41 %
3168 30-10-2019 22:58:17 0.9 C 42 %
3169 30-10-2019 23:08:18 0.8 C 42 %
3170 30-10-2019 23:18:17 0.6 C 42 %
3171 30-10-2019 23:28:17 0.4 C 41 %
3172 30-10-2019 23:38:17 0.4 C 41 %
3173 30-10-2019 23:48:17 0.1 C 41 %
3174 30-10-2019 23:58:17 0 C 41 %
3175 31-10-2019 00:08:17 -0.2 C 41 %
Sensor: Nr:Datum:Temp:Feuchte:
Aussen-T/F 3176 31-10-2019 00:18:17 -0.3 C 41 %
3177 31-10-2019 00:28:17 -0.4 C 41 %
3178 31-10-2019 00:38:18 -0.3 C 42 %
3179 31-10-2019 00:48:17 -0.3 C 42 %
3180 31-10-2019 00:58:17 -0.4 C 42 %
3181 31-10-2019 01:08:17 -0.2 C 42 %
3182 31-10-2019 01:18:17 -0.2 C 42 %
3183 31-10-2019 01:28:17 -0.5 C 41 %
3184 31-10-2019 01:38:17 -0.3 C 42 %
3185 31-10-2019 01:48:18 -0.4 C 42 %
3186 31-10-2019 01:58:18 -0.6 C 41 %
3187 31-10-2019 02:08:17 -0.6 C 41 %
3188 31-10-2019 02:18:17 -0.8 C 41 %
3189 31-10-2019 02:28:17 -0.7 C 42 %
3190 31-10-2019 02:38:17 -0.9 C 41 %
3191 31-10-2019 02:48:17 -0.9 C 41 %
3192 31-10-2019 02:58:17 -1 C 41 %
3193 31-10-2019 03:08:17 -0.9 C 42 %
3194 31-10-2019 03:18:17 -0.9 C 41 %
3195 31-10-2019 03:28:17 -1.2 C 41 %
3196 31-10-2019 03:38:17 -1.1 C 41 %
3197 31-10-2019 03:48:18 -0.7 C 42 %
3198 31-10-2019 03:58:18 -1 C 41 %
3199 31-10-2019 04:08:17 -0.9 C 42 %
3200 31-10-2019 04:18:17 -1.2 C 41 %
Sensor: Nr:Datum:Temp:Feuchte:
Aussen-T/F 3201 31-10-2019 04:28:17 -1.2 C 41 %
3202 31-10-2019 04:38:18 -1 C 42 %
3203 31-10-2019 04:48:17 -1.4 C 41 %
3204 31-10-2019 04:58:17 -1.5 C 41 %
3205 31-10-2019 05:08:17 -1.3 C 41 %
3206 31-10-2019 05:18:17 -1.4 C 41 %
3207 31-10-2019 05:28:17 -1.4 C 41 %
3208 31-10-2019 05:38:17 -1.6 C 41 %
3209 31-10-2019 05:48:17 -1.7 C 41 %
3210 31-10-2019 05:58:17 -1.7 C 41 %
3211 31-10-2019 06:08:18 -1.5 C 41 %
3212 31-10-2019 06:18:17 -1.6 C 41 %
3213 31-10-2019 06:28:17 -1.8 C 41 %
3214 31-10-2019 06:38:17 -1.8 C 41 %
3215 31-10-2019 06:48:17 -1.9 C 41 %
3216 31-10-2019 06:58:17 -2.1 C 41 %
3217 31-10-2019 07:08:17 -1.9 C 41 %
3218 31-10-2019 07:18:17 -2 C 41 %
3219 31-10-2019 07:28:17 -1.9 C 41 %
3220 31-10-2019 07:38:17 -2 C 41 %
3221 31-10-2019 07:48:17 -2 C 41 %
3222 31-10-2019 07:58:17 -1.9 C 41 %
3223 31-10-2019 08:08:17 -2 C 41 %
3224 31-10-2019 08:18:17 -1.6 C 41 %
3225 31-10-2019 08:28:17 -1.5 C 41 %
Sensor: Nr:Datum:Temp:Feuchte:
Aussen-T/F 3226 31-10-2019 08:38:17 -1.1 C 42 %
3227 31-10-2019 08:48:17 -1.3 C 41 %
3228 31-10-2019 08:58:17 -1.2 C 41 %
3229 31-10-2019 09:08:17 -0.8 C 41 %
3230 31-10-2019 09:18:17 -0.8 C 41 %
3231 31-10-2019 09:28:17 -0.7 C 41 %
3232 31-10-2019 09:38:17 -0.5 C 41 %
3233 31-10-2019 09:48:17 -0.5 C 41 %
3234 31-10-2019 09:58:17 -0.3 C 41 %
3235 31-10-2019 10:08:17 -0.2 C 41 %
3236 31-10-2019 10:18:17 0.2 C 41 %
3237 31-10-2019 10:28:17 0.3 C 41 %
3238 31-10-2019 10:38:17 0.7 C 41 %
3239 31-10-2019 10:48:18 1.7 C 41 %
3240 31-10-2019 10:58:18 1.7 C 39 %
3241 31-10-2019 11:08:17 1.9 C 38 %
3242 31-10-2019 11:18:17 2.2 C 37 %
3243 31-10-2019 11:28:17 2.4 C 36 %
3244 31-10-2019 11:38:17 2.7 C 36 %
3245 31-10-2019 11:48:17 3.1 C 33 %
3246 31-10-2019 11:58:17 3.2 C 32 %
3247 31-10-2019 12:08:17 3.4 C 32 %
3248 31-10-2019 12:18:17 3.6 C 32 %
3249 31-10-2019 12:28:17 4.2 C 30 %
3250 31-10-2019 12:38:17 5.4 C 26 %
Sensor: Nr:Datum:Temp:Feuchte:
Aussen-T/F 3251 31-10-2019 12:48:18 7.6 C 20 %
3252 31-10-2019 12:58:18 9.7 C 20 %
3253 31-10-2019 13:08:17 8.3 C 20 %
3254 31-10-2019 13:18:17 6.8 C 20 %
3255 31-10-2019 13:28:17 6.5 C 20 %
3256 31-10-2019 13:38:17 6 C 20 %
3257 31-10-2019 13:48:17 6.4 C 20 %
3258 31-10-2019 13:58:17 6 C 20 %
3259 31-10-2019 14:08:18 6 C 20 %
3260 31-10-2019 14:18:17 6.8 C 20 %
3261 31-10-2019 14:28:17 7.5 C 20 %
3262 31-10-2019 14:38:17 7.1 C 20 %
3263 31-10-2019 14:48:17 7.6 C 20 %
3264 31-10-2019 14:58:17 7.6 C 20 %
3265 31-10-2019 15:08:17 7.4 C 20 %
3266 31-10-2019 15:18:17 7 C 20 %
3267 31-10-2019 15:28:17 7.3 C 20 %
3268 31-10-2019 15:38:18 7.8 C 20 %
3269 31-10-2019 15:48:17 7.7 C 20 %
3270 31-10-2019 15:58:17 7.9 C 20 %
3271 31-10-2019 16:08:17 7.6 C 20 %
3272 31-10-2019 16:18:17 7.4 C 20 %
3273 31-10-2019 16:28:17 6.1 C 20 %
3274 31-10-2019 16:38:17 5.7 C 20 %
3275 31-10-2019 16:48:17 4.8 C 21 %
Sensor: Nr:Datum:Temp:Feuchte:
Aussen-T/F 3276 31-10-2019 16:58:17 4.5 C 21 %
3277 31-10-2019 17:08:17 4.1 C 23 %
3278 31-10-2019 17:18:17 3.8 C 26 %
3279 31-10-2019 17:28:17 3.6 C 26 %
3280 31-10-2019 17:38:18 3.2 C 26 %
3281 31-10-2019 17:48:17 2.9 C 27 %
3282 31-10-2019 17:58:17 2.8 C 27 %
3283 31-10-2019 18:08:17 2.5 C 29 %
3284 31-10-2019 18:18:17 2.2 C 28 %
3285 31-10-2019 18:28:17 2.2 C 29 %
3286 31-10-2019 18:38:18 2.2 C 29 %
3287 31-10-2019 18:48:17 2.1 C 30 %
3288 31-10-2019 18:58:17 1.9 C 30 %
3289 31-10-2019 19:08:17 2.1 C 30 %
3290 31-10-2019 19:18:17 1.7 C 31 %
3291 31-10-2019 19:28:17 1.8 C 32 %
3292 31-10-2019 19:38:17 1.6 C 31 %
3293 31-10-2019 19:48:18 1.4 C 32 %
3294 31-10-2019 19:58:18 1.3 C 33 %
3295 31-10-2019 20:08:17 1 C 34 %
3296 31-10-2019 20:18:17 1 C 35 %
3297 31-10-2019 20:28:17 0.8 C 36 %
3298 31-10-2019 20:38:17 0.8 C 36 %
3299 31-10-2019 20:48:18 0.7 C 37 %
3300 31-10-2019 20:58:18 0.6 C 38 %
Sensor: Nr:Datum:Temp:Feuchte:
Aussen-T/F 3301 31-10-2019 21:08:17 0.5 C 38 %
3302 31-10-2019 21:18:17 0.5 C 38 %
3303 31-10-2019 21:28:17 0.3 C 38 %
3304 31-10-2019 21:38:17 0.2 C 39 %
3305 31-10-2019 21:48:18 0.4 C 40 %
3306 31-10-2019 21:58:18 0.5 C 40 %
3307 31-10-2019 22:08:17 0.5 C 40 %
3308 31-10-2019 22:18:17 0.4 C 40 %
3309 31-10-2019 22:28:17 0.1 C 39 %
3310 31-10-2019 22:38:17 0 C 39 %
3311 31-10-2019 22:48:17 0.1 C 40 %
3312 31-10-2019 22:58:17 0.1 C 40 %
3313 31-10-2019 23:08:17 0.4 C 41 %
3314 31-10-2019 23:18:17 0.4 C 40 %
3315 31-10-2019 23:28:17 0 C 38 %
3316 31-10-2019 23:38:17 0 C 40 %
3317 31-10-2019 23:48:17 0 C 40 %
3318 31-10-2019 23:58:17 -0.2 C 40 %
3319 01-11-2019 00:08:18 -0.4 C 40 %
3320 01-11-2019 00:18:17 -0.5 C 40 %
3321 01-11-2019 00:28:17 -0.5 C 41 %
3322 01-11-2019 00:38:17 -0.4 C 41 %
3323 01-11-2019 00:48:18 -0.6 C 41 %
3324 01-11-2019 00:58:18 -0.6 C 42 %
3325 01-11-2019 01:08:18 -0.7 C 41 %
Sensor: Nr:Datum:Temp:Feuchte:
Aussen-T/F 3326 01-11-2019 01:18:17 -0.6 C 41 %
3327 01-11-2019 01:28:17 -0.6 C 41 %
3328 01-11-2019 01:38:17 -0.7 C 41 %
3329 01-11-2019 01:48:17 -0.7 C 41 %
3330 01-11-2019 01:58:17 -0.7 C 41 %
3331 01-11-2019 02:08:17 -0.7 C 41 %
3332 01-11-2019 02:18:17 -0.6 C 41 %
3333 01-11-2019 02:28:17 -0.7 C 41 %
3334 01-11-2019 02:38:17 -0.6 C 42 %
3335 01-11-2019 02:48:18 -0.6 C 42 %
3336 01-11-2019 02:58:18 -0.6 C 42 %
3337 01-11-2019 03:08:17 -0.7 C 41 %
3338 01-11-2019 03:18:17 -0.7 C 41 %
3339 01-11-2019 03:28:17 -0.7 C 41 %
3340 01-11-2019 03:38:17 -0.7 C 41 %
3341 01-11-2019 03:48:17 -0.7 C 42 %
3342 01-11-2019 03:58:17 -0.2 C 42 %
3343 01-11-2019 04:08:17 0 C 42 %
3344 01-11-2019 04:18:17 0.3 C 42 %
3345 01-11-2019 04:28:17 0.5 C 43 %
3346 01-11-2019 04:38:17 0.8 C 43 %
3347 01-11-2019 04:48:17 1 C 41 %
3348 01-11-2019 04:58:17 1.2 C 41 %
3349 01-11-2019 05:08:17 1.5 C 41 %
3350 01-11-2019 05:18:17 1.6 C 41 %
Sensor: Nr:Datum:Temp:Feuchte:
Aussen-T/F 3351 01-11-2019 05:28:17 1.7 C 41 %
3352 01-11-2019 05:38:17 1.9 C 40 %
3353 01-11-2019 05:48:17 2 C 39 %
3354 01-11-2019 05:58:17 2.1 C 39 %
3355 01-11-2019 06:08:17 2.3 C 38 %
3356 01-11-2019 06:18:17 2.3 C 36 %
3357 01-11-2019 06:28:17 2.4 C 36 %
3358 01-11-2019 06:38:18 2.5 C 37 %
3359 01-11-2019 06:48:17 2.5 C 37 %
3360 01-11-2019 06:58:17 2.7 C 37 %
3361 01-11-2019 07:08:17 2.7 C 37 %
3362 01-11-2019 07:18:17 2.8 C 37 %
3363 01-11-2019 07:28:17 3 C 36 %
3364 01-11-2019 07:38:17 3.2 C 37 %
3365 01-11-2019 07:48:17 3.3 C 37 %
3366 01-11-2019 07:58:17 3.4 C 37 %
3367 01-11-2019 08:08:18 3.5 C 38 %
3368 01-11-2019 08:18:17 3.6 C 39 %
3369 01-11-2019 08:28:17 3.8 C 40 %
3370 01-11-2019 08:38:17 4.1 C 40 %
3371 01-11-2019 08:48:17 4.3 C 40 %
3372 01-11-2019 08:58:17 4.5 C 39 %
3373 01-11-2019 09:08:18 4.7 C 40 %
3374 01-11-2019 09:18:17 4.8 C 40 %
3375 01-11-2019 09:28:17 4.9 C 38 %
Sensor: Nr:Datum:Temp:Feuchte:
Aussen-T/F 3376 01-11-2019 09:38:17 5.2 C 37 %
3377 01-11-2019 09:48:17 5.5 C 39 %
3378 01-11-2019 09:58:17 5.6 C 37 %
3379 01-11-2019 10:08:17 5.8 C 33 %
3380 01-11-2019 10:18:17 6.3 C 32 %
3381 01-11-2019 10:28:17 6.5 C 32 %
3382 01-11-2019 10:38:18 6.9 C 33 %
3383 01-11-2019 10:48:17 7.3 C 31 %
3384 01-11-2019 10:58:17 7.4 C 30 %
3385 01-11-2019 11:08:17 7.4 C 26 %
3386 01-11-2019 11:18:17 7.3 C 26 %
3387 01-11-2019 11:28:17 7.2 C 26 %
3388 01-11-2019 11:38:17 7.6 C 26 %
3389 01-11-2019 11:48:17 7.9 C 25 %
3390 01-11-2019 11:58:17 8 C 26 %
3391 01-11-2019 12:08:17 8.1 C 26 %
3392 01-11-2019 12:18:17 8.5 C 26 %
3393 01-11-2019 12:28:17 8.1 C 25 %
3394 01-11-2019 12:38:17 8 C 25 %
3395 01-11-2019 12:48:17 8 C 25 %
3396 01-11-2019 12:58:17 7.8 C 26 %
3397 01-11-2019 13:08:18 7.9 C 26 %
3398 01-11-2019 13:18:17 8.3 C 27 %
3399 01-11-2019 13:28:17 8.3 C 26 %
3400 01-11-2019 13:38:17 8.1 C 27 %
Sensor: Nr:Datum:Temp:Feuchte:
Aussen-T/F 3401 01-11-2019 13:48:17 7.9 C 30 %
3402 01-11-2019 13:58:17 7.9 C 30 %
3403 01-11-2019 14:08:17 8 C 31 %
3404 01-11-2019 14:18:17 8 C 31 %
3405 01-11-2019 14:28:17 8.1 C 32 %
3406 01-11-2019 14:38:17 8.1 C 33 %
3407 01-11-2019 14:48:17 8.1 C 33 %
3408 01-11-2019 14:58:17 8.1 C 33 %
3409 01-11-2019 15:08:18 8.1 C 34 %
3410 01-11-2019 15:18:17 8 C 35 %
3411 01-11-2019 15:28:17 8 C 35 %
3412 01-11-2019 15:38:17 8 C 36 %
3413 01-11-2019 15:48:17 8 C 36 %
3414 01-11-2019 15:58:17 8.1 C 36 %
3415 01-11-2019 16:08:18 8 C 36 %
3416 01-11-2019 16:18:17 8.1 C 38 %
3417 01-11-2019 16:28:17 8.1 C 38 %
3418 01-11-2019 16:38:17 8.1 C 38 %
3419 01-11-2019 16:48:17 8.1 C 38 %
3420 01-11-2019 16:58:17 8.1 C 38 %
3421 01-11-2019 17:08:17 8 C 39 %
3422 01-11-2019 17:18:17 8.2 C 39 %
3423 01-11-2019 17:28:17 8.1 C 39 %
3424 01-11-2019 17:38:17 8.1 C 38 %
3425 01-11-2019 17:48:17 8.1 C 38 %
Sensor: Nr:Datum:Temp:Feuchte:
Aussen-T/F 3426 01-11-2019 17:58:17 8.2 C 38 %
3427 01-11-2019 18:08:17 8.2 C 38 %
3428 01-11-2019 18:18:17 8.1 C 38 %
3429 01-11-2019 18:28:17 8.1 C 38 %
3430 01-11-2019 18:38:17 8.1 C 38 %
3431 01-11-2019 18:48:17 8.1 C 38 %
3432 01-11-2019 18:58:17 8.1 C 39 %
3433 01-11-2019 19:08:17 8.1 C 39 %
3434 01-11-2019 19:18:17 8.2 C 39 %
3435 01-11-2019 19:28:17 8.2 C 39 %
3436 01-11-2019 19:38:17 8.3 C 39 %
3437 01-11-2019 19:48:17 8.3 C 38 %
3438 01-11-2019 19:58:17 8.3 C 38 %
3439 01-11-2019 20:08:17 8.4 C 38 %
3440 01-11-2019 20:18:17 8.4 C 38 %
3441 01-11-2019 20:28:17 8.5 C 38 %
3442 01-11-2019 20:38:17 8.6 C 38 %
3443 01-11-2019 20:48:17 8.6 C 38 %
3444 01-11-2019 20:58:18 8.9 C 38 %
3445 01-11-2019 21:08:17 8.9 C 38 %
3446 01-11-2019 21:18:17 8.9 C 38 %
3447 01-11-2019 21:28:17 9 C 38 %
3448 01-11-2019 21:38:17 9.1 C 38 %
3449 01-11-2019 21:48:17 9.2 C 38 %
3450 01-11-2019 21:58:17 9.2 C 38 %
Sensor: Nr:Datum:Temp:Feuchte:
Aussen-T/F 3451 01-11-2019 22:08:17 9.4 C 38 %
3452 01-11-2019 22:18:17 9.5 C 38 %
3453 01-11-2019 22:28:17 9.7 C 38 %
3454 01-11-2019 22:38:17 9.5 C 38 %
3455 01-11-2019 22:48:17 9.7 C 38 %
3456 01-11-2019 22:58:17 9.7 C 38 %
3457 01-11-2019 23:08:17 9.7 C 38 %
3458 01-11-2019 23:18:17 9.8 C 38 %
3459 01-11-2019 23:28:17 9.9 C 38 %
3460 01-11-2019 23:38:17 9.9 C 38 %
3461 01-11-2019 23:48:17 9.9 C 38 %
3462 01-11-2019 23:58:17 10 C 37 %
3463 02-11-2019 00:08:17 10.4 C 37 %
3464 02-11-2019 00:18:17 10.7 C 37 %
3465 02-11-2019 00:28:17 10.8 C 37 %
3466 02-11-2019 00:38:17 10.8 C 37 %
3467 02-11-2019 00:48:17 10.8 C 37 %
3468 02-11-2019 00:58:17 11 C 36 %
3469 02-11-2019 01:08:17 11.3 C 36 %
3470 02-11-2019 01:18:17 11.4 C 36 %
3471 02-11-2019 01:28:17 11.4 C 36 %
3472 02-11-2019 01:38:17 11.4 C 36 %
3473 02-11-2019 01:48:17 11.4 C 36 %
3474 02-11-2019 01:58:17 11.3 C 36 %
3475 02-11-2019 02:08:17 11.4 C 36 %
Sensor: Nr:Datum:Temp:Feuchte:
Aussen-T/F 3476 02-11-2019 02:18:17 11.3 C 36 %
3477 02-11-2019 02:28:17 11.3 C 36 %
3478 02-11-2019 02:38:17 11.3 C 36 %
3479 02-11-2019 02:48:17 11.6 C 36 %
3480 02-11-2019 02:58:17 11.6 C 36 %
3481 02-11-2019 03:08:17 11.3 C 36 %
3482 02-11-2019 03:18:17 11.7 C 36 %
3483 02-11-2019 03:28:17 12 C 36 %
3484 02-11-2019 03:38:17 11.6 C 36 %
3485 02-11-2019 03:48:17 11.4 C 35 %
3486 02-11-2019 03:58:17 11.3 C 35 %
3487 02-11-2019 04:08:17 11.5 C 35 %
3488 02-11-2019 04:18:17 11.3 C 36 %
3489 02-11-2019 04:28:17 11.6 C 36 %
3490 02-11-2019 04:38:17 11.7 C 36 %
3491 02-11-2019 04:48:17 11.5 C 36 %
3492 02-11-2019 04:58:17 12 C 36 %
3493 02-11-2019 05:08:17 11.9 C 36 %
3494 02-11-2019 05:18:17 12 C 36 %
3495 02-11-2019 05:28:17 12.1 C 36 %
3496 02-11-2019 05:38:17 12.1 C 36 %
3497 02-11-2019 05:48:17 12.1 C 36 %
3498 02-11-2019 05:58:17 12.1 C 36 %
3499 02-11-2019 06:08:18 12.3 C 36 %
3500 02-11-2019 06:18:17 12.4 C 36 %
Sensor: Nr:Datum:Temp:Feuchte:
Aussen-T/F 3501 02-11-2019 06:28:17 12.5 C 36 %
3502 02-11-2019 06:38:17 12.8 C 38 %
3503 02-11-2019 06:48:17 13.4 C 36 %
3504 02-11-2019 06:58:17 13.1 C 34 %
3505 02-11-2019 07:08:17 12.8 C 34 %
3506 02-11-2019 07:18:17 12.8 C 34 %
3507 02-11-2019 07:28:17 12.8 C 34 %
3508 02-11-2019 07:38:18 13 C 34 %
3509 02-11-2019 07:48:17 13.1 C 34 %
3510 02-11-2019 07:58:17 13.2 C 34 %
3511 02-11-2019 08:08:17 13.2 C 33 %
3512 02-11-2019 08:18:17 13.2 C 33 %
3513 02-11-2019 08:28:17 13.4 C 34 %
3514 02-11-2019 08:38:17 13.4 C 34 %
3515 02-11-2019 08:48:18 13.4 C 33 %
3516 02-11-2019 08:58:18 13.6 C 33 %
3517 02-11-2019 09:08:17 14.1 C 32 %
3518 02-11-2019 09:18:17 14.2 C 31 %
3519 02-11-2019 09:28:17 14.7 C 25 %
3520 02-11-2019 09:38:17 15 C 21 %
3521 02-11-2019 09:48:18 15.6 C 20 %
3522 02-11-2019 09:58:18 15 C 20 %
3523 02-11-2019 10:08:17 15 C 21 %
3524 02-11-2019 10:18:17 15 C 21 %
3525 02-11-2019 10:28:17 15 C 21 %
Sensor: Nr:Datum:Temp:Feuchte:
Aussen-T/F 3526 02-11-2019 10:38:17 14.3 C 25 %
3527 02-11-2019 10:48:17 15.1 C 21 %
3528 02-11-2019 10:58:17 15.6 C 20 %
3529 02-11-2019 11:08:17 15.7 C 20 %
3530 02-11-2019 11:18:17 15.7 C 20 %
3531 02-11-2019 11:28:17 16 C 20 %
3532 02-11-2019 11:38:17 16.2 C 20 %
3533 02-11-2019 11:48:17 16.2 C 20 %
3534 02-11-2019 11:58:17 16.3 C 20 %
3535 02-11-2019 12:08:17 16.5 C 20 %
3536 02-11-2019 12:18:17 16.6 C 20 %
3537 02-11-2019 12:28:17 16.3 C 20 %
3538 02-11-2019 12:38:17 16.4 C 20 %
3539 02-11-2019 12:48:17 16.6 C 20 %
3540 02-11-2019 12:58:17 16.6 C 20 %
3541 02-11-2019 13:08:17 16.2 C 20 %
3542 02-11-2019 13:18:17 16.6 C 20 %
3543 02-11-2019 13:28:17 16.4 C 20 %
3544 02-11-2019 13:38:17 16.2 C 20 %
3545 02-11-2019 13:48:18 16.1 C 20 %
3546 02-11-2019 13:58:18 16.1 C 20 %
3547 02-11-2019 14:08:17 16.2 C 20 %
3548 02-11-2019 14:18:17 16.6 C 20 %
3549 02-11-2019 14:28:17 16.4 C 20 %
3550 02-11-2019 14:38:17 16.1 C 20 %
Sensor: Nr:Datum:Temp:Feuchte:
Aussen-T/F 3551 02-11-2019 14:48:18 16.1 C 20 %
3552 02-11-2019 14:58:18 15.6 C 20 %
3553 02-11-2019 15:08:17 15.3 C 20 %
3554 02-11-2019 15:18:17 15 C 20 %
3555 02-11-2019 15:28:17 14.8 C 20 %
3556 02-11-2019 15:38:17 14.5 C 20 %
3557 02-11-2019 15:48:17 14.5 C 20 %
3558 02-11-2019 15:58:17 14.5 C 20 %
3559 02-11-2019 16:08:17 14.3 C 20 %
3560 02-11-2019 16:18:17 14.4 C 20 %
3561 02-11-2019 16:28:17 14.5 C 20 %
3562 02-11-2019 16:38:17 14.3 C 20 %
3563 02-11-2019 16:48:17 14.7 C 20 %
3564 02-11-2019 16:58:17 14.3 C 20 %
3565 02-11-2019 17:08:17 14.6 C 20 %
3566 02-11-2019 17:18:17 14.1 C 20 %
3567 02-11-2019 17:28:17 12.2 C 20 %
3568 02-11-2019 17:38:17 11.7 C 27 %
3569 02-11-2019 17:48:17 11.6 C 25 %
3570 02-11-2019 17:58:18 11.5 C 25 %
3571 02-11-2019 18:08:17 11.3 C 26 %
3572 02-11-2019 18:18:17 11 C 27 %
3573 02-11-2019 18:28:17 10.7 C 28 %
3574 02-11-2019 18:38:17 10.7 C 30 %
3575 02-11-2019 18:48:17 10.7 C 30 %
Sensor: Nr:Datum:Temp:Feuchte:
Aussen-T/F 3576 02-11-2019 18:58:17 10.7 C 30 %
3577 02-11-2019 19:08:17 10.6 C 30 %
3578 02-11-2019 19:18:17 10.8 C 30 %
3579 02-11-2019 19:28:17 11 C 29 %
3580 02-11-2019 19:38:17 11 C 26 %
3581 02-11-2019 19:48:17 10.7 C 28 %
3582 02-11-2019 19:58:17 10.7 C 30 %
3583 02-11-2019 20:08:18 10.5 C 29 %
3584 02-11-2019 20:18:17 10.7 C 27 %
3585 02-11-2019 20:28:17 10.7 C 27 %
3586 02-11-2019 20:38:17 10.8 C 26 %
3587 02-11-2019 20:48:17 11.1 C 25 %
3588 02-11-2019 20:58:17 10.6 C 26 %
3589 02-11-2019 21:08:18 10.7 C 25 %
3590 02-11-2019 21:18:18 10.7 C 23 %
3591 02-11-2019 21:28:18 10.5 C 23 %
3592 02-11-2019 21:38:17 10.4 C 22 %
3593 02-11-2019 21:48:17 10.5 C 23 %
3594 02-11-2019 21:58:17 10.2 C 25 %
3595 02-11-2019 22:08:17 10.2 C 25 %
3596 02-11-2019 22:18:17 10.5 C 22 %
3597 02-11-2019 22:28:17 10.4 C 22 %
3598 02-11-2019 22:38:17 10.1 C 25 %
3599 02-11-2019 22:48:18 10.1 C 23 %
3600 02-11-2019 22:58:18 9.8 C 26 %
Sensor: Nr:Datum:Temp:Feuchte:
Aussen-T/F 3601 02-11-2019 23:08:17 9.6 C 27 %
3602 02-11-2019 23:18:17 9.6 C 27 %
3603 02-11-2019 23:28:17 9.8 C 26 %
3604 02-11-2019 23:38:17 10.6 C 20 %
3605 02-11-2019 23:48:17 10.9 C 20 %
3606 02-11-2019 23:58:17 10.2 C 20 %
3607 03-11-2019 00:08:17 9.8 C 21 %
3608 03-11-2019 00:18:18 9.6 C 25 %
3609 03-11-2019 00:28:18 9.6 C 25 %
3610 03-11-2019 00:38:17 9.2 C 26 %
3611 03-11-2019 00:48:17 9.3 C 26 %
3612 03-11-2019 00:58:17 9.3 C 26 %
3613 03-11-2019 01:08:17 9.7 C 26 %
3614 03-11-2019 01:18:17 9.8 C 25 %
3615 03-11-2019 01:28:17 9.9 C 25 %
3616 03-11-2019 01:38:17 10 C 25 %
3617 03-11-2019 01:48:17 9.7 C 26 %
3618 03-11-2019 01:58:17 9.7 C 26 %
3619 03-11-2019 02:08:17 9.3 C 27 %
3620 03-11-2019 02:18:17 9.3 C 27 %
3621 03-11-2019 02:28:17 8.9 C 30 %
3622 03-11-2019 02:38:17 9 C 30 %
3623 03-11-2019 02:48:17 9.2 C 30 %
3624 03-11-2019 02:58:17 9.2 C 30 %
3625 03-11-2019 03:08:17 9 C 33 %
Sensor: Nr:Datum:Temp:Feuchte:
Aussen-T/F 3626 03-11-2019 03:18:17 9.2 C 31 %
3627 03-11-2019 03:28:17 9.2 C 31 %
3628 03-11-2019 03:38:17 9.1 C 33 %
3629 03-11-2019 03:48:18 9.2 C 35 %
3630 03-11-2019 03:58:18 9.3 C 34 %
3631 03-11-2019 04:08:17 9.5 C 32 %
3632 03-11-2019 04:18:17 9.5 C 33 %
3633 03-11-2019 04:28:17 9.4 C 35 %
3634 03-11-2019 04:38:17 9.4 C 36 %
3635 03-11-2019 04:48:17 9.3 C 36 %
3636 03-11-2019 04:58:17 9.3 C 36 %
3637 03-11-2019 05:08:18 9.4 C 37 %
3638 03-11-2019 05:18:17 9.4 C 36 %
3639 03-11-2019 05:28:17 9.4 C 36 %
3640 03-11-2019 05:38:17 9.4 C 37 %
3641 03-11-2019 05:48:18 9.4 C 37 %
3642 03-11-2019 05:58:18 9.5 C 37 %
3643 03-11-2019 06:08:17 9.5 C 37 %
3644 03-11-2019 06:18:17 9.6 C 37 %
3645 03-11-2019 06:28:17 9.7 C 36 %
3646 03-11-2019 06:38:17 9.7 C 36 %
3647 03-11-2019 06:48:17 9.6 C 36 %
3648 03-11-2019 06:58:18 9.7 C 36 %
3649 03-11-2019 07:08:17 9.7 C 36 %
3650 03-11-2019 07:18:17 9.6 C 36 %
Sensor: Nr:Datum:Temp:Feuchte:
Aussen-T/F 3651 03-11-2019 07:28:17 9.5 C 38 %
3652 03-11-2019 07:38:17 9.6 C 38 %
3653 03-11-2019 07:48:17 9.4 C 37 %
3654 03-11-2019 07:58:17 9.3 C 37 %
3655 03-11-2019 08:08:17 9.6 C 38 %
3656 03-11-2019 08:18:17 9.8 C 38 %
3657 03-11-2019 08:28:17 9.9 C 38 %
3658 03-11-2019 08:38:17 9.9 C 38 %
3659 03-11-2019 08:48:17 10.1 C 37 %
3660 03-11-2019 08:58:17 10.4 C 37 %
3661 03-11-2019 09:08:17 10.6 C 37 %
3662 03-11-2019 09:18:17 10.7 C 37 %
3663 03-11-2019 09:28:17 10.8 C 36 %
3664 03-11-2019 09:38:17 10.8 C 36 %
3665 03-11-2019 09:48:17 11.4 C 34 %
3666 03-11-2019 09:58:17 11.8 C 30 %
3667 03-11-2019 10:08:17 12.1 C 26 %
3668 03-11-2019 10:18:17 12.1 C 26 %
3669 03-11-2019 10:28:17 12.4 C 26 %
3670 03-11-2019 10:38:18 12.3 C 26 %
3671 03-11-2019 10:48:17 12.5 C 25 %
3672 03-11-2019 10:58:17 12.6 C 25 %
3673 03-11-2019 11:08:17 13.2 C 21 %
3674 03-11-2019 11:18:17 14 C 20 %
3675 03-11-2019 11:28:17 14 C 20 %
Sensor: Nr:Datum:Temp:Feuchte:
Aussen-T/F 3676 03-11-2019 11:38:17 14.3 C 20 %
3677 03-11-2019 11:48:17 14.2 C 20 %
3678 03-11-2019 11:58:17 14.9 C 20 %
3679 03-11-2019 12:08:17 15 C 20 %
3680 03-11-2019 12:18:17 15.2 C 20 %
3681 03-11-2019 12:28:17 15.4 C 20 %
3682 03-11-2019 12:38:17 15.5 C 20 %
3683 03-11-2019 12:48:17 16.8 C 20 %
3684 03-11-2019 12:58:17 15.8 C 20 %
3685 03-11-2019 13:08:17 16.3 C 20 %
3686 03-11-2019 13:18:17 16.4 C 20 %
3687 03-11-2019 13:28:17 15.6 C 20 %
3688 03-11-2019 13:38:17 16 C 20 %
3689 03-11-2019 13:48:17 16.4 C 20 %
3690 03-11-2019 13:58:17 16.5 C 20 %
3691 03-11-2019 14:08:17 16.8 C 20 %
3692 03-11-2019 14:18:17 15.8 C 20 %
3693 03-11-2019 14:28:17 15.9 C 20 %
3694 03-11-2019 14:38:17 15.8 C 20 %
3695 03-11-2019 14:48:17 16 C 20 %
3696 03-11-2019 14:58:17 15.9 C 20 %
3697 03-11-2019 15:08:17 15.6 C 20 %
3698 03-11-2019 15:18:17 14.9 C 20 %
3699 03-11-2019 15:28:17 14.8 C 20 %
3700 03-11-2019 15:38:17 14.6 C 20 %
Sensor: Nr:Datum:Temp:Feuchte:
Aussen-T/F 3701 03-11-2019 15:48:17 14.2 C 20 %
3702 03-11-2019 15:58:17 14 C 20 %
3703 03-11-2019 16:08:17 13.8 C 20 %
3704 03-11-2019 16:18:17 13.7 C 20 %
3705 03-11-2019 16:28:17 13.5 C 20 %
3706 03-11-2019 16:38:17 13.5 C 20 %
3707 03-11-2019 16:48:17 12.9 C 25 %
3708 03-11-2019 16:58:17 12.8 C 25 %
3709 03-11-2019 17:08:18 12.6 C 25 %
3710 03-11-2019 17:18:17 12.6 C 25 %
3711 03-11-2019 17:28:17 11.9 C 30 %
3712 03-11-2019 17:38:17 11.8 C 31 %
3713 03-11-2019 17:48:17 11.7 C 33 %
3714 03-11-2019 17:58:17 11.7 C 35 %
3715 03-11-2019 18:08:17 11.7 C 35 %
3716 03-11-2019 18:18:17 11.4 C 37 %
3717 03-11-2019 18:28:17 11.5 C 37 %
3718 03-11-2019 18:38:18 11.5 C 37 %
3719 03-11-2019 18:48:17 11.4 C 37 %
3720 03-11-2019 18:58:17 11.3 C 37 %
3721 03-11-2019 19:08:17 11.2 C 37 %
3722 03-11-2019 19:18:17 11.1 C 37 %
3723 03-11-2019 19:28:17 11 C 37 %
3724 03-11-2019 19:38:17 10.7 C 37 %
3725 03-11-2019 19:48:18 10.5 C 37 %
Sensor: Nr:Datum:Temp:Feuchte:
Aussen-T/F 3726 03-11-2019 19:58:18 10.4 C 37 %
3727 03-11-2019 20:08:17 10.4 C 37 %
3728 03-11-2019 20:18:17 10.4 C 37 %
3729 03-11-2019 20:28:17 10.4 C 37 %
3730 03-11-2019 20:38:17 10.4 C 37 %
3731 03-11-2019 20:48:18 10.4 C 37 %
3732 03-11-2019 20:58:18 10.2 C 37 %
3733 03-11-2019 21:08:17 10.3 C 37 %
3734 03-11-2019 21:18:17 10.3 C 35 %
3735 03-11-2019 21:28:17 10.4 C 34 %
3736 03-11-2019 21:38:17 10.4 C 32 %
3737 03-11-2019 21:48:18 10.4 C 32 %
3738 03-11-2019 21:58:18 10.4 C 32 %
3739 03-11-2019 22:08:17 10.5 C 31 %
3740 03-11-2019 22:18:17 10.3 C 31 %
3741 03-11-2019 22:28:17 10.4 C 32 %
3742 03-11-2019 22:38:17 10.3 C 34 %
3743 03-11-2019 22:48:17 10.1 C 34 %
3744 03-11-2019 22:58:17 9.8 C 36 %
3745 03-11-2019 23:08:18 10 C 36 %
3746 03-11-2019 23:18:17 10.1 C 35 %
3747 03-11-2019 23:28:18 10.5 C 32 %
3748 03-11-2019 23:38:17 11.1 C 26 %
3749 03-11-2019 23:48:17 11.1 C 26 %
3750 03-11-2019 23:58:17 11.2 C 26 %
Sensor: Nr:Datum:Temp:Feuchte:
Aussen-T/F 3751 04-11-2019 00:08:17 10.7 C 28 %
3752 04-11-2019 00:18:17 10.6 C 29 %
3753 04-11-2019 00:28:17 10.7 C 25 %
3754 04-11-2019 00:38:18 10.8 C 25 %
3755 04-11-2019 00:48:17 10.7 C 25 %
3756 04-11-2019 00:58:17 10.9 C 25 %
3757 04-11-2019 01:08:17 10.7 C 25 %
3758 04-11-2019 01:18:17 10.8 C 25 %
3759 04-11-2019 01:28:17 10.8 C 25 %
3760 04-11-2019 01:38:17 10.2 C 27 %
3761 04-11-2019 01:48:17 10 C 29 %
3762 04-11-2019 01:58:18 9.7 C 33 %
3763 04-11-2019 02:08:17 9.6 C 32 %
3764 04-11-2019 02:18:17 8.9 C 35 %
3765 04-11-2019 02:28:17 9 C 35 %
3766 04-11-2019 02:38:17 9 C 35 %
3767 04-11-2019 02:48:18 9.3 C 30 %
3768 04-11-2019 02:58:18 9.5 C 29 %
3769 04-11-2019 03:08:17 9.8 C 27 %
3770 04-11-2019 03:18:17 9.6 C 28 %
3771 04-11-2019 03:28:17 9.3 C 31 %
3772 04-11-2019 03:38:17 9.3 C 32 %
3773 04-11-2019 03:48:17 9.3 C 35 %
3774 04-11-2019 03:58:17 9.3 C 35 %
3775 04-11-2019 04:08:17 9.3 C 35 %
Sensor: Nr:Datum:Temp:Feuchte:
Aussen-T/F 3776 04-11-2019 04:18:17 9.6 C 31 %
3777 04-11-2019 04:28:17 9.7 C 33 %
3778 04-11-2019 04:38:17 9.5 C 35 %
3779 04-11-2019 04:48:17 9.5 C 37 %
3780 04-11-2019 04:58:17 9.5 C 36 %
3781 04-11-2019 05:08:17 9.5 C 36 %
3782 04-11-2019 05:18:17 9.7 C 36 %
3783 04-11-2019 05:28:17 10.1 C 30 %
3784 04-11-2019 05:38:17 10.1 C 30 %
3785 04-11-2019 05:48:17 9.7 C 31 %
3786 04-11-2019 05:58:17 9.1 C 32 %
3787 04-11-2019 06:08:18 8.9 C 37 %
3788 04-11-2019 06:18:17 8.8 C 37 %
3789 04-11-2019 06:28:17 8.8 C 36 %
3790 04-11-2019 06:38:17 9.1 C 35 %
3791 04-11-2019 06:48:18 9 C 35 %
3792 04-11-2019 06:58:18 8.6 C 34 %
3793 04-11-2019 07:08:17 8.6 C 35 %
3794 04-11-2019 07:18:17 8.4 C 32 %
3795 04-11-2019 07:28:17 8.4 C 34 %
3796 04-11-2019 07:38:17 9 C 30 %
3797 04-11-2019 07:48:17 9 C 30 %
3798 04-11-2019 07:58:17 8.5 C 31 %
3799 04-11-2019 08:08:18 8.7 C 33 %
3800 04-11-2019 08:18:17 8.7 C 35 %
Sensor: Nr:Datum:Temp:Feuchte:
Aussen-T/F 3801 04-11-2019 08:28:17 8.7 C 35 %
3802 04-11-2019 08:38:17 9.4 C 35 %
3803 04-11-2019 08:48:17 9.6 C 34 %
3804 04-11-2019 08:58:17 9.6 C 33 %
3805 04-11-2019 09:08:17 9.5 C 26 %
3806 04-11-2019 09:18:17 9.5 C 28 %
3807 04-11-2019 09:28:17 9.6 C 28 %
3808 04-11-2019 09:38:17 9.7 C 29 %
3809 04-11-2019 09:48:17 10 C 26 %
3810 04-11-2019 09:58:17 10.5 C 25 %
3811 04-11-2019 10:08:17 11.1 C 23 %
3812 04-11-2019 10:18:17 11.1 C 22 %
3813 04-11-2019 10:28:17 11.1 C 22 %
3814 04-11-2019 10:38:17 10.6 C 25 %
3815 04-11-2019 10:48:17 10.4 C 26 %
3816 04-11-2019 10:58:17 10.4 C 26 %
3817 04-11-2019 11:08:17 10.5 C 28 %
3818 04-11-2019 11:18:17 10.2 C 29 %
3819 04-11-2019 11:28:17 10.4 C 30 %
3820 04-11-2019 11:38:17 10.7 C 28 %
3821 04-11-2019 11:48:17 10.7 C 26 %
3822 04-11-2019 11:58:17 10.9 C 26 %
3823 04-11-2019 12:08:17 10.9 C 26 %
3824 04-11-2019 12:18:17 10.9 C 26 %
3825 04-11-2019 12:28:17 11 C 26 %
Sensor: Nr:Datum:Temp:Feuchte:
Aussen-T/F 3826 04-11-2019 12:38:17 10.9 C 26 %
3827 04-11-2019 12:48:17 11 C 27 %
3828 04-11-2019 12:58:17 11.1 C 25 %
3829 04-11-2019 13:08:18 11.4 C 25 %
3830 04-11-2019 13:18:17 11.9 C 24 %
3831 04-11-2019 13:28:17 12.2 C 21 %
3832 04-11-2019 13:38:17 12.1 C 22 %
3833 04-11-2019 13:48:17 12.5 C 20 %
3834 04-11-2019 13:58:17 12.3 C 20 %
3835 04-11-2019 14:08:17 12.1 C 20 %
3836 04-11-2019 14:18:17 12.2 C 20 %
3837 04-11-2019 14:28:17 12.7 C 20 %
3838 04-11-2019 14:38:17 13.1 C 20 %
3839 04-11-2019 14:48:17 13.8 C 20 %
3840 04-11-2019 14:58:17 12.8 C 20 %
3841 04-11-2019 15:08:17 13.7 C 20 %
3842 04-11-2019 15:18:17 13.4 C 20 %
3843 04-11-2019 15:28:17 12.9 C 20 %
3844 04-11-2019 15:38:17 13.7 C 20 %
3845 04-11-2019 15:48:18 14.2 C 20 %
3846 04-11-2019 15:58:18 13.6 C 20 %
3847 04-11-2019 16:08:17 12 C 20 %
3848 04-11-2019 16:18:17 11.5 C 20 %
3849 04-11-2019 16:28:17 11.1 C 20 %
3850 04-11-2019 16:38:17 10.4 C 25 %
Sensor: Nr:Datum:Temp:Feuchte:
Aussen-T/F 3851 04-11-2019 16:48:17 10 C 26 %
3852 04-11-2019 16:58:17 10.1 C 28 %
3853 04-11-2019 17:08:17 9.8 C 27 %
3854 04-11-2019 17:18:17 9.9 C 28 %
3855 04-11-2019 17:28:17 9.8 C 28 %
3856 04-11-2019 17:38:17 9.8 C 29 %
3857 04-11-2019 17:48:18 9.6 C 30 %
3858 04-11-2019 17:58:18 9.5 C 31 %
3859 04-11-2019 18:08:17 9.1 C 31 %
3860 04-11-2019 18:18:17 9 C 32 %
3861 04-11-2019 18:28:17 8.5 C 35 %
3862 04-11-2019 18:38:17 8.4 C 35 %
3863 04-11-2019 18:48:17 8.2 C 38 %
3864 04-11-2019 18:58:17 8.4 C 38 %
3865 04-11-2019 19:08:17 8.6 C 35 %
3866 04-11-2019 19:18:17 8.6 C 35 %
3867 04-11-2019 19:28:17 8.2 C 35 %
3868 04-11-2019 19:38:17 8.2 C 35 %
3869 04-11-2019 19:48:18 8.4 C 37 %
3870 04-11-2019 19:58:18 8.4 C 37 %
3871 04-11-2019 20:08:17 8.9 C 36 %
3872 04-11-2019 20:18:17 9.1 C 35 %
3873 04-11-2019 20:28:17 9 C 37 %
3874 04-11-2019 20:38:17 9.1 C 38 %
3875 04-11-2019 20:48:17 9.1 C 39 %
Sensor: Nr:Datum:Temp:Feuchte:
Aussen-T/F 3876 04-11-2019 20:58:17 8.9 C 39 %
3877 04-11-2019 21:08:18 8.7 C 39 %
3878 04-11-2019 21:18:17 8.6 C 39 %
3879 04-11-2019 21:28:17 8.4 C 39 %
3880 04-11-2019 21:38:17 8.2 C 38 %
3881 04-11-2019 21:48:17 7.7 C 39 %
3882 04-11-2019 21:58:17 7.5 C 39 %
3883 04-11-2019 22:08:17 7.5 C 39 %
3884 04-11-2019 22:18:17 7.2 C 39 %
3885 04-11-2019 22:28:17 7.3 C 39 %
3886 04-11-2019 22:38:17 7.5 C 40 %
3887 04-11-2019 22:48:17 7.5 C 39 %
3888 04-11-2019 22:58:17 7.9 C 40 %
3889 04-11-2019 23:08:17 8.1 C 39 %
3890 04-11-2019 23:18:17 8.4 C 39 %
3891 04-11-2019 23:28:17 8.5 C 38 %
3892 04-11-2019 23:38:17 9 C 35 %
3893 04-11-2019 23:48:17 9.5 C 27 %
3894 04-11-2019 23:58:17 9.5 C 26 %
3895 05-11-2019 00:08:17 9.2 C 27 %
3896 05-11-2019 00:18:17 9 C 27 %
3897 05-11-2019 00:28:17 9 C 27 %
3898 05-11-2019 00:38:18 8.8 C 29 %
3899 05-11-2019 00:48:17 9.1 C 27 %
3900 05-11-2019 00:58:17 9.1 C 26 %
Sensor: Nr:Datum:Temp:Feuchte:
Aussen-T/F 3901 05-11-2019 01:08:17 9.1 C 26 %
3902 05-11-2019 01:18:17 8.7 C 27 %
3903 05-11-2019 01:28:17 9 C 26 %
3904 05-11-2019 01:38:17 8.7 C 27 %
3905 05-11-2019 01:48:17 8.7 C 28 %
3906 05-11-2019 01:58:17 9 C 27 %
3907 05-11-2019 02:08:17 8.8 C 28 %
3908 05-11-2019 02:18:17 8.7 C 28 %
3909 05-11-2019 02:28:17 8.5 C 31 %
3910 05-11-2019 02:38:17 8.5 C 32 %
3911 05-11-2019 02:48:17 8.9 C 27 %
3912 05-11-2019 02:58:17 8.8 C 28 %
3913 05-11-2019 03:08:17 8.7 C 28 %
3914 05-11-2019 03:18:17 9.1 C 26 %
3915 05-11-2019 03:28:17 9 C 25 %
3916 05-11-2019 03:38:17 8.8 C 27 %
3917 05-11-2019 03:48:17 9 C 25 %
3918 05-11-2019 03:58:17 8.8 C 26 %
3919 05-11-2019 04:08:18 9.2 C 25 %
3920 05-11-2019 04:18:17 9 C 25 %
3921 05-11-2019 04:28:17 9.3 C 23 %
3922 05-11-2019 04:38:17 9.3 C 23 %
3923 05-11-2019 04:48:17 9 C 25 %
3924 05-11-2019 04:58:17 9.2 C 25 %
3925 05-11-2019 05:08:17 9.1 C 25 %
Sensor: Nr:Datum:Temp:Feuchte:
Aussen-T/F 3926 05-11-2019 05:18:17 9.4 C 21 %
3927 05-11-2019 05:28:17 8.7 C 26 %
3928 05-11-2019 05:38:17 8.7 C 27 %
3929 05-11-2019 05:48:17 8.7 C 26 %
3930 05-11-2019 05:58:17 8.6 C 27 %
3931 05-11-2019 06:08:17 8.5 C 27 %
3932 05-11-2019 06:18:17 8.7 C 26 %
3933 05-11-2019 06:28:17 8.8 C 26 %
3934 05-11-2019 06:38:17 8.8 C 26 %
3935 05-11-2019 06:48:17 8.7 C 27 %
3936 05-11-2019 06:58:17 9 C 25 %
3937 05-11-2019 07:08:18 9.2 C 25 %
3938 05-11-2019 07:18:17 9 C 25 %
3939 05-11-2019 07:28:17 8.7 C 26 %
3940 05-11-2019 07:38:17 8.2 C 27 %
3941 05-11-2019 07:48:17 8.2 C 27 %
3942 05-11-2019 07:58:17 7.9 C 30 %
3943 05-11-2019 08:08:17 8.2 C 28 %
3944 05-11-2019 08:18:17 8.4 C 28 %
3945 05-11-2019 08:28:17 8.8 C 26 %
3946 05-11-2019 08:38:18 8.5 C 26 %
3947 05-11-2019 08:48:17 9 C 25 %
3948 05-11-2019 08:58:17 9 C 25 %
3949 05-11-2019 09:08:17 8.7 C 26 %
3950 05-11-2019 09:18:17 9.1 C 21 %
Sensor: Nr:Datum:Temp:Feuchte:
Aussen-T/F 3951 05-11-2019 09:28:17 8.7 C 26 %
3952 05-11-2019 09:38:17 9.2 C 25 %
3953 05-11-2019 09:48:18 9.8 C 20 %
3954 05-11-2019 09:58:18 10.4 C 20 %
3955 05-11-2019 10:08:17 10.6 C 20 %
3956 05-11-2019 10:18:17 10.3 C 20 %
3957 05-11-2019 10:28:17 10.6 C 20 %
3958 05-11-2019 10:38:17 10.6 C 20 %
3959 05-11-2019 10:48:18 10.7 C 20 %
3960 05-11-2019 10:58:18 10.6 C 20 %
3961 05-11-2019 11:08:17 10.5 C 20 %
3962 05-11-2019 11:18:17 11 C 20 %
3963 05-11-2019 11:28:17 11.7 C 20 %
3964 05-11-2019 11:38:17 11.7 C 20 %
3965 05-11-2019 11:48:17 11.7 C 20 %
3966 05-11-2019 11:58:17 11.6 C 20 %
3967 05-11-2019 12:08:18 11.7 C 20 %
3968 05-11-2019 12:18:17 11.8 C 20 %
3969 05-11-2019 12:28:17 12.2 C 20 %
3970 05-11-2019 12:38:17 12.1 C 20 %
3971 05-11-2019 12:48:17 11.5 C 20 %
3972 05-11-2019 12:58:17 11.7 C 20 %
3973 05-11-2019 13:08:17 11.8 C 20 %
3974 05-11-2019 13:18:17 11.7 C 20 %
3975 05-11-2019 13:28:17 12.5 C 20 %
Sensor: Nr:Datum:Temp:Feuchte:
Aussen-T/F 3976 05-11-2019 13:38:17 12.2 C 20 %
3977 05-11-2019 13:48:17 12.3 C 20 %
3978 05-11-2019 13:58:17 12.3 C 20 %
3979 05-11-2019 14:08:17 12.4 C 20 %
3980 05-11-2019 14:18:17 12.2 C 20 %
3981 05-11-2019 14:28:17 12 C 20 %
3982 05-11-2019 14:38:17 11.9 C 20 %
3983 05-11-2019 14:48:17 12.1 C 20 %
3984 05-11-2019 14:58:17 12.2 C 20 %
3985 05-11-2019 15:08:17 12.1 C 20 %
3986 05-11-2019 15:18:17 11.3 C 20 %
3987 05-11-2019 15:28:17 10.8 C 20 %
3988 05-11-2019 15:38:17 11 C 20 %
3989 05-11-2019 15:48:17 11 C 20 %
3990 05-11-2019 15:58:17 11.1 C 20 %
3991 05-11-2019 16:08:17 11 C 20 %
3992 05-11-2019 16:18:17 9.8 C 25 %
3993 05-11-2019 16:28:17 9.4 C 25 %
3994 05-11-2019 16:38:17 9.5 C 25 %
3995 05-11-2019 16:48:17 9.5 C 25 %
3996 05-11-2019 16:58:17 9.2 C 29 %
3997 05-11-2019 17:08:17 9.3 C 29 %
3998 05-11-2019 17:18:17 9.3 C 30 %
3999 05-11-2019 17:28:17 9 C 31 %
4000 05-11-2019 17:38:17 8.8 C 32 %
Sensor: Nr:Datum:Temp:Feuchte:
Aussen-T/F 4001 05-11-2019 17:48:17 8.4 C 35 %
4002 05-11-2019 17:58:17 8.5 C 32 %
4003 05-11-2019 18:08:18 8.4 C 33 %
4004 05-11-2019 18:18:17 8.5 C 34 %
4005 05-11-2019 18:28:17 7.9 C 34 %
4006 05-11-2019 18:38:17 7.8 C 35 %
4007 05-11-2019 18:48:17 7.8 C 36 %
4008 05-11-2019 18:58:17 7.7 C 36 %
4009 05-11-2019 19:08:18 7.6 C 37 %
4010 05-11-2019 19:18:17 7.6 C 37 %
4011 05-11-2019 19:28:17 7.7 C 37 %
4012 05-11-2019 19:38:17 7.8 C 38 %
4013 05-11-2019 19:48:17 8 C 37 %
4014 05-11-2019 19:58:17 8.1 C 36 %
4015 05-11-2019 20:08:18 7.7 C 35 %
4016 05-11-2019 20:18:17 7.9 C 36 %
4017 05-11-2019 20:28:17 7.9 C 35 %
4018 05-11-2019 20:38:17 7.5 C 35 %
4019 05-11-2019 20:48:17 7.1 C 35 %
4020 05-11-2019 20:58:17 7.1 C 37 %
4021 05-11-2019 21:08:18 7.1 C 38 %
4022 05-11-2019 21:18:17 7.3 C 39 %
4023 05-11-2019 21:28:17 7.3 C 38 %
4024 05-11-2019 21:38:17 7.2 C 38 %
4025 05-11-2019 21:48:17 7.3 C 38 %
Sensor: Nr:Datum:Temp:Feuchte:
Aussen-T/F 4026 05-11-2019 21:58:17 7.2 C 38 %
4027 05-11-2019 22:08:18 7.2 C 38 %
4028 05-11-2019 22:18:17 7.2 C 38 %
4029 05-11-2019 22:28:18 7.3 C 38 %
4030 05-11-2019 22:38:17 7.4 C 38 %
4031 05-11-2019 22:48:17 7.4 C 38 %
4032 05-11-2019 22:58:17 7.4 C 38 %
4033 05-11-2019 23:08:17 7.4 C 38 %
4034 05-11-2019 23:18:17 7.4 C 38 %
4035 05-11-2019 23:28:17 7.3 C 37 %
4036 05-11-2019 23:38:17 7.3 C 38 %
4037 05-11-2019 23:48:17 7.5 C 38 %
4038 05-11-2019 23:58:17 7.9 C 37 %
4039 06-11-2019 00:08:17 7.8 C 36 %
4040 06-11-2019 00:18:17 7.7 C 36 %
4041 06-11-2019 00:28:17 7.6 C 36 %
4042 06-11-2019 00:38:17 7.8 C 37 %
4043 06-11-2019 00:48:17 7.8 C 37 %
4044 06-11-2019 00:58:17 7.9 C 36 %
4045 06-11-2019 01:08:17 7.9 C 35 %
4046 06-11-2019 01:18:17 8 C 35 %
4047 06-11-2019 01:28:17 7.6 C 35 %
4048 06-11-2019 01:38:17 7.3 C 37 %
4049 06-11-2019 01:48:17 7.4 C 38 %
4050 06-11-2019 01:58:17 7.3 C 38 %
Sensor: Nr:Datum:Temp:Feuchte:
Aussen-T/F 4051 06-11-2019 02:08:17 7.5 C 39 %
4052 06-11-2019 02:18:17 7.7 C 39 %
4053 06-11-2019 02:28:17 7.6 C 39 %
4054 06-11-2019 02:38:17 7.6 C 39 %
4055 06-11-2019 02:48:17 7.6 C 39 %
4056 06-11-2019 02:58:17 7.5 C 39 %
4057 06-11-2019 03:08:18 7.1 C 37 %
4058 06-11-2019 03:18:18 6.9 C 39 %
4059 06-11-2019 03:28:18 6.9 C 40 %
4060 06-11-2019 03:38:17 6.6 C 39 %
4061 06-11-2019 03:48:17 6.5 C 39 %
4062 06-11-2019 03:58:17 6.4 C 39 %
4063 06-11-2019 04:08:17 6.7 C 40 %
4064 06-11-2019 04:18:17 6.8 C 40 %
4065 06-11-2019 04:28:17 7 C 39 %
4066 06-11-2019 04:38:17 6.8 C 39 %
4067 06-11-2019 04:48:17 6.9 C 39 %
4068 06-11-2019 04:58:17 6.6 C 39 %
4069 06-11-2019 05:08:17 6.7 C 39 %
4070 06-11-2019 05:18:17 6.8 C 39 %
4071 06-11-2019 05:28:17 6.8 C 39 %
4072 06-11-2019 05:38:17 6.8 C 39 %
4073 06-11-2019 05:48:18 6.8 C 39 %
4074 06-11-2019 05:58:18 6.9 C 39 %
4075 06-11-2019 06:08:17 7.1 C 39 %
Sensor: Nr:Datum:Temp:Feuchte:
Aussen-T/F 4076 06-11-2019 06:18:17 7.1 C 39 %
4077 06-11-2019 06:28:17 7.3 C 38 %
4078 06-11-2019 06:38:18 7.3 C 37 %
4079 06-11-2019 06:48:17 7.3 C 37 %
4080 06-11-2019 06:58:17 7.2 C 36 %
4081 06-11-2019 07:08:17 7.1 C 36 %
4082 06-11-2019 07:18:17 7.1 C 36 %
4083 06-11-2019 07:28:17 6.8 C 37 %
4084 06-11-2019 07:38:17 6.8 C 38 %
4085 06-11-2019 07:48:17 6.9 C 38 %
4086 06-11-2019 07:58:17 7 C 38 %
4087 06-11-2019 08:08:17 7.1 C 38 %
4088 06-11-2019 08:18:17 7.3 C 38 %
4089 06-11-2019 08:28:17 7.4 C 38 %
4090 06-11-2019 08:38:18 7.8 C 38 %
4091 06-11-2019 08:48:17 8 C 36 %
4092 06-11-2019 08:58:17 8.1 C 35 %
4093 06-11-2019 09:08:17 8.4 C 31 %
4094 06-11-2019 09:18:17 8.4 C 31 %
4095 06-11-2019 09:28:17 8.6 C 30 %
4096 06-11-2019 09:38:17 8.8 C 29 %
4097 06-11-2019 09:48:17 9 C 27 %
4098 06-11-2019 09:58:17 9.2 C 26 %
4099 06-11-2019 10:08:17 9.3 C 25 %
4100 06-11-2019 10:18:17 9.6 C 25 %
Sensor: Nr:Datum:Temp:Feuchte:
Aussen-T/F 4101 06-11-2019 10:28:17 9.6 C 25 %
4102 06-11-2019 10:38:18 9.5 C 25 %
4103 06-11-2019 10:48:17 9.5 C 25 %
4104 06-11-2019 10:58:17 9.4 C 25 %
4105 06-11-2019 11:08:17 9.4 C 25 %
4106 06-11-2019 11:18:17 9.5 C 26 %
4107 06-11-2019 11:28:17 9.4 C 26 %
4108 06-11-2019 11:38:17 9.5 C 27 %
4109 06-11-2019 11:48:17 9.5 C 27 %
4110 06-11-2019 11:58:17 9.7 C 27 %
4111 06-11-2019 12:08:17 9.9 C 26 %
4112 06-11-2019 12:18:17 9.7 C 26 %
4113 06-11-2019 12:28:17 9.6 C 27 %
4114 06-11-2019 12:38:17 9.7 C 27 %
4115 06-11-2019 12:48:17 10 C 25 %
4116 06-11-2019 12:58:17 10.2 C 25 %
4117 06-11-2019 13:08:18 10.3 C 25 %
4118 06-11-2019 13:18:17 10.5 C 23 %
4119 06-11-2019 13:28:17 10.2 C 23 %
4120 06-11-2019 13:38:17 10.3 C 23 %
4121 06-11-2019 13:48:17 10.3 C 23 %
4122 06-11-2019 13:58:17 10.1 C 25 %
4123 06-11-2019 14:08:18 9.8 C 25 %
4124 06-11-2019 14:18:17 9.6 C 26 %
4125 06-11-2019 14:28:17 9.5 C 28 %
Sensor: Nr:Datum:Temp:Feuchte:
Aussen-T/F 4126 06-11-2019 14:38:17 9.6 C 27 %
4127 06-11-2019 14:48:17 9.6 C 28 %
4128 06-11-2019 14:58:17 9.4 C 28 %
4129 06-11-2019 15:08:18 9.6 C 28 %
4130 06-11-2019 15:18:17 9.5 C 30 %
4131 06-11-2019 15:28:17 9.4 C 31 %
4132 06-11-2019 15:38:17 9.3 C 32 %
4133 06-11-2019 15:48:17 9.2 C 32 %
4134 06-11-2019 15:58:17 9.2 C 35 %
4135 06-11-2019 16:08:18 9.2 C 35 %
4136 06-11-2019 16:18:17 9.1 C 35 %
4137 06-11-2019 16:28:17 9.1 C 36 %
4138 06-11-2019 16:38:17 9 C 36 %
4139 06-11-2019 16:48:17 8.9 C 37 %
4140 06-11-2019 16:58:17 8.9 C 37 %
4141 06-11-2019 17:08:17 8.9 C 38 %
4142 06-11-2019 17:18:17 8.7 C 38 %
4143 06-11-2019 17:28:17 8.8 C 38 %
4144 06-11-2019 17:38:17 8.8 C 39 %
4145 06-11-2019 17:48:18 8.7 C 39 %
4146 06-11-2019 17:58:18 8.8 C 39 %
4147 06-11-2019 18:08:17 8.8 C 39 %
4148 06-11-2019 18:18:17 8.8 C 39 %
4149 06-11-2019 18:28:17 8.8 C 39 %
4150 06-11-2019 18:38:17 8.8 C 39 %
Sensor: Nr:Datum:Temp:Feuchte:
Aussen-T/F 4151 06-11-2019 18:48:17 8.8 C 39 %
4152 06-11-2019 18:58:17 8.8 C 39 %
4153 06-11-2019 19:08:17 8.7 C 39 %
4154 06-11-2019 19:18:17 8.7 C 38 %
4155 06-11-2019 19:28:17 8.6 C 38 %
4156 06-11-2019 19:38:17 8.6 C 38 %
4157 06-11-2019 19:48:18 8.6 C 38 %
4158 06-11-2019 19:58:18 8.5 C 38 %
4159 06-11-2019 20:08:17 8.4 C 38 %
4160 06-11-2019 20:18:17 8.4 C 38 %
4161 06-11-2019 20:28:17 8.4 C 38 %
4162 06-11-2019 20:38:17 8.3 C 38 %
4163 06-11-2019 20:48:17 8.2 C 38 %
4164 06-11-2019 20:58:17 8.3 C 38 %
4165 06-11-2019 21:08:17 8.3 C 38 %
4166 06-11-2019 21:18:17 8.3 C 38 %
4167 06-11-2019 21:28:17 8.3 C 38 %
4168 06-11-2019 21:38:17 8.3 C 38 %
4169 06-11-2019 21:48:18 8.2 C 38 %
4170 06-11-2019 21:58:18 8.2 C 38 %
4171 06-11-2019 22:08:17 8.2 C 38 %
4172 06-11-2019 22:18:17 8.3 C 38 %
4173 06-11-2019 22:28:17 8.2 C 38 %
4174 06-11-2019 22:38:17 8.2 C 38 %
4175 06-11-2019 22:48:17 8.2 C 38 %
Sensor: Nr:Datum:Temp:Feuchte:
Aussen-T/F 4176 06-11-2019 22:58:18 8.2 C 38 %
4177 06-11-2019 23:08:17 8.2 C 38 %
4178 06-11-2019 23:18:17 8.1 C 38 %
4179 06-11-2019 23:28:17 8.2 C 38 %
4180 06-11-2019 23:38:17 8.2 C 38 %
4181 06-11-2019 23:48:17 8.2 C 38 %
4182 06-11-2019 23:58:17 8 C 38 %
4183 07-11-2019 00:08:17 7.9 C 39 %
4184 07-11-2019 00:18:17 7.8 C 39 %
4185 07-11-2019 00:28:17 7.8 C 39 %
4186 07-11-2019 00:38:17 7.6 C 39 %
4187 07-11-2019 00:48:17 7.6 C 39 %
4188 07-11-2019 00:58:17 7.6 C 39 %
4189 07-11-2019 01:08:17 7.5 C 39 %
4190 07-11-2019 01:18:17 7.4 C 39 %
4191 07-11-2019 01:28:17 7.3 C 39 %
4192 07-11-2019 01:38:17 7.3 C 39 %
4193 07-11-2019 01:48:18 7.2 C 39 %
4194 07-11-2019 01:58:18 7.3 C 39 %
4195 07-11-2019 02:08:17 7.3 C 39 %
4196 07-11-2019 02:18:17 7.4 C 39 %
4197 07-11-2019 02:28:17 7.4 C 39 %
4198 07-11-2019 02:38:17 7.4 C 39 %
4199 07-11-2019 02:48:17 7.4 C 39 %
4200 07-11-2019 02:58:17 7.5 C 38 %
Sensor: Nr:Datum:Temp:Feuchte:
Aussen-T/F 4201 07-11-2019 03:08:17 7.4 C 38 %
4202 07-11-2019 03:18:17 7.2 C 38 %
4203 07-11-2019 03:28:17 7.1 C 38 %
4204 07-11-2019 03:38:17 6.9 C 39 %
4205 07-11-2019 03:48:17 6.9 C 39 %
4206 07-11-2019 03:58:18 6.8 C 39 %
4207 07-11-2019 04:08:17 6.7 C 39 %
4208 07-11-2019 04:18:17 6.9 C 39 %
4209 07-11-2019 04:28:17 6.8 C 39 %
4210 07-11-2019 04:38:17 6.9 C 39 %
4211 07-11-2019 04:48:17 6.8 C 39 %
4212 07-11-2019 04:58:17 7 C 38 %
4213 07-11-2019 05:08:17 7 C 38 %
4214 07-11-2019 05:18:17 6.8 C 39 %
4215 07-11-2019 05:28:17 6.7 C 39 %
4216 07-11-2019 05:38:17 6.7 C 39 %
4217 07-11-2019 05:48:17 6.7 C 39 %
4218 07-11-2019 05:58:17 6.7 C 39 %
4219 07-11-2019 06:08:17 6.7 C 39 %
4220 07-11-2019 06:18:17 6.7 C 39 %
4221 07-11-2019 06:28:17 6.7 C 39 %
4222 07-11-2019 06:38:17 6.7 C 39 %
4223 07-11-2019 06:48:17 6.7 C 39 %
4224 07-11-2019 06:58:17 6.8 C 39 %
4225 07-11-2019 07:08:18 6.8 C 39 %
Sensor: Nr:Datum:Temp:Feuchte:
Aussen-T/F 4226 07-11-2019 07:18:17 6.9 C 39 %
4227 07-11-2019 07:28:17 6.9 C 39 %
4228 07-11-2019 07:38:17 6.9 C 39 %
4229 07-11-2019 07:48:17 7.1 C 38 %
4230 07-11-2019 07:58:17 7.3 C 38 %
4231 07-11-2019 08:08:17 7.5 C 38 %
4232 07-11-2019 08:18:17 7.6 C 38 %
4233 07-11-2019 08:28:17 7.6 C 38 %
4234 07-11-2019 08:38:18 7.8 C 38 %
4235 07-11-2019 08:48:17 7.9 C 38 %
4236 07-11-2019 08:58:17 8.1 C 37 %
4237 07-11-2019 09:08:17 8 C 37 %
4238 07-11-2019 09:18:17 8.2 C 36 %
4239 07-11-2019 09:28:17 8.5 C 36 %
4240 07-11-2019 09:38:17 8.5 C 36 %
4241 07-11-2019 09:48:17 8.5 C 36 %
4242 07-11-2019 09:58:17 8.5 C 36 %
4243 07-11-2019 10:08:17 9.1 C 35 %
4244 07-11-2019 10:18:17 9.4 C 36 %
4245 07-11-2019 10:28:17 9.5 C 36 %
4246 07-11-2019 10:38:17 9.7 C 35 %
4247 07-11-2019 10:48:18 9.3 C 28 %
4248 07-11-2019 10:58:18 9.3 C 29 %
4249 07-11-2019 11:08:17 9.4 C 29 %
4250 07-11-2019 11:18:17 9.2 C 29 %
Sensor: Nr:Datum:Temp:Feuchte:
Aussen-T/F 4251 07-11-2019 11:28:17 9.2 C 30 %
4252 07-11-2019 11:38:17 9 C 29 %
4253 07-11-2019 11:48:18 8.9 C 29 %
4254 07-11-2019 11:58:18 8.7 C 28 %
4255 07-11-2019 12:08:17 8.7 C 33 %
4256 07-11-2019 12:18:17 8.9 C 34 %
4257 07-11-2019 12:28:17 8.9 C 34 %
4258 07-11-2019 12:38:17 8.6 C 28 %
4259 07-11-2019 12:48:17 8.9 C 26 %
4260 07-11-2019 12:58:17 8.9 C 25 %
4261 07-11-2019 13:08:17 9.7 C 25 %
4262 07-11-2019 13:18:17 9.5 C 23 %
4263 07-11-2019 13:28:17 9.4 C 26 %
4264 07-11-2019 13:38:17 10.2 C 21 %
4265 07-11-2019 13:48:17 9.8 C 20 %
4266 07-11-2019 13:58:17 9.2 C 21 %
4267 07-11-2019 14:08:17 8.9 C 25 %
4268 07-11-2019 14:18:17 8.8 C 25 %
4269 07-11-2019 14:28:17 8.8 C 25 %
4270 07-11-2019 14:38:17 9.3 C 25 %
4271 07-11-2019 14:48:18 9.7 C 23 %
4272 07-11-2019 14:58:18 9.9 C 21 %
4273 07-11-2019 15:08:17 9.6 C 21 %
4274 07-11-2019 15:18:17 9.8 C 21 %
4275 07-11-2019 15:28:17 10.1 C 20 %
Sensor: Nr:Datum:Temp:Feuchte:
Aussen-T/F 4276 07-11-2019 15:38:17 9.7 C 25 %
4277 07-11-2019 15:48:17 9.3 C 29 %
4278 07-11-2019 15:58:17 9.5 C 23 %
4279 07-11-2019 16:08:17 9.7 C 20 %
4280 07-11-2019 16:18:17 9.6 C 20 %
4281 07-11-2019 16:28:17 9.3 C 20 %
4282 07-11-2019 16:38:18 9.1 C 20 %
4283 07-11-2019 16:48:17 9 C 20 %
4284 07-11-2019 16:58:17 8.8 C 20 %
4285 07-11-2019 17:08:17 8.4 C 20 %
4286 07-11-2019 17:18:17 7.1 C 30 %
4287 07-11-2019 17:28:18 8.2 C 20 %
4288 07-11-2019 17:38:17 8 C 20 %
4289 07-11-2019 17:48:17 7.8 C 20 %
4290 07-11-2019 17:58:17 7.1 C 23 %
4291 07-11-2019 18:08:17 6.6 C 27 %
4292 07-11-2019 18:18:17 6 C 30 %
4293 07-11-2019 18:28:17 5.6 C 36 %
4294 07-11-2019 18:38:17 5.5 C 38 %
4295 07-11-2019 18:48:18 5.6 C 38 %
4296 07-11-2019 18:58:18 5.6 C 38 %
4297 07-11-2019 19:08:17 6 C 40 %
4298 07-11-2019 19:18:17 6.4 C 39 %
4299 07-11-2019 19:28:17 6.1 C 33 %
4300 07-11-2019 19:38:17 5.8 C 34 %
Sensor: Nr:Datum:Temp:Feuchte:
Aussen-T/F 4301 07-11-2019 19:48:18 5.3 C 35 %
4302 07-11-2019 19:58:18 5.1 C 36 %
4303 07-11-2019 20:08:17 5.1 C 36 %
4304 07-11-2019 20:18:17 5.6 C 40 %
4305 07-11-2019 20:28:17 5.5 C 38 %
4306 07-11-2019 20:38:17 5.3 C 36 %
4307 07-11-2019 20:48:17 5.2 C 36 %
4308 07-11-2019 20:58:17 4.9 C 37 %
4309 07-11-2019 21:08:17 4.5 C 38 %
4310 07-11-2019 21:18:17 4.5 C 39 %
4311 07-11-2019 21:28:17 4.5 C 39 %
4312 07-11-2019 21:38:18 4.5 C 39 %
4313 07-11-2019 21:48:17 4.8 C 40 %
4314 07-11-2019 21:58:17 4.5 C 38 %
4315 07-11-2019 22:08:17 4.5 C 38 %
4316 07-11-2019 22:18:17 4 C 38 %
4317 07-11-2019 22:28:17 3.6 C 40 %
4318 07-11-2019 22:38:17 3.5 C 40 %
4319 07-11-2019 22:48:17 3.3 C 40 %
4320 07-11-2019 22:58:17 3.7 C 41 %
4321 07-11-2019 23:08:18 4.1 C 40 %
4322 07-11-2019 23:18:17 4.5 C 40 %
4323 07-11-2019 23:28:18 4.5 C 37 %
4324 07-11-2019 23:38:17 4.5 C 35 %
4325 07-11-2019 23:48:17 4.3 C 35 %
Sensor: Nr:Datum:Temp:Feuchte:
Aussen-T/F 4326 07-11-2019 23:58:17 4.1 C 35 %
4327 08-11-2019 00:08:17 3.9 C 37 %
4328 08-11-2019 00:18:17 3.7 C 38 %
4329 08-11-2019 00:28:17 3.7 C 39 %
4330 08-11-2019 00:38:17 3.5 C 40 %
4331 08-11-2019 00:48:18 3.3 C 40 %
4332 08-11-2019 00:58:18 3.2 C 40 %
4333 08-11-2019 01:08:17 3.3 C 41 %
4334 08-11-2019 01:18:17 3.3 C 41 %
4335 08-11-2019 01:28:17 3.2 C 40 %
4336 08-11-2019 01:38:17 3.1 C 40 %
4337 08-11-2019 01:48:18 2.9 C 40 %
4338 08-11-2019 01:58:18 2.4 C 40 %
4339 08-11-2019 02:08:17 2 C 40 %
4340 08-11-2019 02:18:17 2 C 40 %
4341 08-11-2019 02:28:17 1.9 C 42 %
4342 08-11-2019 02:38:17 2.1 C 41 %
4343 08-11-2019 02:48:18 1.8 C 42 %
4344 08-11-2019 02:58:18 1.8 C 42 %
4345 08-11-2019 03:08:17 2 C 41 %
4346 08-11-2019 03:18:17 2 C 41 %
4347 08-11-2019 03:28:17 1.8 C 42 %
4348 08-11-2019 03:38:17 2.3 C 41 %
4349 08-11-2019 03:48:18 2.1 C 41 %
4350 08-11-2019 03:58:18 1.7 C 41 %
Sensor: Nr:Datum:Temp:Feuchte:
Aussen-T/F 4351 08-11-2019 04:08:17 1.7 C 41 %
4352 08-11-2019 04:18:17 1.4 C 41 %
4353 08-11-2019 04:28:17 1.4 C 41 %
4354 08-11-2019 04:38:17 1.2 C 41 %
4355 08-11-2019 04:48:17 1.2 C 41 %
4356 08-11-2019 04:58:17 1.3 C 41 %
4357 08-11-2019 05:08:17 1.2 C 41 %
4358 08-11-2019 05:18:17 1.2 C 41 %
4359 08-11-2019 05:28:17 1.1 C 41 %
4360 08-11-2019 05:38:17 1.1 C 41 %
4361 08-11-2019 05:48:17 1.3 C 41 %
4362 08-11-2019 05:58:17 1.3 C 41 %
4363 08-11-2019 06:08:17 1.4 C 41 %
4364 08-11-2019 06:18:17 1.4 C 41 %
4365 08-11-2019 06:28:17 1.4 C 41 %
4366 08-11-2019 06:38:18 1.3 C 41 %
4367 08-11-2019 06:48:17 1.2 C 41 %
4368 08-11-2019 06:58:17 1.1 C 41 %
4369 08-11-2019 07:08:17 1.2 C 41 %
4370 08-11-2019 07:18:17 1.5 C 41 %
4371 08-11-2019 07:28:17 1.3 C 41 %
4372 08-11-2019 07:38:17 1.2 C 41 %
4373 08-11-2019 07:48:18 1.3 C 41 %
4374 08-11-2019 07:58:18 1.8 C 41 %
4375 08-11-2019 08:08:17 2.1 C 41 %
Sensor: Nr:Datum:Temp:Feuchte:
Aussen-T/F 4376 08-11-2019 08:18:17 2.3 C 41 %
4377 08-11-2019 08:28:17 2.6 C 41 %
4378 08-11-2019 08:38:17 2.9 C 41 %
4379 08-11-2019 08:48:18 3.1 C 40 %
4380 08-11-2019 08:58:18 3.1 C 40 %
4381 08-11-2019 09:08:17 3.3 C 40 %
4382 08-11-2019 09:18:18 3 C 40 %
4383 08-11-2019 09:28:18 3.3 C 40 %
4384 08-11-2019 09:38:17 3.3 C 40 %
4385 08-11-2019 09:48:17 3.5 C 40 %
4386 08-11-2019 09:58:17 3.7 C 40 %
4387 08-11-2019 10:08:17 3.8 C 40 %
4388 08-11-2019 10:18:17 4.1 C 39 %
4389 08-11-2019 10:28:17 4.6 C 39 %
4390 08-11-2019 10:38:17 4.6 C 39 %
4391 08-11-2019 10:48:18 5.1 C 37 %
4392 08-11-2019 10:58:18 4.9 C 37 %
4393 08-11-2019 11:08:17 5.1 C 37 %
4394 08-11-2019 11:18:17 5.4 C 35 %
4395 08-11-2019 11:28:17 5.3 C 33 %
4396 08-11-2019 11:38:17 5.6 C 35 %
4397 08-11-2019 11:48:18 5.6 C 34 %
4398 08-11-2019 11:58:18 5.7 C 34 %
4399 08-11-2019 12:08:17 5.7 C 32 %
4400 08-11-2019 12:18:17 6 C 32 %
Sensor: Nr:Datum:Temp:Feuchte:
Aussen-T/F 4401 08-11-2019 12:28:17 6.4 C 32 %
4402 08-11-2019 12:38:17 6.4 C 31 %
4403 08-11-2019 12:48:18 6.5 C 28 %
4404 08-11-2019 12:58:18 6.8 C 30 %
4405 08-11-2019 13:08:17 7 C 28 %
4406 08-11-2019 13:18:17 7.3 C 30 %
4407 08-11-2019 13:28:17 6.9 C 27 %
4408 08-11-2019 13:38:17 7.1 C 28 %
4409 08-11-2019 13:48:17 7.3 C 26 %
4410 08-11-2019 13:58:17 7.5 C 27 %
4411 08-11-2019 14:08:18 7.5 C 26 %
4412 08-11-2019 14:18:17 7.7 C 27 %
4413 08-11-2019 14:28:17 7.6 C 27 %
4414 08-11-2019 14:38:17 7.6 C 27 %
4415 08-11-2019 14:48:17 7.5 C 27 %
4416 08-11-2019 14:58:17 7.5 C 29 %
4417 08-11-2019 15:08:17 7.5 C 30 %
4418 08-11-2019 15:18:17 7.4 C 30 %
4419 08-11-2019 15:28:17 7.4 C 31 %
4420 08-11-2019 15:38:17 7.3 C 30 %
4421 08-11-2019 15:48:17 7.2 C 31 %
4422 08-11-2019 15:58:17 7.1 C 32 %
4423 08-11-2019 16:08:18 7.1 C 31 %
4424 08-11-2019 16:18:17 6.8 C 33 %
4425 08-11-2019 16:28:17 6.6 C 34 %
Sensor: Nr:Datum:Temp:Feuchte:
Aussen-T/F 4426 08-11-2019 16:38:17 6.4 C 35 %
4427 08-11-2019 16:48:17 6.3 C 36 %
4428 08-11-2019 16:58:17 6.2 C 36 %
4429 08-11-2019 17:08:18 6.1 C 36 %
4430 08-11-2019 17:18:17 6 C 36 %
4431 08-11-2019 17:28:17 5.9 C 36 %
4432 08-11-2019 17:38:17 5.9 C 36 %
4433 08-11-2019 17:48:17 5.9 C 36 %
4434 08-11-2019 17:58:17 5.8 C 38 %
4435 08-11-2019 18:08:17 5.8 C 39 %
4436 08-11-2019 18:18:17 5.8 C 39 %
4437 08-11-2019 18:28:17 5.8 C 40 %
4438 08-11-2019 18:38:17 5.8 C 40 %
4439 08-11-2019 18:48:17 5.8 C 40 %
4440 08-11-2019 18:58:17 5.7 C 40 %
4441 08-11-2019 19:08:18 5.8 C 40 %
4442 08-11-2019 19:18:17 5.6 C 39 %
4443 08-11-2019 19:28:17 5.6 C 39 %
4444 08-11-2019 19:38:17 5.3 C 39 %
4445 08-11-2019 19:48:17 5.4 C 40 %
4446 08-11-2019 19:58:17 5.4 C 40 %
4447 08-11-2019 20:08:18 5.4 C 40 %
4448 08-11-2019 20:18:17 5.4 C 40 %
4449 08-11-2019 20:28:17 5.3 C 40 %
4450 08-11-2019 20:38:17 5.4 C 40 %
Sensor: Nr:Datum:Temp:Feuchte:
Aussen-T/F 4451 08-11-2019 20:48:17 5.3 C 40 %
4452 08-11-2019 20:58:17 5.1 C 39 %
4453 08-11-2019 21:08:17 4.8 C 39 %
4454 08-11-2019 21:18:18 4.5 C 40 %
4455 08-11-2019 21:28:18 4.3 C 40 %
4456 08-11-2019 21:38:17 4.5 C 40 %
4457 08-11-2019 21:48:17 4.5 C 40 %
4458 08-11-2019 21:58:17 4.5 C 40 %
4459 08-11-2019 22:08:17 4.3 C 40 %
4460 08-11-2019 22:19:17 4.4 C 40 %
4461 08-11-2019 22:28:17 4.6 C 40 %
4462 08-11-2019 22:38:17 4.7 C 40 %
4463 08-11-2019 22:49:17 4.7 C 40 %
4464 08-11-2019 22:59:17 4.8 C 40 %
4465 08-11-2019 23:08:18 4.6 C 40 %
4466 08-11-2019 23:18:17 4.6 C 40 %
4467 08-11-2019 23:28:18 4.7 C 40 %
4468 08-11-2019 23:38:17 4.7 C 40 %
4469 08-11-2019 23:49:17 4.6 C 40 %
4470 08-11-2019 23:59:17 4.6 C 40 %
Sensor: Nr:Datum:Temp:Feuchte:
G-T/H 1 09-10-2019 00:06:17 14.5 C 75 %
2 09-10-2019 00:16:17 14.5 C 75 %
3 09-10-2019 00:26:17 14.5 C 75 %
4 09-10-2019 00:36:17 14.5 C 75 %
5 09-10-2019 00:46:17 14.5 C 75 %
6 09-10-2019 00:56:17 14.5 C 75 %
7 09-10-2019 01:06:17 14.5 C 75 %
8 09-10-2019 01:16:17 14.5 C 74 %
9 09-10-2019 01:26:17 14.5 C 74 %
10 09-10-2019 01:36:17 14.5 C 74 %
11 09-10-2019 01:46:17 14.4 C 74 %
12 09-10-2019 01:56:17 14.4 C 74 %
13 09-10-2019 02:06:17 14.4 C 74 %
14 09-10-2019 02:16:17 14.4 C 74 %
15 09-10-2019 02:26:17 14.4 C 74 %
16 09-10-2019 02:36:17 14.4 C 74 %
17 09-10-2019 02:46:17 14.4 C 74 %
18 09-10-2019 02:56:17 14.4 C 74 %
19 09-10-2019 03:06:18 14.4 C 74 %
20 09-10-2019 03:16:17 14.4 C 74 %
21 09-10-2019 03:26:17 14.4 C 74 %
22 09-10-2019 03:36:18 14.3 C 74 %
23 09-10-2019 03:46:17 14.4 C 74 %
24 09-10-2019 03:56:17 14.3 C 74 %
25 09-10-2019 04:06:17 14.4 C 74 %
Sensor: Nr:Datum:Temp:Feuchte:
G-T/H 26 09-10-2019 04:16:17 14.3 C 74 %
27 09-10-2019 04:26:17 14.3 C 74 %
28 09-10-2019 04:36:17 14.3 C 74 %
29 09-10-2019 04:46:17 14.3 C 74 %
30 09-10-2019 04:56:17 14.3 C 74 %
31 09-10-2019 05:06:18 14.3 C 74 %
32 09-10-2019 05:16:17 14.3 C 74 %
33 09-10-2019 05:26:17 14.3 C 74 %
34 09-10-2019 05:36:18 14.3 C 74 %
35 09-10-2019 05:46:17 14.3 C 74 %
36 09-10-2019 05:56:17 14.2 C 74 %
37 09-10-2019 06:06:17 14.2 C 74 %
38 09-10-2019 06:16:17 14.2 C 74 %
39 09-10-2019 06:26:17 14.2 C 74 %
40 09-10-2019 06:36:17 14.2 C 74 %
41 09-10-2019 06:46:18 14.2 C 74 %
42 09-10-2019 06:56:18 14.2 C 74 %
43 09-10-2019 07:06:17 14.2 C 74 %
44 09-10-2019 07:16:18 14.2 C 74 %
45 09-10-2019 07:26:18 14.2 C 74 %
46 09-10-2019 07:36:17 14.2 C 74 %
47 09-10-2019 07:46:17 14.2 C 74 %
48 09-10-2019 07:56:17 14.2 C 74 %
49 09-10-2019 08:06:17 14.1 C 74 %
50 09-10-2019 08:16:17 14.2 C 74 %
Sensor: Nr:Datum:Temp:Feuchte:
G-T/H 51 09-10-2019 08:26:17 14 C 74 %
52 09-10-2019 08:36:17 14.1 C 74 %
53 09-10-2019 08:46:17 14.2 C 74 %
54 09-10-2019 08:56:17 14.1 C 74 %
55 09-10-2019 09:06:18 14.1 C 74 %
56 09-10-2019 09:16:17 14.1 C 74 %
57 09-10-2019 09:26:17 14.1 C 74 %
58 09-10-2019 09:36:17 14.1 C 74 %
59 09-10-2019 09:46:17 14.1 C 74 %
60 09-10-2019 09:56:17 14.1 C 74 %
61 09-10-2019 10:06:17 14.1 C 74 %
62 09-10-2019 10:16:18 14.1 C 74 %
63 09-10-2019 10:26:18 14.1 C 74 %
64 09-10-2019 10:36:17 14.1 C 74 %
65 09-10-2019 10:46:17 14.1 C 74 %
66 09-10-2019 10:56:17 14.1 C 74 %
67 09-10-2019 11:06:17 14.1 C 74 %
68 09-10-2019 11:16:17 14.1 C 74 %
69 09-10-2019 11:26:17 14.1 C 74 %
70 09-10-2019 11:36:17 14.1 C 74 %
71 09-10-2019 11:46:17 14.1 C 74 %
72 09-10-2019 11:56:17 14.1 C 74 %
73 09-10-2019 12:06:17 14.1 C 74 %
74 09-10-2019 12:16:17 14.1 C 74 %
75 09-10-2019 12:26:17 14.1 C 74 %
Sensor: Nr:Datum:Temp:Feuchte:
G-T/H 76 09-10-2019 12:36:18 14.1 C 74 %
77 09-10-2019 12:46:17 14.1 C 74 %
78 09-10-2019 12:56:17 14.2 C 74 %
79 09-10-2019 13:06:17 14.1 C 74 %
80 09-10-2019 13:16:17 14.2 C 74 %
81 09-10-2019 13:26:17 14.1 C 74 %
82 09-10-2019 13:36:17 14.2 C 74 %
83 09-10-2019 13:46:18 14.2 C 74 %
84 09-10-2019 13:56:18 14.2 C 74 %
85 09-10-2019 14:06:17 14.2 C 74 %
86 09-10-2019 14:16:18 14.2 C 74 %
87 09-10-2019 14:26:18 14.2 C 74 %
88 09-10-2019 14:36:17 14.2 C 74 %
89 09-10-2019 14:46:18 14.2 C 74 %
90 09-10-2019 14:56:18 14.2 C 74 %
91 09-10-2019 15:06:17 14 C 74 %
92 09-10-2019 15:16:17 14 C 74 %
93 09-10-2019 15:26:17 14.1 C 74 %
94 09-10-2019 15:36:17 14.1 C 74 %
95 09-10-2019 15:46:17 14.1 C 74 %
96 09-10-2019 15:56:18 14.2 C 74 %
97 09-10-2019 16:06:17 14.2 C 74 %
98 09-10-2019 16:16:18 14.2 C 74 %
99 09-10-2019 16:26:18 14.2 C 74 %
100 09-10-2019 16:36:17 14.2 C 74 %
Sensor: Nr:Datum:Temp:Feuchte:
G-T/H 101 09-10-2019 16:46:18 14.2 C 74 %
102 09-10-2019 16:56:18 14.2 C 74 %
103 09-10-2019 17:06:17 14.2 C 74 %
104 09-10-2019 17:16:18 14.2 C 74 %
105 09-10-2019 17:26:18 14.2 C 74 %
106 09-10-2019 17:36:17 14.2 C 74 %
107 09-10-2019 17:46:18 14.3 C 74 %
108 09-10-2019 17:56:18 14.2 C 74 %
109 09-10-2019 18:06:17 14.3 C 74 %
110 09-10-2019 18:16:18 14.3 C 74 %
111 09-10-2019 18:26:18 14.3 C 74 %
112 09-10-2019 18:36:17 14.2 C 74 %
113 09-10-2019 18:46:17 14.3 C 74 %
114 09-10-2019 18:56:17 14.3 C 74 %
115 09-10-2019 19:06:17 14.3 C 74 %
116 09-10-2019 19:16:17 14.3 C 74 %
117 09-10-2019 19:26:17 14.3 C 74 %
118 09-10-2019 19:36:18 14.3 C 74 %
119 09-10-2019 19:46:17 14.3 C 74 %
120 09-10-2019 19:56:17 14.3 C 74 %
121 09-10-2019 20:06:18 14.2 C 74 %
122 09-10-2019 20:16:17 14.3 C 74 %
123 09-10-2019 20:26:17 14.2 C 74 %
124 09-10-2019 20:36:17 14.2 C 74 %
125 09-10-2019 20:46:17 14.3 C 74 %
Sensor: Nr:Datum:Temp:Feuchte:
G-T/H 126 09-10-2019 20:56:17 14.3 C 74 %
127 09-10-2019 21:06:17 14.3 C 74 %
128 09-10-2019 21:16:17 14.3 C 74 %
129 09-10-2019 21:26:17 14.3 C 74 %
130 09-10-2019 21:36:18 14.3 C 74 %
131 09-10-2019 21:46:17 14.2 C 74 %
132 09-10-2019 21:56:17 14.2 C 74 %
133 09-10-2019 22:06:17 14.2 C 74 %
134 09-10-2019 22:16:17 14.2 C 74 %
135 09-10-2019 22:26:17 14.2 C 74 %
136 09-10-2019 22:36:18 14.2 C 74 %
137 09-10-2019 22:46:17 14.2 C 74 %
138 09-10-2019 22:56:17 14.2 C 74 %
139 09-10-2019 23:06:18 14.2 C 74 %
140 09-10-2019 23:16:17 14.2 C 74 %
141 09-10-2019 23:26:17 14.2 C 74 %
142 09-10-2019 23:36:17 14.2 C 74 %
143 09-10-2019 23:46:17 14.2 C 74 %
144 09-10-2019 23:56:17 14.2 C 74 %
145 10-10-2019 00:06:18 14.2 C 74 %
146 10-10-2019 00:16:17 14.2 C 74 %
147 10-10-2019 00:26:17 14.2 C 74 %
148 10-10-2019 00:36:17 14.2 C 74 %
149 10-10-2019 00:46:17 14.2 C 74 %
150 10-10-2019 00:56:17 14.1 C 74 %
Sensor: Nr:Datum:Temp:Feuchte:
G-T/H 151 10-10-2019 01:06:18 14.2 C 74 %
152 10-10-2019 01:16:17 14.1 C 74 %
153 10-10-2019 01:26:17 14.1 C 74 %
154 10-10-2019 01:36:18 14.1 C 74 %
155 10-10-2019 01:46:17 14.1 C 74 %
156 10-10-2019 01:56:17 14.1 C 74 %
157 10-10-2019 02:06:18 14.1 C 74 %
158 10-10-2019 02:16:17 14.1 C 74 %
159 10-10-2019 02:26:17 14.1 C 74 %
160 10-10-2019 02:36:18 14.1 C 74 %
161 10-10-2019 02:46:17 14.1 C 74 %
162 10-10-2019 02:56:17 14.1 C 74 %
163 10-10-2019 03:06:17 14.1 C 74 %
164 10-10-2019 03:16:17 14.1 C 74 %
165 10-10-2019 03:26:17 14 C 74 %
166 10-10-2019 03:36:17 14 C 74 %
167 10-10-2019 03:46:18 14 C 74 %
168 10-10-2019 03:56:18 14 C 74 %
169 10-10-2019 04:06:17 14 C 74 %
170 10-10-2019 04:16:17 14 C 74 %
171 10-10-2019 04:26:17 14 C 74 %
172 10-10-2019 04:36:17 14 C 74 %
173 10-10-2019 04:46:18 14 C 74 %
174 10-10-2019 04:56:18 14 C 74 %
175 10-10-2019 05:06:17 14 C 74 %
Sensor: Nr:Datum:Temp:Feuchte:
G-T/H 176 10-10-2019 05:16:18 14 C 74 %
177 10-10-2019 05:26:18 14 C 74 %
178 10-10-2019 05:36:17 14 C 74 %
179 10-10-2019 05:46:18 14 C 74 %
180 10-10-2019 05:56:18 14 C 74 %
181 10-10-2019 06:06:17 14 C 74 %
182 10-10-2019 06:16:18 14 C 74 %
183 10-10-2019 06:26:18 14 C 74 %
184 10-10-2019 06:36:17 14 C 74 %
185 10-10-2019 06:46:17 13.9 C 75 %
186 10-10-2019 06:56:17 14 C 74 %
187 10-10-2019 07:06:17 14 C 74 %
188 10-10-2019 07:16:17 13.9 C 75 %
189 10-10-2019 07:26:17 14 C 74 %
190 10-10-2019 07:36:17 14 C 74 %
191 10-10-2019 07:46:17 13.9 C 74 %
192 10-10-2019 07:56:17 13.9 C 74 %
193 10-10-2019 08:06:18 13.9 C 75 %
194 10-10-2019 08:16:17 13.9 C 74 %
195